<?xml version="1.0" encoding="UTF-8" standalone="no" ?><gpx xmlns="http://www.topografix.com/GPX/1/1" xmlns:gpxx="http://www.garmin.com/xmlschemas/GpxExtensions/v3" xmlns:wptx1="http://www.garmin.com/xmlschemas/WaypointExtension/v1" xmlns:gpxtpx="http://www.garmin.com/xmlschemas/TrackPointExtension/v1" creator="GuideVTT.com" version="1.1" xmlns:xsi="http://www.w3.org/2001/XMLSchema-instance" xsi:schemaLocation="http://www.topografix.com/GPX/1/1 http://www.topografix.com/GPX/1/1/gpx.xsd http://www.garmin.com/xmlschemas/GpxExtensions/v3 http://www8.garmin.com/xmlschemas/GpxExtensionsv3.xsd http://www.garmin.com/xmlschemas/WaypointExtension/v1 http://www8.garmin.com/xmlschemas/WaypointExtensionv1.xsd http://www.garmin.com/xmlschemas/TrackPointExtension/v1 http://www.garmin.com/xmlschemas/TrackPointExtensionv1.xsd">
<metadata><link href="http://www.garmin.com"><text>Garmin International</text></link><time>2013-06-22T15:13:50Z</time></metadata>
<trk><name>arbaz.gpx</name><extensions><gpxx:TrackExtension><gpxx:DisplayColor>Cyan</gpxx:DisplayColor></gpxx:TrackExtension></extensions><trkseg>
<trkpt lat="46.23011780" lon="7.35162354"><ele></ele><time>2014-6-4T22:42:30Z</time></trkpt>
<trkpt lat="46.23011780" lon="7.35162306"><ele></ele><time>2014-6-4T22:42:33Z</time></trkpt>
<trkpt lat="46.23011780" lon="7.35162258"><ele></ele><time>2014-6-4T22:42:36Z</time></trkpt>
<trkpt lat="46.23011398" lon="7.35161972"><ele></ele><time>2014-6-4T22:42:39Z</time></trkpt>
<trkpt lat="46.23012543" lon="7.35150623"><ele></ele><time>2014-6-4T22:42:42Z</time></trkpt>
<trkpt lat="46.23016357" lon="7.35120773"><ele></ele><time>2014-6-4T22:42:45Z</time></trkpt>
<trkpt lat="46.23024368" lon="7.35072517"><ele></ele><time>2014-6-4T22:42:48Z</time></trkpt>
<trkpt lat="46.23025894" lon="7.35063648"><ele></ele><time>2014-6-4T22:42:51Z</time></trkpt>
<trkpt lat="46.23026657" lon="7.35033369"><ele></ele><time>2014-6-4T22:42:54Z</time></trkpt>
<trkpt lat="46.23025894" lon="7.35023260"><ele></ele><time>2014-6-4T22:42:57Z</time></trkpt>
<trkpt lat="46.23024750" lon="7.35013199"><ele></ele><time>2014-6-4T22:43:0Z</time></trkpt>
<trkpt lat="46.23019409" lon="7.34983778"><ele></ele><time>2014-6-4T22:43:3Z</time></trkpt>
<trkpt lat="46.23014069" lon="7.34952784"><ele></ele><time>2014-6-4T22:43:6Z</time></trkpt>
<trkpt lat="46.23006821" lon="7.34911394"><ele></ele><time>2014-6-4T22:43:9Z</time></trkpt>
<trkpt lat="46.23005676" lon="7.34901667"><ele></ele><time>2014-6-4T22:43:12Z</time></trkpt>
<trkpt lat="46.23011398" lon="7.34883928"><ele></ele><time>2014-6-4T22:43:15Z</time></trkpt>
<trkpt lat="46.23026657" lon="7.34876299"><ele></ele><time>2014-6-4T22:43:18Z</time></trkpt>
<trkpt lat="46.23026657" lon="7.34864521"><ele></ele><time>2014-6-4T22:43:21Z</time></trkpt>
<trkpt lat="46.23023987" lon="7.34858704"><ele></ele><time>2014-6-4T22:43:24Z</time></trkpt>
<trkpt lat="46.22994614" lon="7.34794855"><ele></ele><time>2014-6-4T22:43:27Z</time></trkpt>
<trkpt lat="46.22960663" lon="7.34717178"><ele></ele><time>2014-6-4T22:43:30Z</time></trkpt>
<trkpt lat="46.22934723" lon="7.34658098"><ele></ele><time>2014-6-4T22:43:33Z</time></trkpt>
<trkpt lat="46.22921753" lon="7.34616566"><ele></ele><time>2014-6-4T22:43:36Z</time></trkpt>
<trkpt lat="46.22908020" lon="7.34607840"><ele></ele><time>2014-6-4T22:43:39Z</time></trkpt>
<trkpt lat="46.22900391" lon="7.34607506"><ele></ele><time>2014-6-4T22:43:42Z</time></trkpt>
<trkpt lat="46.22877884" lon="7.34609365"><ele></ele><time>2014-6-4T22:43:45Z</time></trkpt>
<trkpt lat="46.22870636" lon="7.34610510"><ele></ele><time>2014-6-4T22:43:48Z</time></trkpt>
<trkpt lat="46.22865677" lon="7.34611702"><ele></ele><time>2014-6-4T22:43:51Z</time></trkpt>
<trkpt lat="46.22862625" lon="7.34612370"><ele></ele><time>2014-6-4T22:43:54Z</time></trkpt>
<trkpt lat="46.22862625" lon="7.34612799"><ele></ele><time>2014-6-4T22:43:57Z</time></trkpt>
<trkpt lat="46.22862625" lon="7.34613132"><ele></ele><time>2014-6-4T22:44:0Z</time></trkpt>
<trkpt lat="46.22862625" lon="7.34613705"><ele></ele><time>2014-6-4T22:44:3Z</time></trkpt>
<trkpt lat="46.22863007" lon="7.34614038"><ele></ele><time>2014-6-4T22:44:6Z</time></trkpt>
<trkpt lat="46.22863007" lon="7.34614563"><ele></ele><time>2014-6-4T22:44:9Z</time></trkpt>
<trkpt lat="46.22855377" lon="7.34615374"><ele></ele><time>2014-6-4T22:44:12Z</time></trkpt>
<trkpt lat="46.22837448" lon="7.34617615"><ele></ele><time>2014-6-4T22:44:15Z</time></trkpt>
<trkpt lat="46.22820663" lon="7.34619617"><ele></ele><time>2014-6-4T22:44:18Z</time></trkpt>
<trkpt lat="46.22803116" lon="7.34622002"><ele></ele><time>2014-6-4T22:44:21Z</time></trkpt>
<trkpt lat="46.22769547" lon="7.34629393"><ele></ele><time>2014-6-4T22:44:24Z</time></trkpt>
<trkpt lat="46.22749710" lon="7.34620190"><ele></ele><time>2014-6-4T22:44:27Z</time></trkpt>
<trkpt lat="46.22743225" lon="7.34599829"><ele></ele><time>2014-6-4T22:44:30Z</time></trkpt>
<trkpt lat="46.22731400" lon="7.34539843"><ele></ele><time>2014-6-4T22:44:33Z</time></trkpt>
<trkpt lat="46.22718048" lon="7.34475088"><ele></ele><time>2014-6-4T22:44:36Z</time></trkpt>
<trkpt lat="46.22705460" lon="7.34416819"><ele></ele><time>2014-6-4T22:44:39Z</time></trkpt>
<trkpt lat="46.22682953" lon="7.34308577"><ele></ele><time>2014-6-4T22:44:42Z</time></trkpt>
<trkpt lat="46.22666550" lon="7.34232903"><ele></ele><time>2014-6-4T22:44:45Z</time></trkpt>
<trkpt lat="46.22663116" lon="7.34214735"><ele></ele><time>2014-6-4T22:44:48Z</time></trkpt>
<trkpt lat="46.22666550" lon="7.34180546"><ele></ele><time>2014-6-4T22:44:51Z</time></trkpt>
<trkpt lat="46.22671890" lon="7.34175968"><ele></ele><time>2014-6-4T22:44:54Z</time></trkpt>
<trkpt lat="46.22684097" lon="7.34168768"><ele></ele><time>2014-6-4T22:44:57Z</time></trkpt>
<trkpt lat="46.22697067" lon="7.34151840"><ele></ele><time>2014-6-4T22:45:0Z</time></trkpt>
<trkpt lat="46.22695160" lon="7.34135342"><ele></ele><time>2014-6-4T22:45:3Z</time></trkpt>
<trkpt lat="46.22678375" lon="7.34083700"><ele></ele><time>2014-6-4T22:45:6Z</time></trkpt>
<trkpt lat="46.22649384" lon="7.34030008"><ele></ele><time>2014-6-4T22:45:9Z</time></trkpt>
<trkpt lat="46.22637939" lon="7.34012032"><ele></ele><time>2014-6-4T22:45:12Z</time></trkpt>
<trkpt lat="46.22618103" lon="7.33995628"><ele></ele><time>2014-6-4T22:45:15Z</time></trkpt>
<trkpt lat="46.22583389" lon="7.33978653"><ele></ele><time>2014-6-4T22:45:18Z</time></trkpt>
<trkpt lat="46.22565842" lon="7.33955336"><ele></ele><time>2014-6-4T22:45:21Z</time></trkpt>
<trkpt lat="46.22548676" lon="7.33915901"><ele></ele><time>2014-6-4T22:45:24Z</time></trkpt>
<trkpt lat="46.22545624" lon="7.33906984"><ele></ele><time>2014-6-4T22:45:27Z</time></trkpt>
<trkpt lat="46.22546005" lon="7.33868217"><ele></ele><time>2014-6-4T22:45:30Z</time></trkpt>
<trkpt lat="46.22547150" lon="7.33858681"><ele></ele><time>2014-6-4T22:45:33Z</time></trkpt>
<trkpt lat="46.22544861" lon="7.33811426"><ele></ele><time>2014-6-4T22:45:36Z</time></trkpt>
<trkpt lat="46.22540665" lon="7.33750248"><ele></ele><time>2014-6-4T22:45:39Z</time></trkpt>
<trkpt lat="46.22539902" lon="7.33740759"><ele></ele><time>2014-6-4T22:45:42Z</time></trkpt>
<trkpt lat="46.22527313" lon="7.33695126"><ele></ele><time>2014-6-4T22:45:45Z</time></trkpt>
<trkpt lat="46.22521591" lon="7.33668089"><ele></ele><time>2014-6-4T22:45:48Z</time></trkpt>
<trkpt lat="46.22525024" lon="7.33665133"><ele></ele><time>2014-6-4T22:45:51Z</time></trkpt>
<trkpt lat="46.22557068" lon="7.33648634"><ele></ele><time>2014-6-4T22:45:54Z</time></trkpt>
<trkpt lat="46.22589111" lon="7.33628559"><ele></ele><time>2014-6-4T22:45:57Z</time></trkpt>
<trkpt lat="46.22591019" lon="7.33612633"><ele></ele><time>2014-6-4T22:46:0Z</time></trkpt>
<trkpt lat="46.22584152" lon="7.33587360"><ele></ele><time>2014-6-4T22:46:3Z</time></trkpt>
<trkpt lat="46.22555923" lon="7.33530760"><ele></ele><time>2014-6-4T22:46:6Z</time></trkpt>
<trkpt lat="46.22531891" lon="7.33485413"><ele></ele><time>2014-6-4T22:46:9Z</time></trkpt>
<trkpt lat="46.22530365" lon="7.33458424"><ele></ele><time>2014-6-4T22:46:12Z</time></trkpt>
<trkpt lat="46.22542572" lon="7.33440971"><ele></ele><time>2014-6-4T22:46:15Z</time></trkpt>
<trkpt lat="46.22552490" lon="7.33430338"><ele></ele><time>2014-6-4T22:46:18Z</time></trkpt>
<trkpt lat="46.22562408" lon="7.33402872"><ele></ele><time>2014-6-4T22:46:21Z</time></trkpt>
<trkpt lat="46.22552872" lon="7.33385038"><ele></ele><time>2014-6-4T22:46:24Z</time></trkpt>
<trkpt lat="46.22524643" lon="7.33352518"><ele></ele><time>2014-6-4T22:46:27Z</time></trkpt>
<trkpt lat="46.22501755" lon="7.33344984"><ele></ele><time>2014-6-4T22:46:30Z</time></trkpt>
<trkpt lat="46.22476196" lon="7.33327532"><ele></ele><time>2014-6-4T22:46:33Z</time></trkpt>
<trkpt lat="46.22472763" lon="7.33319759"><ele></ele><time>2014-6-4T22:46:36Z</time></trkpt>
<trkpt lat="46.22443390" lon="7.33246326"><ele></ele><time>2014-6-4T22:46:39Z</time></trkpt>
<trkpt lat="46.22435379" lon="7.33221292"><ele></ele><time>2014-6-4T22:46:42Z</time></trkpt>
<trkpt lat="46.22427750" lon="7.33184052"><ele></ele><time>2014-6-4T22:46:45Z</time></trkpt>
<trkpt lat="46.22414017" lon="7.33141756"><ele></ele><time>2014-6-4T22:46:48Z</time></trkpt>
<trkpt lat="46.22387695" lon="7.33075953"><ele></ele><time>2014-6-4T22:46:51Z</time></trkpt>
<trkpt lat="46.22360992" lon="7.32993984"><ele></ele><time>2014-6-4T22:46:54Z</time></trkpt>
<trkpt lat="46.22352982" lon="7.32935619"><ele></ele><time>2014-6-4T22:46:57Z</time></trkpt>
<trkpt lat="46.22344971" lon="7.32866621"><ele></ele><time>2014-6-4T22:47:0Z</time></trkpt>
<trkpt lat="46.22331238" lon="7.32788897"><ele></ele><time>2014-6-4T22:47:3Z</time></trkpt>
<trkpt lat="46.22331238" lon="7.32779026"><ele></ele><time>2014-6-4T22:47:6Z</time></trkpt>
<trkpt lat="46.22334671" lon="7.32738590"><ele></ele><time>2014-6-4T22:47:9Z</time></trkpt>
<trkpt lat="46.22328186" lon="7.32687235"><ele></ele><time>2014-6-4T22:47:12Z</time></trkpt>
<trkpt lat="46.22308731" lon="7.32593298"><ele></ele><time>2014-6-4T22:47:15Z</time></trkpt>
<trkpt lat="46.22290421" lon="7.32522535"><ele></ele><time>2014-6-4T22:47:18Z</time></trkpt>
<trkpt lat="46.22287750" lon="7.32512474"><ele></ele><time>2014-6-4T22:47:21Z</time></trkpt>
<trkpt lat="46.22271347" lon="7.32494926"><ele></ele><time>2014-6-4T22:47:24Z</time></trkpt>
<trkpt lat="46.22256470" lon="7.32498074"><ele></ele><time>2014-6-4T22:47:27Z</time></trkpt>
<trkpt lat="46.22228622" lon="7.32499361"><ele></ele><time>2014-6-4T22:47:30Z</time></trkpt>
<trkpt lat="46.22219086" lon="7.32474470"><ele></ele><time>2014-6-4T22:47:33Z</time></trkpt>
<trkpt lat="46.22203827" lon="7.32396650"><ele></ele><time>2014-6-4T22:47:36Z</time></trkpt>
<trkpt lat="46.22182846" lon="7.32294512"><ele></ele><time>2014-6-4T22:47:39Z</time></trkpt>
<trkpt lat="46.22164536" lon="7.32200575"><ele></ele><time>2014-6-4T22:47:42Z</time></trkpt>
<trkpt lat="46.22146988" lon="7.32118511"><ele></ele><time>2014-6-4T22:47:45Z</time></trkpt>
<trkpt lat="46.22135925" lon="7.32069111"><ele></ele><time>2014-6-4T22:47:48Z</time></trkpt>
<trkpt lat="46.22131729" lon="7.32040024"><ele></ele><time>2014-6-4T22:47:51Z</time></trkpt>
<trkpt lat="46.22128296" lon="7.32009506"><ele></ele><time>2014-6-4T22:47:54Z</time></trkpt>
<trkpt lat="46.22135162" lon="7.31993771"><ele></ele><time>2014-6-4T22:47:57Z</time></trkpt>
<trkpt lat="46.22149658" lon="7.31965113"><ele></ele><time>2014-6-4T22:48:0Z</time></trkpt>
<trkpt lat="46.22145462" lon="7.31946945"><ele></ele><time>2014-6-4T22:48:3Z</time></trkpt>
<trkpt lat="46.22103119" lon="7.31830406"><ele></ele><time>2014-6-4T22:48:6Z</time></trkpt>
<trkpt lat="46.22069550" lon="7.31741810"><ele></ele><time>2014-6-4T22:48:9Z</time></trkpt>
<trkpt lat="46.22041321" lon="7.31666660"><ele></ele><time>2014-6-4T22:48:12Z</time></trkpt>
<trkpt lat="46.22003937" lon="7.31566477"><ele></ele><time>2014-6-4T22:48:15Z</time></trkpt>
<trkpt lat="46.21979141" lon="7.31498671"><ele></ele><time>2014-6-4T22:48:18Z</time></trkpt>
<trkpt lat="46.21945572" lon="7.31408405"><ele></ele><time>2014-6-4T22:48:21Z</time></trkpt>
<trkpt lat="46.21912384" lon="7.31315708"><ele></ele><time>2014-6-4T22:48:24Z</time></trkpt>
<trkpt lat="46.21893692" lon="7.31244278"><ele></ele><time>2014-6-4T22:48:27Z</time></trkpt>
<trkpt lat="46.21868515" lon="7.31143856"><ele></ele><time>2014-6-4T22:48:30Z</time></trkpt>
<trkpt lat="46.21842575" lon="7.31075954"><ele></ele><time>2014-6-4T22:48:33Z</time></trkpt>
<trkpt lat="46.21821213" lon="7.31026936"><ele></ele><time>2014-6-4T22:48:36Z</time></trkpt>
<trkpt lat="46.21805954" lon="7.30984306"><ele></ele><time>2014-6-4T22:48:39Z</time></trkpt>
<trkpt lat="46.21787262" lon="7.30925560"><ele></ele><time>2014-6-4T22:48:42Z</time></trkpt>
<trkpt lat="46.21770096" lon="7.30876589"><ele></ele><time>2014-6-4T22:48:45Z</time></trkpt>
<trkpt lat="46.21744537" lon="7.30800581"><ele></ele><time>2014-6-4T22:48:48Z</time></trkpt>
<trkpt lat="46.21730804" lon="7.30756140"><ele></ele><time>2014-6-4T22:48:51Z</time></trkpt>
<trkpt lat="46.21712875" lon="7.30745888"><ele></ele><time>2014-6-4T22:48:54Z</time></trkpt>
<trkpt lat="46.21707153" lon="7.30739784"><ele></ele><time>2014-6-4T22:48:57Z</time></trkpt>
<trkpt lat="46.21695328" lon="7.30695295"><ele></ele><time>2014-6-4T22:49:0Z</time></trkpt>
<trkpt lat="46.21687317" lon="7.30662394"><ele></ele><time>2014-6-4T22:49:3Z</time></trkpt>
<trkpt lat="46.21678543" lon="7.30648994"><ele></ele><time>2014-6-4T22:49:6Z</time></trkpt>
<trkpt lat="46.21660995" lon="7.30656052"><ele></ele><time>2014-6-4T22:49:9Z</time></trkpt>
<trkpt lat="46.21654510" lon="7.30652094"><ele></ele><time>2014-6-4T22:49:12Z</time></trkpt>
<trkpt lat="46.21646500" lon="7.30621433"><ele></ele><time>2014-6-4T22:49:15Z</time></trkpt>
<trkpt lat="46.21635818" lon="7.30575752"><ele></ele><time>2014-6-4T22:49:18Z</time></trkpt>
<trkpt lat="46.21634293" lon="7.30565453"><ele></ele><time>2014-6-4T22:49:21Z</time></trkpt>
<trkpt lat="46.21647263" lon="7.30555058"><ele></ele><time>2014-6-4T22:49:24Z</time></trkpt>
<trkpt lat="46.21677017" lon="7.30546379"><ele></ele><time>2014-6-4T22:49:27Z</time></trkpt>
<trkpt lat="46.21686554" lon="7.30541611"><ele></ele><time>2014-6-4T22:49:30Z</time></trkpt>
<trkpt lat="46.21739578" lon="7.30528498"><ele></ele><time>2014-6-4T22:49:33Z</time></trkpt>
<trkpt lat="46.21782684" lon="7.30527163"><ele></ele><time>2014-6-4T22:49:36Z</time></trkpt>
<trkpt lat="46.21830750" lon="7.30533123"><ele></ele><time>2014-6-4T22:49:39Z</time></trkpt>
<trkpt lat="46.21879196" lon="7.30546045"><ele></ele><time>2014-6-4T22:49:42Z</time></trkpt>
<trkpt lat="46.21905518" lon="7.30558395"><ele></ele><time>2014-6-4T22:49:45Z</time></trkpt>
<trkpt lat="46.21958160" lon="7.30589151"><ele></ele><time>2014-6-4T22:49:48Z</time></trkpt>
<trkpt lat="46.21998215" lon="7.30622625"><ele></ele><time>2014-6-4T22:49:51Z</time></trkpt>
<trkpt lat="46.22039795" lon="7.30667973"><ele></ele><time>2014-6-4T22:49:54Z</time></trkpt>
<trkpt lat="46.22072601" lon="7.30711079"><ele></ele><time>2014-6-4T22:49:57Z</time></trkpt>
<trkpt lat="46.22100830" lon="7.30751133"><ele></ele><time>2014-6-4T22:50:0Z</time></trkpt>
<trkpt lat="46.22112656" lon="7.30767775"><ele></ele><time>2014-6-4T22:50:3Z</time></trkpt>
<trkpt lat="46.22132492" lon="7.30798912"><ele></ele><time>2014-6-4T22:50:6Z</time></trkpt>
<trkpt lat="46.22135925" lon="7.30802727"><ele></ele><time>2014-6-4T22:50:9Z</time></trkpt>
<trkpt lat="46.22173309" lon="7.30855560"><ele></ele><time>2014-6-4T22:50:12Z</time></trkpt>
<trkpt lat="46.22209930" lon="7.30907488"><ele></ele><time>2014-6-4T22:50:15Z</time></trkpt>
<trkpt lat="46.22232056" lon="7.30938816"><ele></ele><time>2014-6-4T22:50:18Z</time></trkpt>
<trkpt lat="46.22264481" lon="7.30985737"><ele></ele><time>2014-6-4T22:50:21Z</time></trkpt>
<trkpt lat="46.22305298" lon="7.31044912"><ele></ele><time>2014-6-4T22:50:24Z</time></trkpt>
<trkpt lat="46.22340012" lon="7.31094837"><ele></ele><time>2014-6-4T22:50:27Z</time></trkpt>
<trkpt lat="46.22370911" lon="7.31137228"><ele></ele><time>2014-6-4T22:50:30Z</time></trkpt>
<trkpt lat="46.22408676" lon="7.31191635"><ele></ele><time>2014-6-4T22:50:33Z</time></trkpt>
<trkpt lat="46.22442245" lon="7.31238461"><ele></ele><time>2014-6-4T22:50:36Z</time></trkpt>
<trkpt lat="46.22459793" lon="7.31259489"><ele></ele><time>2014-6-4T22:50:39Z</time></trkpt>
<trkpt lat="46.22478867" lon="7.31261253"><ele></ele><time>2014-6-4T22:50:42Z</time></trkpt>
<trkpt lat="46.22484970" lon="7.31263733"><ele></ele><time>2014-6-4T22:50:45Z</time></trkpt>
<trkpt lat="46.22496414" lon="7.31278658"><ele></ele><time>2014-6-4T22:50:48Z</time></trkpt>
<trkpt lat="46.22511292" lon="7.31280422"><ele></ele><time>2014-6-4T22:50:51Z</time></trkpt>
<trkpt lat="46.22558212" lon="7.31273794"><ele></ele><time>2014-6-4T22:50:54Z</time></trkpt>
<trkpt lat="46.22612381" lon="7.31269741"><ele></ele><time>2014-6-4T22:50:57Z</time></trkpt>
<trkpt lat="46.22626114" lon="7.31278324"><ele></ele><time>2014-6-4T22:51:0Z</time></trkpt>
<trkpt lat="46.22628784" lon="7.31299782"><ele></ele><time>2014-6-4T22:51:3Z</time></trkpt>
<trkpt lat="46.22628784" lon="7.31306744"><ele></ele><time>2014-6-4T22:51:6Z</time></trkpt>
<trkpt lat="46.22629166" lon="7.31321478"><ele></ele><time>2014-6-4T22:51:9Z</time></trkpt>
<trkpt lat="46.22638702" lon="7.31346464"><ele></ele><time>2014-6-4T22:51:12Z</time></trkpt>
<trkpt lat="46.22649384" lon="7.31348658"><ele></ele><time>2014-6-4T22:51:15Z</time></trkpt>
<trkpt lat="46.22698593" lon="7.31342459"><ele></ele><time>2014-6-4T22:51:18Z</time></trkpt>
<trkpt lat="46.22759247" lon="7.31334496"><ele></ele><time>2014-6-4T22:51:21Z</time></trkpt>
<trkpt lat="46.22815704" lon="7.31327724"><ele></ele><time>2014-6-4T22:51:24Z</time></trkpt>
<trkpt lat="46.22890472" lon="7.31318569"><ele></ele><time>2014-6-4T22:51:27Z</time></trkpt>
<trkpt lat="46.22972488" lon="7.31308222"><ele></ele><time>2014-6-4T22:51:30Z</time></trkpt>
<trkpt lat="46.23036194" lon="7.31296778"><ele></ele><time>2014-6-4T22:51:33Z</time></trkpt>
<trkpt lat="46.23082733" lon="7.31281853"><ele></ele><time>2014-6-4T22:51:36Z</time></trkpt>
<trkpt lat="46.23134995" lon="7.31273174"><ele></ele><time>2014-6-4T22:51:39Z</time></trkpt>
<trkpt lat="46.23185730" lon="7.31267452"><ele></ele><time>2014-6-4T22:51:42Z</time></trkpt>
<trkpt lat="46.23201752" lon="7.31262159"><ele></ele><time>2014-6-4T22:51:45Z</time></trkpt>
<trkpt lat="46.23233795" lon="7.31250954"><ele></ele><time>2014-6-4T22:51:48Z</time></trkpt>
<trkpt lat="46.23286057" lon="7.31234503"><ele></ele><time>2014-6-4T22:51:51Z</time></trkpt>
<trkpt lat="46.23329926" lon="7.31216478"><ele></ele><time>2014-6-4T22:51:54Z</time></trkpt>
<trkpt lat="46.23382950" lon="7.31192446"><ele></ele><time>2014-6-4T22:51:57Z</time></trkpt>
<trkpt lat="46.23429489" lon="7.31171846"><ele></ele><time>2014-6-4T22:52:0Z</time></trkpt>
<trkpt lat="46.23453903" lon="7.31167364"><ele></ele><time>2014-6-4T22:52:3Z</time></trkpt>
<trkpt lat="46.23471069" lon="7.31180334"><ele></ele><time>2014-6-4T22:52:6Z</time></trkpt>
<trkpt lat="46.23490143" lon="7.31206942"><ele></ele><time>2014-6-4T22:52:9Z</time></trkpt>
<trkpt lat="46.23506546" lon="7.31227350"><ele></ele><time>2014-6-4T22:52:12Z</time></trkpt>
<trkpt lat="46.23508453" lon="7.31229591"><ele></ele><time>2014-6-4T22:52:15Z</time></trkpt>
<trkpt lat="46.23532867" lon="7.31251764"><ele></ele><time>2014-6-4T22:52:18Z</time></trkpt>
<trkpt lat="46.23547363" lon="7.31262159"><ele></ele><time>2014-6-4T22:52:21Z</time></trkpt>
<trkpt lat="46.23571396" lon="7.31282759"><ele></ele><time>2014-6-4T22:52:24Z</time></trkpt>
<trkpt lat="46.23585510" lon="7.31294107"><ele></ele><time>2014-6-4T22:52:27Z</time></trkpt>
<trkpt lat="46.23606873" lon="7.31312227"><ele></ele><time>2014-6-4T22:52:30Z</time></trkpt>
<trkpt lat="46.23629761" lon="7.31333160"><ele></ele><time>2014-6-4T22:52:33Z</time></trkpt>
<trkpt lat="46.23640060" lon="7.31342888"><ele></ele><time>2014-6-4T22:52:36Z</time></trkpt>
<trkpt lat="46.23661423" lon="7.31364393"><ele></ele><time>2014-6-4T22:52:39Z</time></trkpt>
<trkpt lat="46.23679733" lon="7.31381989"><ele></ele><time>2014-6-4T22:52:42Z</time></trkpt>
<trkpt lat="46.23700714" lon="7.31397438"><ele></ele><time>2014-6-4T22:52:45Z</time></trkpt>
<trkpt lat="46.23718262" lon="7.31400919"><ele></ele><time>2014-6-4T22:52:48Z</time></trkpt>
<trkpt lat="46.23733902" lon="7.31400108"><ele></ele><time>2014-6-4T22:52:51Z</time></trkpt>
<trkpt lat="46.23757935" lon="7.31398010"><ele></ele><time>2014-6-4T22:52:54Z</time></trkpt>
<trkpt lat="46.23780441" lon="7.31402111"><ele></ele><time>2014-6-4T22:52:57Z</time></trkpt>
<trkpt lat="46.23802185" lon="7.31405354"><ele></ele><time>2014-6-4T22:53:0Z</time></trkpt>
<trkpt lat="46.23828506" lon="7.31410742"><ele></ele><time>2014-6-4T22:53:3Z</time></trkpt>
<trkpt lat="46.23830795" lon="7.31411457"><ele></ele><time>2014-6-4T22:53:6Z</time></trkpt>
<trkpt lat="46.23855591" lon="7.31411648"><ele></ele><time>2014-6-4T22:53:9Z</time></trkpt>
<trkpt lat="46.23882675" lon="7.31405163"><ele></ele><time>2014-6-4T22:53:12Z</time></trkpt>
<trkpt lat="46.23910522" lon="7.31404305"><ele></ele><time>2014-6-4T22:53:15Z</time></trkpt>
<trkpt lat="46.23927689" lon="7.31414223"><ele></ele><time>2014-6-4T22:53:18Z</time></trkpt>
<trkpt lat="46.23949814" lon="7.31429482"><ele></ele><time>2014-6-4T22:53:21Z</time></trkpt>
<trkpt lat="46.23966217" lon="7.31441450"><ele></ele><time>2014-6-4T22:53:24Z</time></trkpt>
<trkpt lat="46.23989487" lon="7.31454659"><ele></ele><time>2014-6-4T22:53:27Z</time></trkpt>
<trkpt lat="46.24010849" lon="7.31461716"><ele></ele><time>2014-6-4T22:53:30Z</time></trkpt>
<trkpt lat="46.24030685" lon="7.31471586"><ele></ele><time>2014-6-4T22:53:33Z</time></trkpt>
<trkpt lat="46.24036026" lon="7.31488180"><ele></ele><time>2014-6-4T22:53:36Z</time></trkpt>
<trkpt lat="46.24031830" lon="7.31501198"><ele></ele><time>2014-6-4T22:53:39Z</time></trkpt>
<trkpt lat="46.24013138" lon="7.31520319"><ele></ele><time>2014-6-4T22:53:42Z</time></trkpt>
<trkpt lat="46.23999405" lon="7.31532288"><ele></ele><time>2014-6-4T22:53:45Z</time></trkpt>
<trkpt lat="46.23983002" lon="7.31549311"><ele></ele><time>2014-6-4T22:53:48Z</time></trkpt>
<trkpt lat="46.23970032" lon="7.31568098"><ele></ele><time>2014-6-4T22:53:51Z</time></trkpt>
<trkpt lat="46.23954391" lon="7.31596184"><ele></ele><time>2014-6-4T22:53:54Z</time></trkpt>
<trkpt lat="46.23953629" lon="7.31611824"><ele></ele><time>2014-6-4T22:53:57Z</time></trkpt>
<trkpt lat="46.23963165" lon="7.31618261"><ele></ele><time>2014-6-4T22:54:0Z</time></trkpt>
<trkpt lat="46.23981476" lon="7.31619215"><ele></ele><time>2014-6-4T22:54:3Z</time></trkpt>
<trkpt lat="46.23999405" lon="7.31634712"><ele></ele><time>2014-6-4T22:54:6Z</time></trkpt>
<trkpt lat="46.24016953" lon="7.31641245"><ele></ele><time>2014-6-4T22:54:9Z</time></trkpt>
<trkpt lat="46.24031067" lon="7.31643534"><ele></ele><time>2014-6-4T22:54:12Z</time></trkpt>
<trkpt lat="46.24046707" lon="7.31647635"><ele></ele><time>2014-6-4T22:54:15Z</time></trkpt>
<trkpt lat="46.24067307" lon="7.31658649"><ele></ele><time>2014-6-4T22:54:18Z</time></trkpt>
<trkpt lat="46.24069977" lon="7.31659460"><ele></ele><time>2014-6-4T22:54:21Z</time></trkpt>
<trkpt lat="46.24083328" lon="7.31657267"><ele></ele><time>2014-6-4T22:54:24Z</time></trkpt>
<trkpt lat="46.24096680" lon="7.31646013"><ele></ele><time>2014-6-4T22:54:27Z</time></trkpt>
<trkpt lat="46.24112701" lon="7.31637621"><ele></ele><time>2014-6-4T22:54:30Z</time></trkpt>
<trkpt lat="46.24128723" lon="7.31646013"><ele></ele><time>2014-6-4T22:54:33Z</time></trkpt>
<trkpt lat="46.24147797" lon="7.31657219"><ele></ele><time>2014-6-4T22:54:36Z</time></trkpt>
<trkpt lat="46.24162292" lon="7.31670856"><ele></ele><time>2014-6-4T22:54:39Z</time></trkpt>
<trkpt lat="46.24162292" lon="7.31686211"><ele></ele><time>2014-6-4T22:54:42Z</time></trkpt>
<trkpt lat="46.24151611" lon="7.31698370"><ele></ele><time>2014-6-4T22:54:45Z</time></trkpt>
<trkpt lat="46.24138641" lon="7.31717730"><ele></ele><time>2014-6-4T22:54:48Z</time></trkpt>
<trkpt lat="46.24139786" lon="7.31733322"><ele></ele><time>2014-6-4T22:54:51Z</time></trkpt>
<trkpt lat="46.24150467" lon="7.31765842"><ele></ele><time>2014-6-4T22:54:54Z</time></trkpt>
<trkpt lat="46.24156189" lon="7.31773472"><ele></ele><time>2014-6-4T22:54:57Z</time></trkpt>
<trkpt lat="46.24171829" lon="7.31781101"><ele></ele><time>2014-6-4T22:55:0Z</time></trkpt>
<trkpt lat="46.24193192" lon="7.31782007"><ele></ele><time>2014-6-4T22:55:3Z</time></trkpt>
<trkpt lat="46.24213409" lon="7.31786633"><ele></ele><time>2014-6-4T22:55:6Z</time></trkpt>
<trkpt lat="46.24236298" lon="7.31796217"><ele></ele><time>2014-6-4T22:55:9Z</time></trkpt>
<trkpt lat="46.24247360" lon="7.31800604"><ele></ele><time>2014-6-4T22:55:12Z</time></trkpt>
<trkpt lat="46.24274445" lon="7.31810951"><ele></ele><time>2014-6-4T22:55:15Z</time></trkpt>
<trkpt lat="46.24296188" lon="7.31822157"><ele></ele><time>2014-6-4T22:55:18Z</time></trkpt>
<trkpt lat="46.24313354" lon="7.31837606"><ele></ele><time>2014-6-4T22:55:21Z</time></trkpt>
<trkpt lat="46.24330521" lon="7.31852007"><ele></ele><time>2014-6-4T22:55:24Z</time></trkpt>
<trkpt lat="46.24346161" lon="7.31850290"><ele></ele><time>2014-6-4T22:55:27Z</time></trkpt>
<trkpt lat="46.24369049" lon="7.31834841"><ele></ele><time>2014-6-4T22:55:30Z</time></trkpt>
<trkpt lat="46.24390030" lon="7.31815910"><ele></ele><time>2014-6-4T22:55:33Z</time></trkpt>
<trkpt lat="46.24412918" lon="7.31794214"><ele></ele><time>2014-6-4T22:55:36Z</time></trkpt>
<trkpt lat="46.24424744" lon="7.31778908"><ele></ele><time>2014-6-4T22:55:39Z</time></trkpt>
<trkpt lat="46.24429321" lon="7.31760836"><ele></ele><time>2014-6-4T22:55:42Z</time></trkpt>
<trkpt lat="46.24426651" lon="7.31730413"><ele></ele><time>2014-6-4T22:55:45Z</time></trkpt>
<trkpt lat="46.24421310" lon="7.31700706"><ele></ele><time>2014-6-4T22:55:48Z</time></trkpt>
<trkpt lat="46.24412537" lon="7.31665134"><ele></ele><time>2014-6-4T22:55:51Z</time></trkpt>
<trkpt lat="46.24405670" lon="7.31628084"><ele></ele><time>2014-6-4T22:55:54Z</time></trkpt>
<trkpt lat="46.24401855" lon="7.31601572"><ele></ele><time>2014-6-4T22:55:57Z</time></trkpt>
<trkpt lat="46.24398041" lon="7.31577682"><ele></ele><time>2014-6-4T22:56:0Z</time></trkpt>
<trkpt lat="46.24393463" lon="7.31548405"><ele></ele><time>2014-6-4T22:56:3Z</time></trkpt>
<trkpt lat="46.24391174" lon="7.31533051"><ele></ele><time>2014-6-4T22:56:6Z</time></trkpt>
<trkpt lat="46.24390793" lon="7.31510067"><ele></ele><time>2014-6-4T22:56:9Z</time></trkpt>
<trkpt lat="46.24397659" lon="7.31486130"><ele></ele><time>2014-6-4T22:56:12Z</time></trkpt>
<trkpt lat="46.24409103" lon="7.31458187"><ele></ele><time>2014-6-4T22:56:15Z</time></trkpt>
<trkpt lat="46.24410629" lon="7.31433439"><ele></ele><time>2014-6-4T22:56:18Z</time></trkpt>
<trkpt lat="46.24406815" lon="7.31414318"><ele></ele><time>2014-6-4T22:56:21Z</time></trkpt>
<trkpt lat="46.24403763" lon="7.31389236"><ele></ele><time>2014-6-4T22:56:24Z</time></trkpt>
<trkpt lat="46.24404907" lon="7.31363869"><ele></ele><time>2014-6-4T22:56:27Z</time></trkpt>
<trkpt lat="46.24410629" lon="7.31327343"><ele></ele><time>2014-6-4T22:56:30Z</time></trkpt>
<trkpt lat="46.24415588" lon="7.31287241"><ele></ele><time>2014-6-4T22:56:33Z</time></trkpt>
<trkpt lat="46.24422455" lon="7.31268883"><ele></ele><time>2014-6-4T22:56:36Z</time></trkpt>
<trkpt lat="46.24433517" lon="7.31261873"><ele></ele><time>2014-6-4T22:56:39Z</time></trkpt>
<trkpt lat="46.24454498" lon="7.31256866"><ele></ele><time>2014-6-4T22:56:42Z</time></trkpt>
<trkpt lat="46.24474335" lon="7.31254911"><ele></ele><time>2014-6-4T22:56:45Z</time></trkpt>
<trkpt lat="46.24477386" lon="7.31267309"><ele></ele><time>2014-6-4T22:56:48Z</time></trkpt>
<trkpt lat="46.24475861" lon="7.31269550"><ele></ele><time>2014-6-4T22:56:51Z</time></trkpt>
<trkpt lat="46.24463272" lon="7.31281567"><ele></ele><time>2014-6-4T22:56:54Z</time></trkpt>
<trkpt lat="46.24455261" lon="7.31301641"><ele></ele><time>2014-6-4T22:56:57Z</time></trkpt>
<trkpt lat="46.24459076" lon="7.31326294"><ele></ele><time>2014-6-4T22:57:0Z</time></trkpt>
<trkpt lat="46.24467850" lon="7.31354380"><ele></ele><time>2014-6-4T22:57:3Z</time></trkpt>
<trkpt lat="46.24476624" lon="7.31386328"><ele></ele><time>2014-6-4T22:57:6Z</time></trkpt>
<trkpt lat="46.24484634" lon="7.31413698"><ele></ele><time>2014-6-4T22:57:9Z</time></trkpt>
<trkpt lat="46.24493790" lon="7.31447792"><ele></ele><time>2014-6-4T22:57:12Z</time></trkpt>
<trkpt lat="46.24499893" lon="7.31467581"><ele></ele><time>2014-6-4T22:57:15Z</time></trkpt>
<trkpt lat="46.24505615" lon="7.31490660"><ele></ele><time>2014-6-4T22:57:18Z</time></trkpt>
<trkpt lat="46.24512100" lon="7.31520176"><ele></ele><time>2014-6-4T22:57:21Z</time></trkpt>
<trkpt lat="46.24519348" lon="7.31552410"><ele></ele><time>2014-6-4T22:57:24Z</time></trkpt>
<trkpt lat="46.24526596" lon="7.31584167"><ele></ele><time>2014-6-4T22:57:27Z</time></trkpt>
<trkpt lat="46.24530411" lon="7.31604385"><ele></ele><time>2014-6-4T22:57:30Z</time></trkpt>
<trkpt lat="46.24535751" lon="7.31630135"><ele></ele><time>2014-6-4T22:57:33Z</time></trkpt>
<trkpt lat="46.24540329" lon="7.31658697"><ele></ele><time>2014-6-4T22:57:36Z</time></trkpt>
<trkpt lat="46.24542999" lon="7.31676197"><ele></ele><time>2014-6-4T22:57:39Z</time></trkpt>
<trkpt lat="46.24544144" lon="7.31687975"><ele></ele><time>2014-6-4T22:57:42Z</time></trkpt>
<trkpt lat="46.24546814" lon="7.31717920"><ele></ele><time>2014-6-4T22:57:45Z</time></trkpt>
<trkpt lat="46.24547577" lon="7.31738615"><ele></ele><time>2014-6-4T22:57:48Z</time></trkpt>
<trkpt lat="46.24553299" lon="7.31763363"><ele></ele><time>2014-6-4T22:57:51Z</time></trkpt>
<trkpt lat="46.24564362" lon="7.31758165"><ele></ele><time>2014-6-4T22:57:54Z</time></trkpt>
<trkpt lat="46.24564362" lon="7.31743431"><ele></ele><time>2014-6-4T22:57:57Z</time></trkpt>
<trkpt lat="46.24564362" lon="7.31737614"><ele></ele><time>2014-6-4T22:58:0Z</time></trkpt>
<trkpt lat="46.24567032" lon="7.31711626"><ele></ele><time>2014-6-4T22:58:3Z</time></trkpt>
<trkpt lat="46.24568558" lon="7.31700134"><ele></ele><time>2014-6-4T22:58:6Z</time></trkpt>
<trkpt lat="46.24574661" lon="7.31665850"><ele></ele><time>2014-6-4T22:58:9Z</time></trkpt>
<trkpt lat="46.24583054" lon="7.31631899"><ele></ele><time>2014-6-4T22:58:12Z</time></trkpt>
<trkpt lat="46.24591446" lon="7.31601429"><ele></ele><time>2014-6-4T22:58:15Z</time></trkpt>
<trkpt lat="46.24592209" lon="7.31595182"><ele></ele><time>2014-6-4T22:58:18Z</time></trkpt>
<trkpt lat="46.24594116" lon="7.31578493"><ele></ele><time>2014-6-4T22:58:21Z</time></trkpt>
<trkpt lat="46.24597549" lon="7.31555223"><ele></ele><time>2014-6-4T22:58:24Z</time></trkpt>
<trkpt lat="46.24601364" lon="7.31526709"><ele></ele><time>2014-6-4T22:58:27Z</time></trkpt>
<trkpt lat="46.24605942" lon="7.31493521"><ele></ele><time>2014-6-4T22:58:30Z</time></trkpt>
<trkpt lat="46.24608994" lon="7.31474209"><ele></ele><time>2014-6-4T22:58:33Z</time></trkpt>
<trkpt lat="46.24613953" lon="7.31448460"><ele></ele><time>2014-6-4T22:58:36Z</time></trkpt>
<trkpt lat="46.24625015" lon="7.31419945"><ele></ele><time>2014-6-4T22:58:39Z</time></trkpt>
<trkpt lat="46.24638748" lon="7.31395531"><ele></ele><time>2014-6-4T22:58:42Z</time></trkpt>
<trkpt lat="46.24651718" lon="7.31375551"><ele></ele><time>2014-6-4T22:58:45Z</time></trkpt>
<trkpt lat="46.24668121" lon="7.31350994"><ele></ele><time>2014-6-4T22:58:48Z</time></trkpt>
<trkpt lat="46.24679565" lon="7.31344938"><ele></ele><time>2014-6-4T22:58:51Z</time></trkpt>
<trkpt lat="46.24693680" lon="7.31349945"><ele></ele><time>2014-6-4T22:58:54Z</time></trkpt>
<trkpt lat="46.24714279" lon="7.31365108"><ele></ele><time>2014-6-4T22:58:57Z</time></trkpt>
<trkpt lat="46.24731445" lon="7.31383896"><ele></ele><time>2014-6-4T22:59:0Z</time></trkpt>
<trkpt lat="46.24732208" lon="7.31399012"><ele></ele><time>2014-6-4T22:59:3Z</time></trkpt>
<trkpt lat="46.24721146" lon="7.31408405"><ele></ele><time>2014-6-4T22:59:6Z</time></trkpt>
<trkpt lat="46.24705505" lon="7.31413937"><ele></ele><time>2014-6-4T22:59:9Z</time></trkpt>
<trkpt lat="46.24697495" lon="7.31427908"><ele></ele><time>2014-6-4T22:59:12Z</time></trkpt>
<trkpt lat="46.24691010" lon="7.31453753"><ele></ele><time>2014-6-4T22:59:15Z</time></trkpt>
<trkpt lat="46.24680328" lon="7.31494761"><ele></ele><time>2014-6-4T22:59:18Z</time></trkpt>
<trkpt lat="46.24676514" lon="7.31525517"><ele></ele><time>2014-6-4T22:59:21Z</time></trkpt>
<trkpt lat="46.24682999" lon="7.31553745"><ele></ele><time>2014-6-4T22:59:24Z</time></trkpt>
<trkpt lat="46.24690247" lon="7.31578588"><ele></ele><time>2014-6-4T22:59:27Z</time></trkpt>
<trkpt lat="46.24696732" lon="7.31606388"><ele></ele><time>2014-6-4T22:59:30Z</time></trkpt>
<trkpt lat="46.24703979" lon="7.31634140"><ele></ele><time>2014-6-4T22:59:33Z</time></trkpt>
<trkpt lat="46.24714279" lon="7.31667662"><ele></ele><time>2014-6-4T22:59:36Z</time></trkpt>
<trkpt lat="46.24722290" lon="7.31700611"><ele></ele><time>2014-6-4T22:59:39Z</time></trkpt>
<trkpt lat="46.24724579" lon="7.31732988"><ele></ele><time>2014-6-4T22:59:42Z</time></trkpt>
<trkpt lat="46.24724960" lon="7.31761980"><ele></ele><time>2014-6-4T22:59:45Z</time></trkpt>
<trkpt lat="46.24729156" lon="7.31794262"><ele></ele><time>2014-6-4T22:59:48Z</time></trkpt>
<trkpt lat="46.24736786" lon="7.31819916"><ele></ele><time>2014-6-4T22:59:51Z</time></trkpt>
<trkpt lat="46.24751282" lon="7.31847429"><ele></ele><time>2014-6-4T22:59:54Z</time></trkpt>
<trkpt lat="46.24759674" lon="7.31862020"><ele></ele><time>2014-6-4T22:59:57Z</time></trkpt>
<trkpt lat="46.24766922" lon="7.31880617"><ele></ele><time>2014-6-4T23:0:0Z</time></trkpt>
<trkpt lat="46.24766541" lon="7.31887817"><ele></ele><time>2014-6-4T23:0:3Z</time></trkpt>
<trkpt lat="46.24760437" lon="7.31903124"><ele></ele><time>2014-6-4T23:0:6Z</time></trkpt>
<trkpt lat="46.24752045" lon="7.31919336"><ele></ele><time>2014-6-4T23:0:9Z</time></trkpt>
<trkpt lat="46.24744034" lon="7.31947708"><ele></ele><time>2014-6-4T23:0:12Z</time></trkpt>
<trkpt lat="46.24748230" lon="7.31970263"><ele></ele><time>2014-6-4T23:0:15Z</time></trkpt>
<trkpt lat="46.24756241" lon="7.31994200"><ele></ele><time>2014-6-4T23:0:18Z</time></trkpt>
<trkpt lat="46.24765778" lon="7.32019663"><ele></ele><time>2014-6-4T23:0:21Z</time></trkpt>
<trkpt lat="46.24775314" lon="7.32041311"><ele></ele><time>2014-6-4T23:0:24Z</time></trkpt>
<trkpt lat="46.24784851" lon="7.32062912"><ele></ele><time>2014-6-4T23:0:27Z</time></trkpt>
<trkpt lat="46.24792862" lon="7.32087660"><ele></ele><time>2014-6-4T23:0:30Z</time></trkpt>
<trkpt lat="46.24797821" lon="7.32119131"><ele></ele><time>2014-6-4T23:0:33Z</time></trkpt>
<trkpt lat="46.24789810" lon="7.32137251"><ele></ele><time>2014-6-4T23:0:36Z</time></trkpt>
<trkpt lat="46.24771500" lon="7.32177067"><ele></ele><time>2014-6-4T23:0:39Z</time></trkpt>
<trkpt lat="46.24758148" lon="7.32215023"><ele></ele><time>2014-6-4T23:0:42Z</time></trkpt>
<trkpt lat="46.24746704" lon="7.32260942"><ele></ele><time>2014-6-4T23:0:45Z</time></trkpt>
<trkpt lat="46.24740982" lon="7.32297754"><ele></ele><time>2014-6-4T23:0:48Z</time></trkpt>
<trkpt lat="46.24722290" lon="7.32342005"><ele></ele><time>2014-6-4T23:0:51Z</time></trkpt>
<trkpt lat="46.24696732" lon="7.32396889"><ele></ele><time>2014-6-4T23:0:54Z</time></trkpt>
<trkpt lat="46.24689484" lon="7.32436705"><ele></ele><time>2014-6-4T23:0:57Z</time></trkpt>
<trkpt lat="46.24689865" lon="7.32488966"><ele></ele><time>2014-6-4T23:1:0Z</time></trkpt>
<trkpt lat="46.24690247" lon="7.32506227"><ele></ele><time>2014-6-4T23:1:3Z</time></trkpt>
<trkpt lat="46.24692154" lon="7.32568550"><ele></ele><time>2014-6-4T23:1:6Z</time></trkpt>
<trkpt lat="46.24694443" lon="7.32637835"><ele></ele><time>2014-6-4T23:1:9Z</time></trkpt>
<trkpt lat="46.24701309" lon="7.32684565"><ele></ele><time>2014-6-4T23:1:12Z</time></trkpt>
<trkpt lat="46.24707794" lon="7.32718801"><ele></ele><time>2014-6-4T23:1:15Z</time></trkpt>
<trkpt lat="46.24710464" lon="7.32731628"><ele></ele><time>2014-6-4T23:1:18Z</time></trkpt>
<trkpt lat="46.24714661" lon="7.32751179"><ele></ele><time>2014-6-4T23:1:21Z</time></trkpt>
<trkpt lat="46.24720001" lon="7.32778120"><ele></ele><time>2014-6-4T23:1:24Z</time></trkpt>
<trkpt lat="46.24730301" lon="7.32812881"><ele></ele><time>2014-6-4T23:1:27Z</time></trkpt>
<trkpt lat="46.24744034" lon="7.32859612"><ele></ele><time>2014-6-4T23:1:30Z</time></trkpt>
<trkpt lat="46.24757004" lon="7.32898998"><ele></ele><time>2014-6-4T23:1:33Z</time></trkpt>
<trkpt lat="46.24771118" lon="7.32936239"><ele></ele><time>2014-6-4T23:1:36Z</time></trkpt>
<trkpt lat="46.24793625" lon="7.32985783"><ele></ele><time>2014-6-4T23:1:39Z</time></trkpt>
<trkpt lat="46.24811935" lon="7.33033657"><ele></ele><time>2014-6-4T23:1:42Z</time></trkpt>
<trkpt lat="46.24822235" lon="7.33086300"><ele></ele><time>2014-6-4T23:1:45Z</time></trkpt>
<trkpt lat="46.24830246" lon="7.33145618"><ele></ele><time>2014-6-4T23:1:48Z</time></trkpt>
<trkpt lat="46.24837112" lon="7.33234739"><ele></ele><time>2014-6-4T23:1:51Z</time></trkpt>
<trkpt lat="46.24839401" lon="7.33254957"><ele></ele><time>2014-6-4T23:1:54Z</time></trkpt>
<trkpt lat="46.24855042" lon="7.33298922"><ele></ele><time>2014-6-4T23:1:57Z</time></trkpt>
<trkpt lat="46.24882126" lon="7.33358526"><ele></ele><time>2014-6-4T23:2:0Z</time></trkpt>
<trkpt lat="46.24906921" lon="7.33414030"><ele></ele><time>2014-6-4T23:2:3Z</time></trkpt>
<trkpt lat="46.24914551" lon="7.33435249"><ele></ele><time>2014-6-4T23:2:6Z</time></trkpt>
<trkpt lat="46.24917984" lon="7.33459139"><ele></ele><time>2014-6-4T23:2:9Z</time></trkpt>
<trkpt lat="46.24924469" lon="7.33513165"><ele></ele><time>2014-6-4T23:2:12Z</time></trkpt>
<trkpt lat="46.24937439" lon="7.33567142"><ele></ele><time>2014-6-4T23:2:15Z</time></trkpt>
<trkpt lat="46.24951172" lon="7.33602524"><ele></ele><time>2014-6-4T23:2:18Z</time></trkpt>
<trkpt lat="46.24957275" lon="7.33628321"><ele></ele><time>2014-6-4T23:2:21Z</time></trkpt>
<trkpt lat="46.24960709" lon="7.33678627"><ele></ele><time>2014-6-4T23:2:24Z</time></trkpt>
<trkpt lat="46.24953079" lon="7.33714771"><ele></ele><time>2014-6-4T23:2:27Z</time></trkpt>
<trkpt lat="46.24944687" lon="7.33729839"><ele></ele><time>2014-6-4T23:2:30Z</time></trkpt>
<trkpt lat="46.24937439" lon="7.33769178"><ele></ele><time>2014-6-4T23:2:33Z</time></trkpt>
<trkpt lat="46.24930191" lon="7.33852911"><ele></ele><time>2014-6-4T23:2:36Z</time></trkpt>
<trkpt lat="46.24918365" lon="7.33939648"><ele></ele><time>2014-6-4T23:2:39Z</time></trkpt>
<trkpt lat="46.24913788" lon="7.33970451"><ele></ele><time>2014-6-4T23:2:42Z</time></trkpt>
<trkpt lat="46.24912643" lon="7.34041214"><ele></ele><time>2014-6-4T23:2:45Z</time></trkpt>
<trkpt lat="46.24916840" lon="7.34117556"><ele></ele><time>2014-6-4T23:2:48Z</time></trkpt>
<trkpt lat="46.24921799" lon="7.34164524"><ele></ele><time>2014-6-4T23:2:51Z</time></trkpt>
<trkpt lat="46.24928665" lon="7.34220505"><ele></ele><time>2014-6-4T23:2:54Z</time></trkpt>
<trkpt lat="46.24930573" lon="7.34235954"><ele></ele><time>2014-6-4T23:2:57Z</time></trkpt>
<trkpt lat="46.24936676" lon="7.34285164"><ele></ele><time>2014-6-4T23:3:0Z</time></trkpt>
<trkpt lat="46.24943924" lon="7.34338856"><ele></ele><time>2014-6-4T23:3:3Z</time></trkpt>
<trkpt lat="46.24950027" lon="7.34376478"><ele></ele><time>2014-6-4T23:3:6Z</time></trkpt>
<trkpt lat="46.24956512" lon="7.34415483"><ele></ele><time>2014-6-4T23:3:9Z</time></trkpt>
<trkpt lat="46.24959183" lon="7.34476089"><ele></ele><time>2014-6-4T23:3:12Z</time></trkpt>
<trkpt lat="46.24959183" lon="7.34496307"><ele></ele><time>2014-6-4T23:3:15Z</time></trkpt>
<trkpt lat="46.24964905" lon="7.34556246"><ele></ele><time>2014-6-4T23:3:18Z</time></trkpt>
<trkpt lat="46.24973297" lon="7.34590578"><ele></ele><time>2014-6-4T23:3:21Z</time></trkpt>
<trkpt lat="46.24983597" lon="7.34621525"><ele></ele><time>2014-6-4T23:3:24Z</time></trkpt>
<trkpt lat="46.25006485" lon="7.34675694"><ele></ele><time>2014-6-4T23:3:27Z</time></trkpt>
<trkpt lat="46.25031281" lon="7.34732342"><ele></ele><time>2014-6-4T23:3:30Z</time></trkpt>
<trkpt lat="46.25057983" lon="7.34789991"><ele></ele><time>2014-6-4T23:3:33Z</time></trkpt>
<trkpt lat="46.25083542" lon="7.34841585"><ele></ele><time>2014-6-4T23:3:36Z</time></trkpt>
<trkpt lat="46.25092697" lon="7.34859943"><ele></ele><time>2014-6-4T23:3:39Z</time></trkpt>
<trkpt lat="46.25110245" lon="7.34892082"><ele></ele><time>2014-6-4T23:3:42Z</time></trkpt>
<trkpt lat="46.25122833" lon="7.34921312"><ele></ele><time>2014-6-4T23:3:45Z</time></trkpt>
<trkpt lat="46.25138474" lon="7.34976578"><ele></ele><time>2014-6-4T23:3:48Z</time></trkpt>
<trkpt lat="46.25142288" lon="7.35027361"><ele></ele><time>2014-6-4T23:3:51Z</time></trkpt>
<trkpt lat="46.25146866" lon="7.35091782"><ele></ele><time>2014-6-4T23:3:54Z</time></trkpt>
<trkpt lat="46.25150681" lon="7.35103607"><ele></ele><time>2014-6-4T23:3:57Z</time></trkpt>
<trkpt lat="46.25186539" lon="7.35203362"><ele></ele><time>2014-6-4T23:4:0Z</time></trkpt>
<trkpt lat="46.25202942" lon="7.35253668"><ele></ele><time>2014-6-4T23:4:3Z</time></trkpt>
<trkpt lat="46.25217056" lon="7.35293007"><ele></ele><time>2014-6-4T23:4:6Z</time></trkpt>
<trkpt lat="46.25245285" lon="7.35362816"><ele></ele><time>2014-6-4T23:4:9Z</time></trkpt>
<trkpt lat="46.25280380" lon="7.35450554"><ele></ele><time>2014-6-4T23:4:12Z</time></trkpt>
<trkpt lat="46.25290298" lon="7.35503578"><ele></ele><time>2014-6-4T23:4:15Z</time></trkpt>
<trkpt lat="46.25290298" lon="7.35558081"><ele></ele><time>2014-6-4T23:4:18Z</time></trkpt>
<trkpt lat="46.25289536" lon="7.35634756"><ele></ele><time>2014-6-4T23:4:21Z</time></trkpt>
<trkpt lat="46.25300980" lon="7.35698605"><ele></ele><time>2014-6-4T23:4:24Z</time></trkpt>
<trkpt lat="46.25324249" lon="7.35787678"><ele></ele><time>2014-6-4T23:4:27Z</time></trkpt>
<trkpt lat="46.25344086" lon="7.35850286"><ele></ele><time>2014-6-4T23:4:30Z</time></trkpt>
<trkpt lat="46.25368881" lon="7.35896301"><ele></ele><time>2014-6-4T23:4:33Z</time></trkpt>
<trkpt lat="46.25398636" lon="7.35941505"><ele></ele><time>2014-6-4T23:4:36Z</time></trkpt>
<trkpt lat="46.25423431" lon="7.35974550"><ele></ele><time>2014-6-4T23:4:39Z</time></trkpt>
<trkpt lat="46.25426865" lon="7.35977650"><ele></ele><time>2014-6-4T23:4:42Z</time></trkpt>
<trkpt lat="46.25458908" lon="7.35993385"><ele></ele><time>2014-6-4T23:4:45Z</time></trkpt>
<trkpt lat="46.25462723" lon="7.35995579"><ele></ele><time>2014-6-4T23:4:48Z</time></trkpt>
<trkpt lat="46.25475693" lon="7.36010551"><ele></ele><time>2014-6-4T23:4:51Z</time></trkpt>
<trkpt lat="46.25505066" lon="7.36069107"><ele></ele><time>2014-6-4T23:4:54Z</time></trkpt>
<trkpt lat="46.25539398" lon="7.36126041"><ele></ele><time>2014-6-4T23:4:57Z</time></trkpt>
<trkpt lat="46.25578690" lon="7.36176062"><ele></ele><time>2014-6-4T23:5:0Z</time></trkpt>
<trkpt lat="46.25607681" lon="7.36202192"><ele></ele><time>2014-6-4T23:5:3Z</time></trkpt>
<trkpt lat="46.25645828" lon="7.36223555"><ele></ele><time>2014-6-4T23:5:6Z</time></trkpt>
<trkpt lat="46.25666809" lon="7.36241102"><ele></ele><time>2014-6-4T23:5:9Z</time></trkpt>
<trkpt lat="46.25690460" lon="7.36265421"><ele></ele><time>2014-6-4T23:5:12Z</time></trkpt>
<trkpt lat="46.25709534" lon="7.36285925"><ele></ele><time>2014-6-4T23:5:15Z</time></trkpt>
<trkpt lat="46.25720596" lon="7.36298084"><ele></ele><time>2014-6-4T23:5:18Z</time></trkpt>
<trkpt lat="46.25736237" lon="7.36314440"><ele></ele><time>2014-6-4T23:5:21Z</time></trkpt>
<trkpt lat="46.25755310" lon="7.36337519"><ele></ele><time>2014-6-4T23:5:24Z</time></trkpt>
<trkpt lat="46.25762939" lon="7.36350250"><ele></ele><time>2014-6-4T23:5:27Z</time></trkpt>
<trkpt lat="46.25781631" lon="7.36388731"><ele></ele><time>2014-6-4T23:5:30Z</time></trkpt>
<trkpt lat="46.25802994" lon="7.36433935"><ele></ele><time>2014-6-4T23:5:33Z</time></trkpt>
<trkpt lat="46.25828171" lon="7.36483622"><ele></ele><time>2014-6-4T23:5:36Z</time></trkpt>
<trkpt lat="46.25852203" lon="7.36525440"><ele></ele><time>2014-6-4T23:5:39Z</time></trkpt>
<trkpt lat="46.25858307" lon="7.36536932"><ele></ele><time>2014-6-4T23:5:42Z</time></trkpt>
<trkpt lat="46.25874710" lon="7.36563778"><ele></ele><time>2014-6-4T23:5:45Z</time></trkpt>
<trkpt lat="46.25897598" lon="7.36591291"><ele></ele><time>2014-6-4T23:5:48Z</time></trkpt>
<trkpt lat="46.25926590" lon="7.36627436"><ele></ele><time>2014-6-4T23:5:51Z</time></trkpt>
<trkpt lat="46.25930405" lon="7.36633253"><ele></ele><time>2014-6-4T23:5:54Z</time></trkpt>
<trkpt lat="46.25949478" lon="7.36665678"><ele></ele><time>2014-6-4T23:5:57Z</time></trkpt>
<trkpt lat="46.25959396" lon="7.36684799"><ele></ele><time>2014-6-4T23:6:0Z</time></trkpt>
<trkpt lat="46.25978088" lon="7.36704445"><ele></ele><time>2014-6-4T23:6:3Z</time></trkpt>
<trkpt lat="46.25993347" lon="7.36713600"><ele></ele><time>2014-6-4T23:6:6Z</time></trkpt>
<trkpt lat="46.26016235" lon="7.36732674"><ele></ele><time>2014-6-4T23:6:9Z</time></trkpt>
<trkpt lat="46.26034164" lon="7.36759329"><ele></ele><time>2014-6-4T23:6:12Z</time></trkpt>
<trkpt lat="46.26067734" lon="7.36817122"><ele></ele><time>2014-6-4T23:6:15Z</time></trkpt>
<trkpt lat="46.26091003" lon="7.36870623"><ele></ele><time>2014-6-4T23:6:18Z</time></trkpt>
<trkpt lat="46.26117706" lon="7.36911821"><ele></ele><time>2014-6-4T23:6:21Z</time></trkpt>
<trkpt lat="46.26155853" lon="7.36948824"><ele></ele><time>2014-6-4T23:6:24Z</time></trkpt>
<trkpt lat="46.26160812" lon="7.36952448"><ele></ele><time>2014-6-4T23:6:27Z</time></trkpt>
<trkpt lat="46.26181412" lon="7.36962223"><ele></ele><time>2014-6-4T23:6:30Z</time></trkpt>
<trkpt lat="46.26215363" lon="7.36959743"><ele></ele><time>2014-6-4T23:6:33Z</time></trkpt>
<trkpt lat="46.26240158" lon="7.36951447"><ele></ele><time>2014-6-4T23:6:36Z</time></trkpt>
<trkpt lat="46.26268768" lon="7.36958981"><ele></ele><time>2014-6-4T23:6:39Z</time></trkpt>
<trkpt lat="46.26282501" lon="7.36988115"><ele></ele><time>2014-6-4T23:6:42Z</time></trkpt>
<trkpt lat="46.26284409" lon="7.37000370"><ele></ele><time>2014-6-4T23:6:45Z</time></trkpt>
<trkpt lat="46.26287460" lon="7.37025166"><ele></ele><time>2014-6-4T23:6:48Z</time></trkpt>
<trkpt lat="46.26310730" lon="7.37061882"><ele></ele><time>2014-6-4T23:6:51Z</time></trkpt>
<trkpt lat="46.26337814" lon="7.37069559"><ele></ele><time>2014-6-4T23:6:54Z</time></trkpt>
<trkpt lat="46.26394653" lon="7.37058735"><ele></ele><time>2014-6-4T23:6:57Z</time></trkpt>
<trkpt lat="46.26419067" lon="7.37056875"><ele></ele><time>2014-6-4T23:7:0Z</time></trkpt>
<trkpt lat="46.26427841" lon="7.37070847"><ele></ele><time>2014-6-4T23:7:3Z</time></trkpt>
<trkpt lat="46.26424026" lon="7.37087774"><ele></ele><time>2014-6-4T23:7:6Z</time></trkpt>
<trkpt lat="46.26414871" lon="7.37097502"><ele></ele><time>2014-6-4T23:7:9Z</time></trkpt>
<trkpt lat="46.26373672" lon="7.37129116"><ele></ele><time>2014-6-4T23:7:12Z</time></trkpt>
<trkpt lat="46.26366806" lon="7.37134981"><ele></ele><time>2014-6-4T23:7:15Z</time></trkpt>
<trkpt lat="46.26350021" lon="7.37149382"><ele></ele><time>2014-6-4T23:7:18Z</time></trkpt>
<trkpt lat="46.26320267" lon="7.37170267"><ele></ele><time>2014-6-4T23:7:21Z</time></trkpt>
<trkpt lat="46.26294708" lon="7.37171268"><ele></ele><time>2014-6-4T23:7:24Z</time></trkpt>
<trkpt lat="46.26277924" lon="7.37162256"><ele></ele><time>2014-6-4T23:7:27Z</time></trkpt>
<trkpt lat="46.26249695" lon="7.37152719"><ele></ele><time>2014-6-4T23:7:30Z</time></trkpt>
<trkpt lat="46.26228714" lon="7.37160063"><ele></ele><time>2014-6-4T23:7:33Z</time></trkpt>
<trkpt lat="46.26211166" lon="7.37178898"><ele></ele><time>2014-6-4T23:7:36Z</time></trkpt>
<trkpt lat="46.26200485" lon="7.37211466"><ele></ele><time>2014-6-4T23:7:39Z</time></trkpt>
<trkpt lat="46.26196671" lon="7.37256241"><ele></ele><time>2014-6-4T23:7:42Z</time></trkpt>
<trkpt lat="46.26192474" lon="7.37317133"><ele></ele><time>2014-6-4T23:7:45Z</time></trkpt>
<trkpt lat="46.26182938" lon="7.37391376"><ele></ele><time>2014-6-4T23:7:48Z</time></trkpt>
<trkpt lat="46.26163864" lon="7.37458992"><ele></ele><time>2014-6-4T23:7:51Z</time></trkpt>
<trkpt lat="46.26142120" lon="7.37538052"><ele></ele><time>2014-6-4T23:7:54Z</time></trkpt>
<trkpt lat="46.26139832" lon="7.37599373"><ele></ele><time>2014-6-4T23:7:57Z</time></trkpt>
<trkpt lat="46.26139450" lon="7.37663746"><ele></ele><time>2014-6-4T23:8:0Z</time></trkpt>
<trkpt lat="46.26131439" lon="7.37713432"><ele></ele><time>2014-6-4T23:8:3Z</time></trkpt>
<trkpt lat="46.26130295" lon="7.37719917"><ele></ele><time>2014-6-4T23:8:6Z</time></trkpt>
<trkpt lat="46.26123810" lon="7.37779760"><ele></ele><time>2014-6-4T23:8:9Z</time></trkpt>
<trkpt lat="46.26124191" lon="7.37802887"><ele></ele><time>2014-6-4T23:8:12Z</time></trkpt>
<trkpt lat="46.26131821" lon="7.37838840"><ele></ele><time>2014-6-4T23:8:15Z</time></trkpt>
<trkpt lat="46.26140976" lon="7.37873936"><ele></ele><time>2014-6-4T23:8:18Z</time></trkpt>
<trkpt lat="46.26145172" lon="7.37889194"><ele></ele><time>2014-6-4T23:8:21Z</time></trkpt>
<trkpt lat="46.26153564" lon="7.37935925"><ele></ele><time>2014-6-4T23:8:24Z</time></trkpt>
<trkpt lat="46.26155853" lon="7.37980032"><ele></ele><time>2014-6-4T23:8:27Z</time></trkpt>
<trkpt lat="46.26155472" lon="7.37990379"><ele></ele><time>2014-6-4T23:8:30Z</time></trkpt>
<trkpt lat="46.26155853" lon="7.38025284"><ele></ele><time>2014-6-4T23:8:33Z</time></trkpt>
<trkpt lat="46.26161194" lon="7.38075638"><ele></ele><time>2014-6-4T23:8:36Z</time></trkpt>
<trkpt lat="46.26171112" lon="7.38113689"><ele></ele><time>2014-6-4T23:8:39Z</time></trkpt>
<trkpt lat="46.26186371" lon="7.38159847"><ele></ele><time>2014-6-4T23:8:42Z</time></trkpt>
<trkpt lat="46.26201630" lon="7.38206720"><ele></ele><time>2014-6-4T23:8:45Z</time></trkpt>
<trkpt lat="46.26216888" lon="7.38253164"><ele></ele><time>2014-6-4T23:8:48Z</time></trkpt>
<trkpt lat="46.26231003" lon="7.38296032"><ele></ele><time>2014-6-4T23:8:51Z</time></trkpt>
<trkpt lat="46.26249313" lon="7.38352489"><ele></ele><time>2014-6-4T23:8:54Z</time></trkpt>
<trkpt lat="46.26265717" lon="7.38406754"><ele></ele><time>2014-6-4T23:8:57Z</time></trkpt>
<trkpt lat="46.26272202" lon="7.38457727"><ele></ele><time>2014-6-4T23:9:0Z</time></trkpt>
<trkpt lat="46.26268005" lon="7.38500214"><ele></ele><time>2014-6-4T23:9:3Z</time></trkpt>
<trkpt lat="46.26255417" lon="7.38547325"><ele></ele><time>2014-6-4T23:9:6Z</time></trkpt>
<trkpt lat="46.26240158" lon="7.38574696"><ele></ele><time>2014-6-4T23:9:9Z</time></trkpt>
<trkpt lat="46.26237869" lon="7.38578892"><ele></ele><time>2014-6-4T23:9:12Z</time></trkpt>
<trkpt lat="46.26240540" lon="7.38595963"><ele></ele><time>2014-6-4T23:9:15Z</time></trkpt>
<trkpt lat="46.26253510" lon="7.38600779"><ele></ele><time>2014-6-4T23:9:18Z</time></trkpt>
<trkpt lat="46.26287842" lon="7.38605547"><ele></ele><time>2014-6-4T23:9:21Z</time></trkpt>
<trkpt lat="46.26296616" lon="7.38614511"><ele></ele><time>2014-6-4T23:9:24Z</time></trkpt>
<trkpt lat="46.26312637" lon="7.38648844"><ele></ele><time>2014-6-4T23:9:27Z</time></trkpt>
<trkpt lat="46.26330948" lon="7.38701487"><ele></ele><time>2014-6-4T23:9:30Z</time></trkpt>
<trkpt lat="46.26342010" lon="7.38740110"><ele></ele><time>2014-6-4T23:9:33Z</time></trkpt>
<trkpt lat="46.26352310" lon="7.38755798"><ele></ele><time>2014-6-4T23:9:36Z</time></trkpt>
<trkpt lat="46.26372910" lon="7.38766718"><ele></ele><time>2014-6-4T23:9:39Z</time></trkpt>
<trkpt lat="46.26375580" lon="7.38768530"><ele></ele><time>2014-6-4T23:9:42Z</time></trkpt>
<trkpt lat="46.26388168" lon="7.38781548"><ele></ele><time>2014-6-4T23:9:45Z</time></trkpt>
<trkpt lat="46.26400757" lon="7.38800049"><ele></ele><time>2014-6-4T23:9:48Z</time></trkpt>
<trkpt lat="46.26420975" lon="7.38834190"><ele></ele><time>2014-6-4T23:9:51Z</time></trkpt>
<trkpt lat="46.26443100" lon="7.38871193"><ele></ele><time>2014-6-4T23:9:54Z</time></trkpt>
<trkpt lat="46.26448441" lon="7.38893318"><ele></ele><time>2014-6-4T23:9:57Z</time></trkpt>
<trkpt lat="46.26440048" lon="7.38915777"><ele></ele><time>2014-6-4T23:10:0Z</time></trkpt>
<trkpt lat="46.26422882" lon="7.38938332"><ele></ele><time>2014-6-4T23:10:3Z</time></trkpt>
<trkpt lat="46.26412201" lon="7.38952637"><ele></ele><time>2014-6-4T23:10:6Z</time></trkpt>
<trkpt lat="46.26408386" lon="7.38958216"><ele></ele><time>2014-6-4T23:10:9Z</time></trkpt>
<trkpt lat="46.26404190" lon="7.38959122"><ele></ele><time>2014-6-4T23:10:12Z</time></trkpt>
<trkpt lat="46.26395035" lon="7.38952112"><ele></ele><time>2014-6-4T23:10:15Z</time></trkpt>
<trkpt lat="46.26381302" lon="7.38942766"><ele></ele><time>2014-6-4T23:10:18Z</time></trkpt>
<trkpt lat="46.26376724" lon="7.38949108"><ele></ele><time>2014-6-4T23:10:21Z</time></trkpt>
<trkpt lat="46.26380539" lon="7.38955927"><ele></ele><time>2014-6-4T23:10:24Z</time></trkpt>
<trkpt lat="46.26388931" lon="7.38976669"><ele></ele><time>2014-6-4T23:10:27Z</time></trkpt>
<trkpt lat="46.26391220" lon="7.38981867"><ele></ele><time>2014-6-4T23:10:30Z</time></trkpt>
<trkpt lat="46.26395798" lon="7.38990927"><ele></ele><time>2014-6-4T23:10:33Z</time></trkpt>
<trkpt lat="46.26409531" lon="7.39008284"><ele></ele><time>2014-6-4T23:10:36Z</time></trkpt>
<trkpt lat="46.26424789" lon="7.39029694"><ele></ele><time>2014-6-4T23:10:39Z</time></trkpt>
<trkpt lat="46.26435852" lon="7.39049149"><ele></ele><time>2014-6-4T23:10:42Z</time></trkpt>
<trkpt lat="46.26446915" lon="7.39072561"><ele></ele><time>2014-6-4T23:10:45Z</time></trkpt>
<trkpt lat="46.26457214" lon="7.39096212"><ele></ele><time>2014-6-4T23:10:48Z</time></trkpt>
<trkpt lat="46.26467514" lon="7.39121199"><ele></ele><time>2014-6-4T23:10:51Z</time></trkpt>
<trkpt lat="46.26472473" lon="7.39135742"><ele></ele><time>2014-6-4T23:10:54Z</time></trkpt>
<trkpt lat="46.26475525" lon="7.39152479"><ele></ele><time>2014-6-4T23:10:57Z</time></trkpt>
<trkpt lat="46.26479721" lon="7.39181471"><ele></ele><time>2014-6-4T23:11:0Z</time></trkpt>
<trkpt lat="46.26486969" lon="7.39203835"><ele></ele><time>2014-6-4T23:11:3Z</time></trkpt>
<trkpt lat="46.26499939" lon="7.39228106"><ele></ele><time>2014-6-4T23:11:6Z</time></trkpt>
<trkpt lat="46.26510620" lon="7.39262486"><ele></ele><time>2014-6-4T23:11:9Z</time></trkpt>
<trkpt lat="46.26512527" lon="7.39268351"><ele></ele><time>2014-6-4T23:11:12Z</time></trkpt>
<trkpt lat="46.26516342" lon="7.39299536"><ele></ele><time>2014-6-4T23:11:15Z</time></trkpt>
<trkpt lat="46.26519775" lon="7.39327097"><ele></ele><time>2014-6-4T23:11:18Z</time></trkpt>
<trkpt lat="46.26521301" lon="7.39331484"><ele></ele><time>2014-6-4T23:11:21Z</time></trkpt>
<trkpt lat="46.26524353" lon="7.39359283"><ele></ele><time>2014-6-4T23:11:24Z</time></trkpt>
<trkpt lat="46.26531601" lon="7.39390278"><ele></ele><time>2014-6-4T23:11:27Z</time></trkpt>
<trkpt lat="46.26535797" lon="7.39407492"><ele></ele><time>2014-6-4T23:11:30Z</time></trkpt>
<trkpt lat="46.26541519" lon="7.39429188"><ele></ele><time>2014-6-4T23:11:33Z</time></trkpt>
<trkpt lat="46.26549911" lon="7.39452839"><ele></ele><time>2014-6-4T23:11:36Z</time></trkpt>
<trkpt lat="46.26557159" lon="7.39475250"><ele></ele><time>2014-6-4T23:11:39Z</time></trkpt>
<trkpt lat="46.26565933" lon="7.39496565"><ele></ele><time>2014-6-4T23:11:42Z</time></trkpt>
<trkpt lat="46.26570511" lon="7.39506960"><ele></ele><time>2014-6-4T23:11:45Z</time></trkpt>
<trkpt lat="46.26579285" lon="7.39505196"><ele></ele><time>2014-6-4T23:11:48Z</time></trkpt>
<trkpt lat="46.26596069" lon="7.39493942"><ele></ele><time>2014-6-4T23:11:51Z</time></trkpt>
<trkpt lat="46.26606369" lon="7.39484930"><ele></ele><time>2014-6-4T23:11:54Z</time></trkpt>
<trkpt lat="46.26618576" lon="7.39473724"><ele></ele><time>2014-6-4T23:11:57Z</time></trkpt>
<trkpt lat="46.26627731" lon="7.39467144"><ele></ele><time>2014-6-4T23:12:0Z</time></trkpt>
<trkpt lat="46.26629257" lon="7.39466143"><ele></ele><time>2014-6-4T23:12:3Z</time></trkpt>
<trkpt lat="46.26641464" lon="7.39459896"><ele></ele><time>2014-6-4T23:12:6Z</time></trkpt>
<trkpt lat="46.26644135" lon="7.39460135"><ele></ele><time>2014-6-4T23:12:9Z</time></trkpt>
<trkpt lat="46.26649475" lon="7.39476442"><ele></ele><time>2014-6-4T23:12:12Z</time></trkpt>
<trkpt lat="46.26655579" lon="7.39497471"><ele></ele><time>2014-6-4T23:12:15Z</time></trkpt>
<trkpt lat="46.26662827" lon="7.39521885"><ele></ele><time>2014-6-4T23:12:18Z</time></trkpt>
<trkpt lat="46.26670837" lon="7.39558792"><ele></ele><time>2014-6-4T23:12:21Z</time></trkpt>
<trkpt lat="46.26682663" lon="7.39605618"><ele></ele><time>2014-6-4T23:12:24Z</time></trkpt>
<trkpt lat="46.26696014" lon="7.39659691"><ele></ele><time>2014-6-4T23:12:27Z</time></trkpt>
<trkpt lat="46.26699448" lon="7.39679337"><ele></ele><time>2014-6-4T23:12:30Z</time></trkpt>
<trkpt lat="46.26716232" lon="7.39756966"><ele></ele><time>2014-6-4T23:12:33Z</time></trkpt>
<trkpt lat="46.26728821" lon="7.39818573"><ele></ele><time>2014-6-4T23:12:36Z</time></trkpt>
<trkpt lat="46.26747513" lon="7.39865017"><ele></ele><time>2014-6-4T23:12:39Z</time></trkpt>
<trkpt lat="46.26769257" lon="7.39906645"><ele></ele><time>2014-6-4T23:12:42Z</time></trkpt>
<trkpt lat="46.26773834" lon="7.39913368"><ele></ele><time>2014-6-4T23:12:45Z</time></trkpt>
<trkpt lat="46.26780319" lon="7.39931726"><ele></ele><time>2014-6-4T23:12:48Z</time></trkpt>
<trkpt lat="46.26791763" lon="7.39959812"><ele></ele><time>2014-6-4T23:12:51Z</time></trkpt>
<trkpt lat="46.26802444" lon="7.39975452"><ele></ele><time>2014-6-4T23:12:54Z</time></trkpt>
<trkpt lat="46.26813126" lon="7.39991665"><ele></ele><time>2014-6-4T23:12:57Z</time></trkpt>
<trkpt lat="46.26823425" lon="7.40009212"><ele></ele><time>2014-6-4T23:13:0Z</time></trkpt>
<trkpt lat="46.26838684" lon="7.40039921"><ele></ele><time>2014-6-4T23:13:3Z</time></trkpt>
<trkpt lat="46.26840973" lon="7.40044737"><ele></ele><time>2014-6-4T23:13:6Z</time></trkpt>
<trkpt lat="46.26850128" lon="7.40063000"><ele></ele><time>2014-6-4T23:13:9Z</time></trkpt>
<trkpt lat="46.26860428" lon="7.40088892"><ele></ele><time>2014-6-4T23:13:12Z</time></trkpt>
<trkpt lat="46.26866531" lon="7.40105724"><ele></ele><time>2014-6-4T23:13:15Z</time></trkpt>
<trkpt lat="46.26881027" lon="7.40148449"><ele></ele><time>2014-6-4T23:13:18Z</time></trkpt>
<trkpt lat="46.26903534" lon="7.40194511"><ele></ele><time>2014-6-4T23:13:21Z</time></trkpt>
<trkpt lat="46.26910782" lon="7.40223694"><ele></ele><time>2014-6-4T23:13:24Z</time></trkpt>
<trkpt lat="46.26915741" lon="7.40253448"><ele></ele><time>2014-6-4T23:13:27Z</time></trkpt>
<trkpt lat="46.26937103" lon="7.40294075"><ele></ele><time>2014-6-4T23:13:30Z</time></trkpt>
<trkpt lat="46.26955795" lon="7.40320826"><ele></ele><time>2014-6-4T23:13:33Z</time></trkpt>
<trkpt lat="46.26972198" lon="7.40341806"><ele></ele><time>2014-6-4T23:13:36Z</time></trkpt>
<trkpt lat="46.26990891" lon="7.40352392"><ele></ele><time>2014-6-4T23:13:39Z</time></trkpt>
<trkpt lat="46.27025986" lon="7.40358067"><ele></ele><time>2014-6-4T23:13:42Z</time></trkpt>
<trkpt lat="46.27036285" lon="7.40358686"><ele></ele><time>2014-6-4T23:13:45Z</time></trkpt>
<trkpt lat="46.27052307" lon="7.40353489"><ele></ele><time>2014-6-4T23:13:48Z</time></trkpt>
<trkpt lat="46.27096176" lon="7.40323973"><ele></ele><time>2014-6-4T23:13:51Z</time></trkpt>
<trkpt lat="46.27122879" lon="7.40326643"><ele></ele><time>2014-6-4T23:13:54Z</time></trkpt>
<trkpt lat="46.27172852" lon="7.40358210"><ele></ele><time>2014-6-4T23:13:57Z</time></trkpt>
<trkpt lat="46.27224350" lon="7.40397263"><ele></ele><time>2014-6-4T23:14:0Z</time></trkpt>
<trkpt lat="46.27234268" lon="7.40404510"><ele></ele><time>2014-6-4T23:14:3Z</time></trkpt>
<trkpt lat="46.27254105" lon="7.40416765"><ele></ele><time>2014-6-4T23:14:6Z</time></trkpt>
<trkpt lat="46.27274704" lon="7.40441513"><ele></ele><time>2014-6-4T23:14:9Z</time></trkpt>
<trkpt lat="46.27272034" lon="7.40464497"><ele></ele><time>2014-6-4T23:14:12Z</time></trkpt>
<trkpt lat="46.27264404" lon="7.40485525"><ele></ele><time>2014-6-4T23:14:15Z</time></trkpt>
<trkpt lat="46.27256775" lon="7.40527153"><ele></ele><time>2014-6-4T23:14:18Z</time></trkpt>
<trkpt lat="46.27255630" lon="7.40546227"><ele></ele><time>2014-6-4T23:14:21Z</time></trkpt>
<trkpt lat="46.27253342" lon="7.40575075"><ele></ele><time>2014-6-4T23:14:24Z</time></trkpt>
<trkpt lat="46.27252197" lon="7.40608311"><ele></ele><time>2014-6-4T23:14:27Z</time></trkpt>
<trkpt lat="46.27252579" lon="7.40621042"><ele></ele><time>2014-6-4T23:14:30Z</time></trkpt>
<trkpt lat="46.27253342" lon="7.40638828"><ele></ele><time>2014-6-4T23:14:33Z</time></trkpt>
<trkpt lat="46.27253723" lon="7.40660095"><ele></ele><time>2014-6-4T23:14:36Z</time></trkpt>
<trkpt lat="46.27254105" lon="7.40696383"><ele></ele><time>2014-6-4T23:14:39Z</time></trkpt>
<trkpt lat="46.27254486" lon="7.40726614"><ele></ele><time>2014-6-4T23:14:42Z</time></trkpt>
<trkpt lat="46.27261353" lon="7.40766239"><ele></ele><time>2014-6-4T23:14:45Z</time></trkpt>
<trkpt lat="46.27279282" lon="7.40818214"><ele></ele><time>2014-6-4T23:14:48Z</time></trkpt>
<trkpt lat="46.27294540" lon="7.40874481"><ele></ele><time>2014-6-4T23:14:51Z</time></trkpt>
<trkpt lat="46.27297974" lon="7.40887928"><ele></ele><time>2014-6-4T23:14:54Z</time></trkpt>
<trkpt lat="46.27309036" lon="7.40914869"><ele></ele><time>2014-6-4T23:14:57Z</time></trkpt>
<trkpt lat="46.27325439" lon="7.40939426"><ele></ele><time>2014-6-4T23:15:0Z</time></trkpt>
<trkpt lat="46.27370071" lon="7.41000414"><ele></ele><time>2014-6-4T23:15:3Z</time></trkpt>
<trkpt lat="46.27392578" lon="7.41037130"><ele></ele><time>2014-6-4T23:15:6Z</time></trkpt>
<trkpt lat="46.27404022" lon="7.41073704"><ele></ele><time>2014-6-4T23:15:9Z</time></trkpt>
<trkpt lat="46.27405167" lon="7.41084719"><ele></ele><time>2014-6-4T23:15:12Z</time></trkpt>
<trkpt lat="46.27413177" lon="7.41099310"><ele></ele><time>2014-6-4T23:15:15Z</time></trkpt>
<trkpt lat="46.27418900" lon="7.41096401"><ele></ele><time>2014-6-4T23:15:18Z</time></trkpt>
<trkpt lat="46.27426910" lon="7.41089249"><ele></ele><time>2014-6-4T23:15:21Z</time></trkpt>
<trkpt lat="46.27444458" lon="7.41073179"><ele></ele><time>2014-6-4T23:15:24Z</time></trkpt>
<trkpt lat="46.27455139" lon="7.41063881"><ele></ele><time>2014-6-4T23:15:27Z</time></trkpt>
<trkpt lat="46.27455902" lon="7.41060352"><ele></ele><time>2014-6-4T23:15:30Z</time></trkpt>
<trkpt lat="46.27454758" lon="7.41059065"><ele></ele><time>2014-6-4T23:15:33Z</time></trkpt>
<trkpt lat="46.27454376" lon="7.41058397"><ele></ele><time>2014-6-4T23:15:36Z</time></trkpt>
<trkpt lat="46.27464294" lon="7.41058540"><ele></ele><time>2014-6-4T23:15:39Z</time></trkpt>
<trkpt lat="46.27475357" lon="7.41053295"><ele></ele><time>2014-6-4T23:15:42Z</time></trkpt>
<trkpt lat="46.27488327" lon="7.41043091"><ele></ele><time>2014-6-4T23:15:45Z</time></trkpt>
<trkpt lat="46.27499390" lon="7.41042948"><ele></ele><time>2014-6-4T23:15:48Z</time></trkpt>
<trkpt lat="46.27507401" lon="7.41048622"><ele></ele><time>2014-6-4T23:15:51Z</time></trkpt>
<trkpt lat="46.27524948" lon="7.41063690"><ele></ele><time>2014-6-4T23:15:54Z</time></trkpt>
<trkpt lat="46.27545929" lon="7.41080379"><ele></ele><time>2014-6-4T23:15:57Z</time></trkpt>
<trkpt lat="46.27564240" lon="7.41087532"><ele></ele><time>2014-6-4T23:16:0Z</time></trkpt>
<trkpt lat="46.27578354" lon="7.41090393"><ele></ele><time>2014-6-4T23:16:3Z</time></trkpt>
<trkpt lat="46.27601624" lon="7.41102076"><ele></ele><time>2014-6-4T23:16:6Z</time></trkpt>
<trkpt lat="46.27619934" lon="7.41110468"><ele></ele><time>2014-6-4T23:16:9Z</time></trkpt>
<trkpt lat="46.27636337" lon="7.41122293"><ele></ele><time>2014-6-4T23:16:12Z</time></trkpt>
<trkpt lat="46.27650833" lon="7.41138792"><ele></ele><time>2014-6-4T23:16:15Z</time></trkpt>
<trkpt lat="46.27674103" lon="7.41162395"><ele></ele><time>2014-6-4T23:16:18Z</time></trkpt>
<trkpt lat="46.27696609" lon="7.41179514"><ele></ele><time>2014-6-4T23:16:21Z</time></trkpt>
<trkpt lat="46.27720261" lon="7.41195297"><ele></ele><time>2014-6-4T23:16:24Z</time></trkpt>
<trkpt lat="46.27742386" lon="7.41208839"><ele></ele><time>2014-6-4T23:16:27Z</time></trkpt>
<trkpt lat="46.27759552" lon="7.41217756"><ele></ele><time>2014-6-4T23:16:30Z</time></trkpt>
<trkpt lat="46.27777100" lon="7.41224289"><ele></ele><time>2014-6-4T23:16:33Z</time></trkpt>
<trkpt lat="46.27796936" lon="7.41227865"><ele></ele><time>2014-6-4T23:16:36Z</time></trkpt>
<trkpt lat="46.27798843" lon="7.41227627"><ele></ele><time>2014-6-4T23:16:39Z</time></trkpt>
<trkpt lat="46.27819443" lon="7.41230106"><ele></ele><time>2014-6-4T23:16:42Z</time></trkpt>
<trkpt lat="46.27836227" lon="7.41238213"><ele></ele><time>2014-6-4T23:16:45Z</time></trkpt>
<trkpt lat="46.27854156" lon="7.41259575"><ele></ele><time>2014-6-4T23:16:48Z</time></trkpt>
<trkpt lat="46.27874374" lon="7.41290426"><ele></ele><time>2014-6-4T23:16:51Z</time></trkpt>
<trkpt lat="46.27893066" lon="7.41315365"><ele></ele><time>2014-6-4T23:16:54Z</time></trkpt>
<trkpt lat="46.27915573" lon="7.41340303"><ele></ele><time>2014-6-4T23:16:57Z</time></trkpt>
<trkpt lat="46.27946091" lon="7.41370726"><ele></ele><time>2014-6-4T23:17:0Z</time></trkpt>
<trkpt lat="46.27963257" lon="7.41383648"><ele></ele><time>2014-6-4T23:17:3Z</time></trkpt>
<trkpt lat="46.27969742" lon="7.41376686"><ele></ele><time>2014-6-4T23:17:6Z</time></trkpt>
<trkpt lat="46.27975845" lon="7.41364050"><ele></ele><time>2014-6-4T23:17:9Z</time></trkpt>
<trkpt lat="46.27977753" lon="7.41360474"><ele></ele><time>2014-6-4T23:17:12Z</time></trkpt>
<trkpt lat="46.27982712" lon="7.41347885"><ele></ele><time>2014-6-4T23:17:15Z</time></trkpt>
<trkpt lat="46.27992630" lon="7.41333961"><ele></ele><time>2014-6-4T23:17:18Z</time></trkpt>
<trkpt lat="46.28002167" lon="7.41326380"><ele></ele><time>2014-6-4T23:17:21Z</time></trkpt>
<trkpt lat="46.28020096" lon="7.41315889"><ele></ele><time>2014-6-4T23:17:24Z</time></trkpt>
<trkpt lat="46.28034210" lon="7.41308689"><ele></ele><time>2014-6-4T23:17:27Z</time></trkpt>
<trkpt lat="46.28050232" lon="7.41308451"><ele></ele><time>2014-6-4T23:17:30Z</time></trkpt>
<trkpt lat="46.28064346" lon="7.41314268"><ele></ele><time>2014-6-4T23:17:33Z</time></trkpt>
<trkpt lat="46.28073120" lon="7.41331577"><ele></ele><time>2014-6-4T23:17:36Z</time></trkpt>
<trkpt lat="46.28075409" lon="7.41362381"><ele></ele><time>2014-6-4T23:17:39Z</time></trkpt>
<trkpt lat="46.28078079" lon="7.41401005"><ele></ele><time>2014-6-4T23:17:42Z</time></trkpt>
<trkpt lat="46.28083038" lon="7.41418695"><ele></ele><time>2014-6-4T23:17:45Z</time></trkpt>
<trkpt lat="46.28105164" lon="7.41468096"><ele></ele><time>2014-6-4T23:17:48Z</time></trkpt>
<trkpt lat="46.28121185" lon="7.41518593"><ele></ele><time>2014-6-4T23:17:51Z</time></trkpt>
<trkpt lat="46.28141403" lon="7.41594362"><ele></ele><time>2014-6-4T23:17:54Z</time></trkpt>
<trkpt lat="46.28156662" lon="7.41654062"><ele></ele><time>2014-6-4T23:17:57Z</time></trkpt>
<trkpt lat="46.28179169" lon="7.41717052"><ele></ele><time>2014-6-4T23:18:0Z</time></trkpt>
<trkpt lat="46.28184509" lon="7.41726494"><ele></ele><time>2014-6-4T23:18:3Z</time></trkpt>
<trkpt lat="46.28204346" lon="7.41750622"><ele></ele><time>2014-6-4T23:18:6Z</time></trkpt>
<trkpt lat="46.28256226" lon="7.41797018"><ele></ele><time>2014-6-4T23:18:9Z</time></trkpt>
<trkpt lat="46.28295135" lon="7.41830349"><ele></ele><time>2014-6-4T23:18:12Z</time></trkpt>
<trkpt lat="46.28324127" lon="7.41857910"><ele></ele><time>2014-6-4T23:18:15Z</time></trkpt>
<trkpt lat="46.28355789" lon="7.41902924"><ele></ele><time>2014-6-4T23:18:18Z</time></trkpt>
<trkpt lat="46.28366470" lon="7.41918802"><ele></ele><time>2014-6-4T23:18:21Z</time></trkpt>
<trkpt lat="46.28404236" lon="7.41948557"><ele></ele><time>2014-6-4T23:18:24Z</time></trkpt>
<trkpt lat="46.28414917" lon="7.41956711"><ele></ele><time>2014-6-4T23:18:27Z</time></trkpt>
<trkpt lat="46.28434372" lon="7.41970539"><ele></ele><time>2014-6-4T23:18:30Z</time></trkpt>
<trkpt lat="46.28445435" lon="7.41975498"><ele></ele><time>2014-6-4T23:18:33Z</time></trkpt>
<trkpt lat="46.28465652" lon="7.41988182"><ele></ele><time>2014-6-4T23:18:36Z</time></trkpt>
<trkpt lat="46.28472900" lon="7.41992188"><ele></ele><time>2014-6-4T23:18:39Z</time></trkpt>
<trkpt lat="46.28495407" lon="7.42017221"><ele></ele><time>2014-6-4T23:18:42Z</time></trkpt>
<trkpt lat="46.28516006" lon="7.42042732"><ele></ele><time>2014-6-4T23:18:45Z</time></trkpt>
<trkpt lat="46.28537369" lon="7.42063284"><ele></ele><time>2014-6-4T23:18:48Z</time></trkpt>
<trkpt lat="46.28553772" lon="7.42070675"><ele></ele><time>2014-6-4T23:18:51Z</time></trkpt>
<trkpt lat="46.28564453" lon="7.42077446"><ele></ele><time>2014-6-4T23:18:54Z</time></trkpt>
<trkpt lat="46.28584290" lon="7.42087412"><ele></ele><time>2014-6-4T23:18:57Z</time></trkpt>
<trkpt lat="46.28611374" lon="7.42102766"><ele></ele><time>2014-6-4T23:19:0Z</time></trkpt>
<trkpt lat="46.28629684" lon="7.42107630"><ele></ele><time>2014-6-4T23:19:3Z</time></trkpt>
<trkpt lat="46.28667831" lon="7.42108488"><ele></ele><time>2014-6-4T23:19:6Z</time></trkpt>
<trkpt lat="46.28697586" lon="7.42111206"><ele></ele><time>2014-6-4T23:19:9Z</time></trkpt>
<trkpt lat="46.28721619" lon="7.42121983"><ele></ele><time>2014-6-4T23:19:12Z</time></trkpt>
<trkpt lat="46.28748322" lon="7.42126179"><ele></ele><time>2014-6-4T23:19:15Z</time></trkpt>
<trkpt lat="46.28766632" lon="7.42121601"><ele></ele><time>2014-6-4T23:19:18Z</time></trkpt>
<trkpt lat="46.28780746" lon="7.42106962"><ele></ele><time>2014-6-4T23:19:21Z</time></trkpt>
<trkpt lat="46.28794479" lon="7.42084551"><ele></ele><time>2014-6-4T23:19:24Z</time></trkpt>
<trkpt lat="46.28804016" lon="7.42064238"><ele></ele><time>2014-6-4T23:19:27Z</time></trkpt>
<trkpt lat="46.28810120" lon="7.42040873"><ele></ele><time>2014-6-4T23:19:30Z</time></trkpt>
<trkpt lat="46.28815842" lon="7.42014265"><ele></ele><time>2014-6-4T23:19:33Z</time></trkpt>
<trkpt lat="46.28824234" lon="7.41996670"><ele></ele><time>2014-6-4T23:19:36Z</time></trkpt>
<trkpt lat="46.28834915" lon="7.41993046"><ele></ele><time>2014-6-4T23:19:39Z</time></trkpt>
<trkpt lat="46.28844452" lon="7.42002010"><ele></ele><time>2014-6-4T23:19:42Z</time></trkpt>
<trkpt lat="46.28852081" lon="7.42024994"><ele></ele><time>2014-6-4T23:19:45Z</time></trkpt>
<trkpt lat="46.28857422" lon="7.42052984"><ele></ele><time>2014-6-4T23:19:48Z</time></trkpt>
<trkpt lat="46.28864288" lon="7.42076445"><ele></ele><time>2014-6-4T23:19:51Z</time></trkpt>
<trkpt lat="46.28876114" lon="7.42090273"><ele></ele><time>2014-6-4T23:19:54Z</time></trkpt>
<trkpt lat="46.28890991" lon="7.42096758"><ele></ele><time>2014-6-4T23:19:57Z</time></trkpt>
<trkpt lat="46.28910446" lon="7.42105770"><ele></ele><time>2014-6-4T23:20:0Z</time></trkpt>
<trkpt lat="46.28923035" lon="7.42111635"><ele></ele><time>2014-6-4T23:20:3Z</time></trkpt>
<trkpt lat="46.28924561" lon="7.42112303"><ele></ele><time>2014-6-4T23:20:6Z</time></trkpt>
<trkpt lat="46.28940582" lon="7.42117786"><ele></ele><time>2014-6-4T23:20:9Z</time></trkpt>
<trkpt lat="46.28955841" lon="7.42122984"><ele></ele><time>2014-6-4T23:20:12Z</time></trkpt>
<trkpt lat="46.28973007" lon="7.42129421"><ele></ele><time>2014-6-4T23:20:15Z</time></trkpt>
<trkpt lat="46.28989792" lon="7.42138338"><ele></ele><time>2014-6-4T23:20:18Z</time></trkpt>
<trkpt lat="46.29006577" lon="7.42140865"><ele></ele><time>2014-6-4T23:20:21Z</time></trkpt>
<trkpt lat="46.29023361" lon="7.42136288"><ele></ele><time>2014-6-4T23:20:24Z</time></trkpt>
<trkpt lat="46.29036713" lon="7.42138767"><ele></ele><time>2014-6-4T23:20:27Z</time></trkpt>
<trkpt lat="46.29044342" lon="7.42142010"><ele></ele><time>2014-6-4T23:20:30Z</time></trkpt>
<trkpt lat="46.29055023" lon="7.42148638"><ele></ele><time>2014-6-4T23:20:33Z</time></trkpt>
<trkpt lat="46.29072571" lon="7.42161036"><ele></ele><time>2014-6-4T23:20:36Z</time></trkpt>
<trkpt lat="46.29087448" lon="7.42169142"><ele></ele><time>2014-6-4T23:20:39Z</time></trkpt>
<trkpt lat="46.29108810" lon="7.42181540"><ele></ele><time>2014-6-4T23:20:42Z</time></trkpt>
<trkpt lat="46.29129410" lon="7.42193174"><ele></ele><time>2014-6-4T23:20:45Z</time></trkpt>
<trkpt lat="46.29146576" lon="7.42203283"><ele></ele><time>2014-6-4T23:20:48Z</time></trkpt>
<trkpt lat="46.29159546" lon="7.42214823"><ele></ele><time>2014-6-4T23:20:51Z</time></trkpt>
<trkpt lat="46.29174423" lon="7.42230797"><ele></ele><time>2014-6-4T23:20:54Z</time></trkpt>
<trkpt lat="46.29178238" lon="7.42233086"><ele></ele><time>2014-6-4T23:20:57Z</time></trkpt>
<trkpt lat="46.29184341" lon="7.42223024"><ele></ele><time>2014-6-4T23:21:0Z</time></trkpt>
<trkpt lat="46.29179382" lon="7.42215014"><ele></ele><time>2014-6-4T23:21:3Z</time></trkpt>
<trkpt lat="46.29161453" lon="7.42197752"><ele></ele><time>2014-6-4T23:21:6Z</time></trkpt>
<trkpt lat="46.29149246" lon="7.42173958"><ele></ele><time>2014-6-4T23:21:9Z</time></trkpt>
<trkpt lat="46.29145050" lon="7.42164946"><ele></ele><time>2014-6-4T23:21:12Z</time></trkpt>
<trkpt lat="46.29139328" lon="7.42153215"><ele></ele><time>2014-6-4T23:21:15Z</time></trkpt>
<trkpt lat="46.29134369" lon="7.42145061"><ele></ele><time>2014-6-4T23:21:18Z</time></trkpt>
<trkpt lat="46.29113007" lon="7.42117786"><ele></ele><time>2014-6-4T23:21:21Z</time></trkpt>
<trkpt lat="46.29111481" lon="7.42114925"><ele></ele><time>2014-6-4T23:21:24Z</time></trkpt>
<trkpt lat="46.29095840" lon="7.42084551"><ele></ele><time>2014-6-4T23:21:27Z</time></trkpt>
<trkpt lat="46.29075623" lon="7.42060804"><ele></ele><time>2014-6-4T23:21:30Z</time></trkpt>
<trkpt lat="46.29055786" lon="7.42044973"><ele></ele><time>2014-6-4T23:21:33Z</time></trkpt>
<trkpt lat="46.29040146" lon="7.42027950"><ele></ele><time>2014-6-4T23:21:36Z</time></trkpt>
<trkpt lat="46.29021454" lon="7.42014790"><ele></ele><time>2014-6-4T23:21:39Z</time></trkpt>
<trkpt lat="46.29016876" lon="7.42011499"><ele></ele><time>2014-6-4T23:21:42Z</time></trkpt>
<trkpt lat="46.29015350" lon="7.42009211"><ele></ele><time>2014-6-4T23:21:45Z</time></trkpt>
<trkpt lat="46.29019928" lon="7.42002392"><ele></ele><time>2014-6-4T23:21:48Z</time></trkpt>
<trkpt lat="46.29048920" lon="7.42015934"><ele></ele><time>2014-6-4T23:21:51Z</time></trkpt>
<trkpt lat="46.29072189" lon="7.42025900"><ele></ele><time>2014-6-4T23:21:54Z</time></trkpt>
<trkpt lat="46.29089737" lon="7.42032099"><ele></ele><time>2014-6-4T23:21:57Z</time></trkpt>
<trkpt lat="46.29092026" lon="7.42031717"><ele></ele><time>2014-6-4T23:22:0Z</time></trkpt>
<trkpt lat="46.29095840" lon="7.42019796"><ele></ele><time>2014-6-4T23:22:3Z</time></trkpt>
<trkpt lat="46.29094315" lon="7.42016602"><ele></ele><time>2014-6-4T23:22:6Z</time></trkpt>
<trkpt lat="46.29095078" lon="7.42010164"><ele></ele><time>2014-6-4T23:22:9Z</time></trkpt>
<trkpt lat="46.29094315" lon="7.42009497"><ele></ele><time>2014-6-4T23:22:12Z</time></trkpt>
<trkpt lat="46.29092789" lon="7.42011261"><ele></ele><time>2014-6-4T23:22:15Z</time></trkpt>
<trkpt lat="46.29086685" lon="7.42009020"><ele></ele><time>2014-6-4T23:22:18Z</time></trkpt>
<trkpt lat="46.29082870" lon="7.42006397"><ele></ele><time>2014-6-4T23:22:21Z</time></trkpt>
<trkpt lat="46.29069519" lon="7.42000866"><ele></ele><time>2014-6-4T23:22:24Z</time></trkpt>
<trkpt lat="46.29051971" lon="7.41985750"><ele></ele><time>2014-6-4T23:22:27Z</time></trkpt>
<trkpt lat="46.29048538" lon="7.41981077"><ele></ele><time>2014-6-4T23:22:30Z</time></trkpt>
<trkpt lat="46.29047394" lon="7.41978598"><ele></ele><time>2014-6-4T23:22:33Z</time></trkpt>
<trkpt lat="46.29044342" lon="7.41973591"><ele></ele><time>2014-6-4T23:22:36Z</time></trkpt>
<trkpt lat="46.29043198" lon="7.41971064"><ele></ele><time>2014-6-4T23:22:39Z</time></trkpt>
<trkpt lat="46.29040527" lon="7.41965437"><ele></ele><time>2014-6-4T23:22:42Z</time></trkpt>
<trkpt lat="46.29037476" lon="7.41959810"><ele></ele><time>2014-6-4T23:22:45Z</time></trkpt>
<trkpt lat="46.29035950" lon="7.41956902"><ele></ele><time>2014-6-4T23:22:48Z</time></trkpt>
<trkpt lat="46.29031754" lon="7.41947889"><ele></ele><time>2014-6-4T23:22:51Z</time></trkpt>
<trkpt lat="46.29030228" lon="7.41944838"><ele></ele><time>2014-6-4T23:22:54Z</time></trkpt>
<trkpt lat="46.29027557" lon="7.41938972"><ele></ele><time>2014-6-4T23:22:57Z</time></trkpt>
<trkpt lat="46.29026031" lon="7.41936016"><ele></ele><time>2014-6-4T23:23:0Z</time></trkpt>
<trkpt lat="46.29019547" lon="7.41921854"><ele></ele><time>2014-6-4T23:23:3Z</time></trkpt>
<trkpt lat="46.29018402" lon="7.41918993"><ele></ele><time>2014-6-4T23:23:6Z</time></trkpt>
<trkpt lat="46.29015732" lon="7.41912842"><ele></ele><time>2014-6-4T23:23:9Z</time></trkpt>
<trkpt lat="46.29010391" lon="7.41901112"><ele></ele><time>2014-6-4T23:23:12Z</time></trkpt>
<trkpt lat="46.29007721" lon="7.41895294"><ele></ele><time>2014-6-4T23:23:15Z</time></trkpt>
<trkpt lat="46.28992844" lon="7.41876793"><ele></ele><time>2014-6-4T23:23:18Z</time></trkpt>
<trkpt lat="46.28973389" lon="7.41867781"><ele></ele><time>2014-6-4T23:23:21Z</time></trkpt>
<trkpt lat="46.28961182" lon="7.41861582"><ele></ele><time>2014-6-4T23:23:24Z</time></trkpt>
<trkpt lat="46.28948593" lon="7.41843987"><ele></ele><time>2014-6-4T23:23:27Z</time></trkpt>
<trkpt lat="46.28941727" lon="7.41812038"><ele></ele><time>2014-6-4T23:23:30Z</time></trkpt>
<trkpt lat="46.28934097" lon="7.41785574"><ele></ele><time>2014-6-4T23:23:33Z</time></trkpt>
<trkpt lat="46.28920746" lon="7.41752911"><ele></ele><time>2014-6-4T23:23:36Z</time></trkpt>
<trkpt lat="46.28919220" lon="7.41746759"><ele></ele><time>2014-6-4T23:23:39Z</time></trkpt>
<trkpt lat="46.28915024" lon="7.41725302"><ele></ele><time>2014-6-4T23:23:42Z</time></trkpt>
<trkpt lat="46.28913879" lon="7.41719532"><ele></ele><time>2014-6-4T23:23:45Z</time></trkpt>
<trkpt lat="46.28913116" lon="7.41716814"><ele></ele><time>2014-6-4T23:23:48Z</time></trkpt>
<trkpt lat="46.28911972" lon="7.41711044"><ele></ele><time>2014-6-4T23:23:51Z</time></trkpt>
<trkpt lat="46.28911209" lon="7.41708422"><ele></ele><time>2014-6-4T23:23:54Z</time></trkpt>
<trkpt lat="46.28906631" lon="7.41684628"><ele></ele><time>2014-6-4T23:23:57Z</time></trkpt>
<trkpt lat="46.28902054" lon="7.41657352"><ele></ele><time>2014-6-4T23:24:0Z</time></trkpt>
<trkpt lat="46.28899002" lon="7.41626740"><ele></ele><time>2014-6-4T23:24:3Z</time></trkpt>
<trkpt lat="46.28899765" lon="7.41595125"><ele></ele><time>2014-6-4T23:24:6Z</time></trkpt>
<trkpt lat="46.28900528" lon="7.41565990"><ele></ele><time>2014-6-4T23:24:9Z</time></trkpt>
<trkpt lat="46.28900909" lon="7.41542435"><ele></ele><time>2014-6-4T23:24:12Z</time></trkpt>
<trkpt lat="46.28899765" lon="7.41533422"><ele></ele><time>2014-6-4T23:24:15Z</time></trkpt>
<trkpt lat="46.28895569" lon="7.41508245"><ele></ele><time>2014-6-4T23:24:18Z</time></trkpt>
<trkpt lat="46.28892136" lon="7.41486692"><ele></ele><time>2014-6-4T23:24:21Z</time></trkpt>
<trkpt lat="46.28890991" lon="7.41462517"><ele></ele><time>2014-6-4T23:24:24Z</time></trkpt>
<trkpt lat="46.28890228" lon="7.41450167"><ele></ele><time>2014-6-4T23:24:27Z</time></trkpt>
<trkpt lat="46.28889465" lon="7.41427374"><ele></ele><time>2014-6-4T23:24:30Z</time></trkpt>
<trkpt lat="46.28883743" lon="7.41398048"><ele></ele><time>2014-6-4T23:24:33Z</time></trkpt>
<trkpt lat="46.28876495" lon="7.41374302"><ele></ele><time>2014-6-4T23:24:36Z</time></trkpt>
<trkpt lat="46.28871918" lon="7.41351223"><ele></ele><time>2014-6-4T23:24:39Z</time></trkpt>
<trkpt lat="46.28866577" lon="7.41325569"><ele></ele><time>2014-6-4T23:24:42Z</time></trkpt>
<trkpt lat="46.28856659" lon="7.41295481"><ele></ele><time>2014-6-4T23:24:45Z</time></trkpt>
<trkpt lat="46.28851700" lon="7.41283226"><ele></ele><time>2014-6-4T23:24:48Z</time></trkpt>
<trkpt lat="46.28836441" lon="7.41269064"><ele></ele><time>2014-6-4T23:24:51Z</time></trkpt>
<trkpt lat="46.28826904" lon="7.41268396"><ele></ele><time>2014-6-4T23:24:54Z</time></trkpt>
<trkpt lat="46.28813171" lon="7.41270924"><ele></ele><time>2014-6-4T23:24:57Z</time></trkpt>
<trkpt lat="46.28801346" lon="7.41277742"><ele></ele><time>2014-6-4T23:25:0Z</time></trkpt>
<trkpt lat="46.28785324" lon="7.41273546"><ele></ele><time>2014-6-4T23:25:3Z</time></trkpt>
<trkpt lat="46.28782654" lon="7.41269207"><ele></ele><time>2014-6-4T23:25:6Z</time></trkpt>
<trkpt lat="46.28780365" lon="7.41264820"><ele></ele><time>2014-6-4T23:25:9Z</time></trkpt>
<trkpt lat="46.28772736" lon="7.41252851"><ele></ele><time>2014-6-4T23:25:12Z</time></trkpt>
<trkpt lat="46.28767776" lon="7.41244936"><ele></ele><time>2014-6-4T23:25:15Z</time></trkpt>
<trkpt lat="46.28747177" lon="7.41214514"><ele></ele><time>2014-6-4T23:25:18Z</time></trkpt>
<trkpt lat="46.28728485" lon="7.41185474"><ele></ele><time>2014-6-4T23:25:21Z</time></trkpt>
<trkpt lat="46.28719711" lon="7.41163445"><ele></ele><time>2014-6-4T23:25:24Z</time></trkpt>
<trkpt lat="46.28705597" lon="7.41130877"><ele></ele><time>2014-6-4T23:25:27Z</time></trkpt>
<trkpt lat="46.28688049" lon="7.41102505"><ele></ele><time>2014-6-4T23:25:30Z</time></trkpt>
<trkpt lat="46.28670120" lon="7.41067600"><ele></ele><time>2014-6-4T23:25:33Z</time></trkpt>
<trkpt lat="46.28650284" lon="7.41028070"><ele></ele><time>2014-6-4T23:25:36Z</time></trkpt>
<trkpt lat="46.28627014" lon="7.40974998"><ele></ele><time>2014-6-4T23:25:39Z</time></trkpt>
<trkpt lat="46.28621292" lon="7.40962172"><ele></ele><time>2014-6-4T23:25:42Z</time></trkpt>
<trkpt lat="46.28613663" lon="7.40945721"><ele></ele><time>2014-6-4T23:25:45Z</time></trkpt>
<trkpt lat="46.28611374" lon="7.40940714"><ele></ele><time>2014-6-4T23:25:48Z</time></trkpt>
<trkpt lat="46.28597641" lon="7.40910912"><ele></ele><time>2014-6-4T23:25:51Z</time></trkpt>
<trkpt lat="46.28573227" lon="7.40866041"><ele></ele><time>2014-6-4T23:25:54Z</time></trkpt>
<trkpt lat="46.28557968" lon="7.40841532"><ele></ele><time>2014-6-4T23:25:57Z</time></trkpt>
<trkpt lat="46.28553391" lon="7.40832806"><ele></ele><time>2014-6-4T23:26:0Z</time></trkpt>
<trkpt lat="46.28544617" lon="7.40811634"><ele></ele><time>2014-6-4T23:26:3Z</time></trkpt>
<trkpt lat="46.28535080" lon="7.40787745"><ele></ele><time>2014-6-4T23:26:6Z</time></trkpt>
<trkpt lat="46.28520584" lon="7.40767336"><ele></ele><time>2014-6-4T23:26:9Z</time></trkpt>
<trkpt lat="46.28489685" lon="7.40756321"><ele></ele><time>2014-6-4T23:26:12Z</time></trkpt>
<trkpt lat="46.28443909" lon="7.40762997"><ele></ele><time>2014-6-4T23:26:15Z</time></trkpt>
<trkpt lat="46.28436661" lon="7.40764236"><ele></ele><time>2014-6-4T23:26:18Z</time></trkpt>
<trkpt lat="46.28409576" lon="7.40759468"><ele></ele><time>2014-6-4T23:26:21Z</time></trkpt>
<trkpt lat="46.28386688" lon="7.40747404"><ele></ele><time>2014-6-4T23:26:24Z</time></trkpt>
<trkpt lat="46.28367233" lon="7.40724993"><ele></ele><time>2014-6-4T23:26:27Z</time></trkpt>
<trkpt lat="46.28364563" lon="7.40721560"><ele></ele><time>2014-6-4T23:26:30Z</time></trkpt>
<trkpt lat="46.28342438" lon="7.40694761"><ele></ele><time>2014-6-4T23:26:33Z</time></trkpt>
<trkpt lat="46.28337097" lon="7.40687799"><ele></ele><time>2014-6-4T23:26:36Z</time></trkpt>
<trkpt lat="46.28334808" lon="7.40684271"><ele></ele><time>2014-6-4T23:26:39Z</time></trkpt>
<trkpt lat="46.28317261" lon="7.40656948"><ele></ele><time>2014-6-4T23:26:42Z</time></trkpt>
<trkpt lat="46.28311920" lon="7.40649033"><ele></ele><time>2014-6-4T23:26:45Z</time></trkpt>
<trkpt lat="46.28308105" lon="7.40644264"><ele></ele><time>2014-6-4T23:26:48Z</time></trkpt>
<trkpt lat="46.28301239" lon="7.40627098"><ele></ele><time>2014-6-4T23:26:51Z</time></trkpt>
<trkpt lat="46.28299713" lon="7.40595531"><ele></ele><time>2014-6-4T23:26:54Z</time></trkpt>
<trkpt lat="46.28299713" lon="7.40579081"><ele></ele><time>2014-6-4T23:26:57Z</time></trkpt>
<trkpt lat="46.28299332" lon="7.40562439"><ele></ele><time>2014-6-4T23:27:0Z</time></trkpt>
<trkpt lat="46.28299332" lon="7.40557098"><ele></ele><time>2014-6-4T23:27:3Z</time></trkpt>
<trkpt lat="46.28298950" lon="7.40554428"><ele></ele><time>2014-6-4T23:27:6Z</time></trkpt>
<trkpt lat="46.28298569" lon="7.40551758"><ele></ele><time>2014-6-4T23:27:9Z</time></trkpt>
<trkpt lat="46.28295517" lon="7.40533209"><ele></ele><time>2014-6-4T23:27:12Z</time></trkpt>
<trkpt lat="46.28292847" lon="7.40514135"><ele></ele><time>2014-6-4T23:27:15Z</time></trkpt>
<trkpt lat="46.28292465" lon="7.40511322"><ele></ele><time>2014-6-4T23:27:18Z</time></trkpt>
<trkpt lat="46.28292465" lon="7.40508461"><ele></ele><time>2014-6-4T23:27:21Z</time></trkpt>
<trkpt lat="46.28292084" lon="7.40505648"><ele></ele><time>2014-6-4T23:27:24Z</time></trkpt>
<trkpt lat="46.28291321" lon="7.40475845"><ele></ele><time>2014-6-4T23:27:27Z</time></trkpt>
<trkpt lat="46.28291321" lon="7.40470600"><ele></ele><time>2014-6-4T23:27:30Z</time></trkpt>
<trkpt lat="46.28292465" lon="7.40444517"><ele></ele><time>2014-6-4T23:27:33Z</time></trkpt>
<trkpt lat="46.28292084" lon="7.40423441"><ele></ele><time>2014-6-4T23:27:36Z</time></trkpt>
<trkpt lat="46.28290176" lon="7.40404749"><ele></ele><time>2014-6-4T23:27:39Z</time></trkpt>
<trkpt lat="46.28286743" lon="7.40386820"><ele></ele><time>2014-6-4T23:27:42Z</time></trkpt>
<trkpt lat="46.28277588" lon="7.40360022"><ele></ele><time>2014-6-4T23:27:45Z</time></trkpt>
<trkpt lat="46.28270340" lon="7.40346956"><ele></ele><time>2014-6-4T23:27:48Z</time></trkpt>
<trkpt lat="46.28269196" lon="7.40344715"><ele></ele><time>2014-6-4T23:27:51Z</time></trkpt>
<trkpt lat="46.28256989" lon="7.40323019"><ele></ele><time>2014-6-4T23:27:54Z</time></trkpt>
<trkpt lat="46.28244781" lon="7.40306520"><ele></ele><time>2014-6-4T23:27:57Z</time></trkpt>
<trkpt lat="46.28234482" lon="7.40299892"><ele></ele><time>2014-6-4T23:28:0Z</time></trkpt>
<trkpt lat="46.28223038" lon="7.40292692"><ele></ele><time>2014-6-4T23:28:3Z</time></trkpt>
<trkpt lat="46.28208542" lon="7.40283346"><ele></ele><time>2014-6-4T23:28:6Z</time></trkpt>
<trkpt lat="46.28195953" lon="7.40270853"><ele></ele><time>2014-6-4T23:28:9Z</time></trkpt>
<trkpt lat="46.28186417" lon="7.40261221"><ele></ele><time>2014-6-4T23:28:12Z</time></trkpt>
<trkpt lat="46.28178787" lon="7.40250778"><ele></ele><time>2014-6-4T23:28:15Z</time></trkpt>
<trkpt lat="46.28166580" lon="7.40231657"><ele></ele><time>2014-6-4T23:28:18Z</time></trkpt>
<trkpt lat="46.28157425" lon="7.40206528"><ele></ele><time>2014-6-4T23:28:21Z</time></trkpt>
<trkpt lat="46.28152466" lon="7.40193176"><ele></ele><time>2014-6-4T23:28:24Z</time></trkpt>
<trkpt lat="46.28141403" lon="7.40158463"><ele></ele><time>2014-6-4T23:28:27Z</time></trkpt>
<trkpt lat="46.28140259" lon="7.40155745"><ele></ele><time>2014-6-4T23:28:30Z</time></trkpt>
<trkpt lat="46.28125763" lon="7.40130663"><ele></ele><time>2014-6-4T23:28:33Z</time></trkpt>
<trkpt lat="46.28115845" lon="7.40111780"><ele></ele><time>2014-6-4T23:28:36Z</time></trkpt>
<trkpt lat="46.28106308" lon="7.40094662"><ele></ele><time>2014-6-4T23:28:39Z</time></trkpt>
<trkpt lat="46.28095627" lon="7.40076923"><ele></ele><time>2014-6-4T23:28:42Z</time></trkpt>
<trkpt lat="46.28080368" lon="7.40053320"><ele></ele><time>2014-6-4T23:28:45Z</time></trkpt>
<trkpt lat="46.28063583" lon="7.40028477"><ele></ele><time>2014-6-4T23:28:48Z</time></trkpt>
<trkpt lat="46.28047943" lon="7.40015602"><ele></ele><time>2014-6-4T23:28:51Z</time></trkpt>
<trkpt lat="46.28034210" lon="7.40001154"><ele></ele><time>2014-6-4T23:28:54Z</time></trkpt>
<trkpt lat="46.28022385" lon="7.39979982"><ele></ele><time>2014-6-4T23:28:57Z</time></trkpt>
<trkpt lat="46.28014374" lon="7.39956045"><ele></ele><time>2014-6-4T23:29:0Z</time></trkpt>
<trkpt lat="46.28004456" lon="7.39924669"><ele></ele><time>2014-6-4T23:29:3Z</time></trkpt>
<trkpt lat="46.27997589" lon="7.39902925"><ele></ele><time>2014-6-4T23:29:6Z</time></trkpt>
<trkpt lat="46.27991486" lon="7.39880657"><ele></ele><time>2014-6-4T23:29:9Z</time></trkpt>
<trkpt lat="46.27986526" lon="7.39854288"><ele></ele><time>2014-6-4T23:29:12Z</time></trkpt>
<trkpt lat="46.27984238" lon="7.39827108"><ele></ele><time>2014-6-4T23:29:15Z</time></trkpt>
<trkpt lat="46.27986145" lon="7.39799786"><ele></ele><time>2014-6-4T23:29:18Z</time></trkpt>
<trkpt lat="46.27988434" lon="7.39773035"><ele></ele><time>2014-6-4T23:29:21Z</time></trkpt>
<trkpt lat="46.27989578" lon="7.39754343"><ele></ele><time>2014-6-4T23:29:24Z</time></trkpt>
<trkpt lat="46.27993393" lon="7.39736891"><ele></ele><time>2014-6-4T23:29:27Z</time></trkpt>
<trkpt lat="46.27994537" lon="7.39733410"><ele></ele><time>2014-6-4T23:29:30Z</time></trkpt>
<trkpt lat="46.27995682" lon="7.39722490"><ele></ele><time>2014-6-4T23:29:33Z</time></trkpt>
<trkpt lat="46.27988815" lon="7.39705324"><ele></ele><time>2014-6-4T23:29:36Z</time></trkpt>
<trkpt lat="46.27985382" lon="7.39693308"><ele></ele><time>2014-6-4T23:29:39Z</time></trkpt>
<trkpt lat="46.27986908" lon="7.39680004"><ele></ele><time>2014-6-4T23:29:42Z</time></trkpt>
<trkpt lat="46.28002930" lon="7.39636755"><ele></ele><time>2014-6-4T23:29:45Z</time></trkpt>
<trkpt lat="46.28020096" lon="7.39597845"><ele></ele><time>2014-6-4T23:29:48Z</time></trkpt>
<trkpt lat="46.28023911" lon="7.39588547"><ele></ele><time>2014-6-4T23:29:51Z</time></trkpt>
<trkpt lat="46.28025436" lon="7.39584160"><ele></ele><time>2014-6-4T23:29:54Z</time></trkpt>
<trkpt lat="46.28031540" lon="7.39567518"><ele></ele><time>2014-6-4T23:29:57Z</time></trkpt>
<trkpt lat="46.28038406" lon="7.39546490"><ele></ele><time>2014-6-4T23:30:0Z</time></trkpt>
<trkpt lat="46.28045654" lon="7.39513636"><ele></ele><time>2014-6-4T23:30:3Z</time></trkpt>
<trkpt lat="46.28046799" lon="7.39504576"><ele></ele><time>2014-6-4T23:30:6Z</time></trkpt>
<trkpt lat="46.28047562" lon="7.39499760"><ele></ele><time>2014-6-4T23:30:9Z</time></trkpt>
<trkpt lat="46.28048706" lon="7.39490080"><ele></ele><time>2014-6-4T23:30:12Z</time></trkpt>
<trkpt lat="46.28050232" lon="7.39480782"><ele></ele><time>2014-6-4T23:30:15Z</time></trkpt>
<trkpt lat="46.28050613" lon="7.39475870"><ele></ele><time>2014-6-4T23:30:18Z</time></trkpt>
<trkpt lat="46.28051376" lon="7.39453554"><ele></ele><time>2014-6-4T23:30:21Z</time></trkpt>
<trkpt lat="46.28046799" lon="7.39440155"><ele></ele><time>2014-6-4T23:30:24Z</time></trkpt>
<trkpt lat="46.28033829" lon="7.39434433"><ele></ele><time>2014-6-4T23:30:27Z</time></trkpt>
<trkpt lat="46.28017044" lon="7.39429331"><ele></ele><time>2014-6-4T23:30:30Z</time></trkpt>
<trkpt lat="46.28004074" lon="7.39424419"><ele></ele><time>2014-6-4T23:30:33Z</time></trkpt>
<trkpt lat="46.27995300" lon="7.39422321"><ele></ele><time>2014-6-4T23:30:36Z</time></trkpt>
<trkpt lat="46.27986526" lon="7.39417982"><ele></ele><time>2014-6-4T23:30:39Z</time></trkpt>
<trkpt lat="46.27982330" lon="7.39415503"><ele></ele><time>2014-6-4T23:30:42Z</time></trkpt>
<trkpt lat="46.27970886" lon="7.39410734"><ele></ele><time>2014-6-4T23:30:45Z</time></trkpt>
<trkpt lat="46.27967072" lon="7.39409781"><ele></ele><time>2014-6-4T23:30:48Z</time></trkpt>
<trkpt lat="46.27963638" lon="7.39408588"><ele></ele><time>2014-6-4T23:30:51Z</time></trkpt>
<trkpt lat="46.27960205" lon="7.39407825"><ele></ele><time>2014-6-4T23:30:54Z</time></trkpt>
<trkpt lat="46.27956772" lon="7.39406967"><ele></ele><time>2014-6-4T23:30:57Z</time></trkpt>
<trkpt lat="46.27949905" lon="7.39404964"><ele></ele><time>2014-6-4T23:31:0Z</time></trkpt>
<trkpt lat="46.27943420" lon="7.39402866"><ele></ele><time>2014-6-4T23:31:3Z</time></trkpt>
<trkpt lat="46.27923203" lon="7.39397049"><ele></ele><time>2014-6-4T23:31:6Z</time></trkpt>
<trkpt lat="46.27907181" lon="7.39393759"><ele></ele><time>2014-6-4T23:31:9Z</time></trkpt>
<trkpt lat="46.27890396" lon="7.39386415"><ele></ele><time>2014-6-4T23:31:12Z</time></trkpt>
<trkpt lat="46.27866745" lon="7.39376163"><ele></ele><time>2014-6-4T23:31:15Z</time></trkpt>
<trkpt lat="46.27833557" lon="7.39363861"><ele></ele><time>2014-6-4T23:31:18Z</time></trkpt>
<trkpt lat="46.27813721" lon="7.39356375"><ele></ele><time>2014-6-4T23:31:21Z</time></trkpt>
<trkpt lat="46.27795792" lon="7.39343786"><ele></ele><time>2014-6-4T23:31:24Z</time></trkpt>
<trkpt lat="46.27787781" lon="7.39336109"><ele></ele><time>2014-6-4T23:31:27Z</time></trkpt>
<trkpt lat="46.27773285" lon="7.39320040"><ele></ele><time>2014-6-4T23:31:30Z</time></trkpt>
<trkpt lat="46.27760315" lon="7.39280605"><ele></ele><time>2014-6-4T23:31:33Z</time></trkpt>
<trkpt lat="46.27755356" lon="7.39266634"><ele></ele><time>2014-6-4T23:31:36Z</time></trkpt>
<trkpt lat="46.27744293" lon="7.39240074"><ele></ele><time>2014-6-4T23:31:39Z</time></trkpt>
<trkpt lat="46.27729416" lon="7.39215660"><ele></ele><time>2014-6-4T23:31:42Z</time></trkpt>
<trkpt lat="46.27711868" lon="7.39193678"><ele></ele><time>2014-6-4T23:31:45Z</time></trkpt>
<trkpt lat="46.27702713" lon="7.39183187"><ele></ele><time>2014-6-4T23:31:48Z</time></trkpt>
<trkpt lat="46.27686691" lon="7.39157200"><ele></ele><time>2014-6-4T23:31:51Z</time></trkpt>
<trkpt lat="46.27666473" lon="7.39111757"><ele></ele><time>2014-6-4T23:31:54Z</time></trkpt>
<trkpt lat="46.27659225" lon="7.39096785"><ele></ele><time>2014-6-4T23:31:57Z</time></trkpt>
<trkpt lat="46.27638245" lon="7.39053679"><ele></ele><time>2014-6-4T23:32:0Z</time></trkpt>
<trkpt lat="46.27632141" lon="7.39039612"><ele></ele><time>2014-6-4T23:32:3Z</time></trkpt>
<trkpt lat="46.27618027" lon="7.39000797"><ele></ele><time>2014-6-4T23:32:6Z</time></trkpt>
<trkpt lat="46.27604675" lon="7.38968563"><ele></ele><time>2014-6-4T23:32:9Z</time></trkpt>
<trkpt lat="46.27589417" lon="7.38927031"><ele></ele><time>2014-6-4T23:32:12Z</time></trkpt>
<trkpt lat="46.27578735" lon="7.38907671"><ele></ele><time>2014-6-4T23:32:15Z</time></trkpt>
<trkpt lat="46.27571106" lon="7.38899517"><ele></ele><time>2014-6-4T23:32:18Z</time></trkpt>
<trkpt lat="46.27563095" lon="7.38891745"><ele></ele><time>2014-6-4T23:32:21Z</time></trkpt>
<trkpt lat="46.27554703" lon="7.38884211"><ele></ele><time>2014-6-4T23:32:24Z</time></trkpt>
<trkpt lat="46.27545929" lon="7.38876152"><ele></ele><time>2014-6-4T23:32:27Z</time></trkpt>
<trkpt lat="46.27516937" lon="7.38827133"><ele></ele><time>2014-6-4T23:32:30Z</time></trkpt>
<trkpt lat="46.27512360" lon="7.38811159"><ele></ele><time>2014-6-4T23:32:33Z</time></trkpt>
<trkpt lat="46.27505112" lon="7.38778210"><ele></ele><time>2014-6-4T23:32:36Z</time></trkpt>
<trkpt lat="46.27478027" lon="7.38722420"><ele></ele><time>2014-6-4T23:32:39Z</time></trkpt>
<trkpt lat="46.27458954" lon="7.38682508"><ele></ele><time>2014-6-4T23:32:42Z</time></trkpt>
<trkpt lat="46.27447891" lon="7.38629866"><ele></ele><time>2014-6-4T23:32:45Z</time></trkpt>
<trkpt lat="46.27430344" lon="7.38606834"><ele></ele><time>2014-6-4T23:32:48Z</time></trkpt>
<trkpt lat="46.27410889" lon="7.38591909"><ele></ele><time>2014-6-4T23:32:51Z</time></trkpt>
<trkpt lat="46.27397919" lon="7.38592005"><ele></ele><time>2014-6-4T23:32:54Z</time></trkpt>
<trkpt lat="46.27393723" lon="7.38593102"><ele></ele><time>2014-6-4T23:32:57Z</time></trkpt>
<trkpt lat="46.27380753" lon="7.38594294"><ele></ele><time>2014-6-4T23:33:0Z</time></trkpt>
<trkpt lat="46.27376556" lon="7.38594866"><ele></ele><time>2014-6-4T23:33:3Z</time></trkpt>
<trkpt lat="46.27373505" lon="7.38596296"><ele></ele><time>2014-6-4T23:33:6Z</time></trkpt>
<trkpt lat="46.27370834" lon="7.38598108"><ele></ele><time>2014-6-4T23:33:9Z</time></trkpt>
<trkpt lat="46.27362442" lon="7.38610506"><ele></ele><time>2014-6-4T23:33:12Z</time></trkpt>
<trkpt lat="46.27362823" lon="7.38626051"><ele></ele><time>2014-6-4T23:33:15Z</time></trkpt>
<trkpt lat="46.27369690" lon="7.38681602"><ele></ele><time>2014-6-4T23:33:18Z</time></trkpt>
<trkpt lat="46.27387238" lon="7.38721609"><ele></ele><time>2014-6-4T23:33:21Z</time></trkpt>
<trkpt lat="46.27400589" lon="7.38750124"><ele></ele><time>2014-6-4T23:33:24Z</time></trkpt>
<trkpt lat="46.27406311" lon="7.38785172"><ele></ele><time>2014-6-4T23:33:27Z</time></trkpt>
<trkpt lat="46.27407455" lon="7.38803577"><ele></ele><time>2014-6-4T23:33:30Z</time></trkpt>
<trkpt lat="46.27408600" lon="7.38841486"><ele></ele><time>2014-6-4T23:33:33Z</time></trkpt>
<trkpt lat="46.27419281" lon="7.38911724"><ele></ele><time>2014-6-4T23:33:36Z</time></trkpt>
<trkpt lat="46.27422714" lon="7.38928366"><ele></ele><time>2014-6-4T23:33:39Z</time></trkpt>
<trkpt lat="46.27426147" lon="7.38944864"><ele></ele><time>2014-6-4T23:33:42Z</time></trkpt>
<trkpt lat="46.27429581" lon="7.38961458"><ele></ele><time>2014-6-4T23:33:45Z</time></trkpt>
<trkpt lat="46.27432632" lon="7.38978338"><ele></ele><time>2014-6-4T23:33:48Z</time></trkpt>
<trkpt lat="46.27440643" lon="7.39062357"><ele></ele><time>2014-6-4T23:33:51Z</time></trkpt>
<trkpt lat="46.27454758" lon="7.39171791"><ele></ele><time>2014-6-4T23:33:54Z</time></trkpt>
<trkpt lat="46.27462006" lon="7.39214230"><ele></ele><time>2014-6-4T23:33:57Z</time></trkpt>
<trkpt lat="46.27472687" lon="7.39267349"><ele></ele><time>2014-6-4T23:34:0Z</time></trkpt>
<trkpt lat="46.27492142" lon="7.39342260"><ele></ele><time>2014-6-4T23:34:3Z</time></trkpt>
<trkpt lat="46.27499771" lon="7.39367199"><ele></ele><time>2014-6-4T23:34:6Z</time></trkpt>
<trkpt lat="46.27503586" lon="7.39379597"><ele></ele><time>2014-6-4T23:34:9Z</time></trkpt>
<trkpt lat="46.27511597" lon="7.39404535"><ele></ele><time>2014-6-4T23:34:12Z</time></trkpt>
<trkpt lat="46.27520370" lon="7.39429235"><ele></ele><time>2014-6-4T23:34:15Z</time></trkpt>
<trkpt lat="46.27524948" lon="7.39441490"><ele></ele><time>2014-6-4T23:34:18Z</time></trkpt>
<trkpt lat="46.27529907" lon="7.39453650"><ele></ele><time>2014-6-4T23:34:21Z</time></trkpt>
<trkpt lat="46.27556992" lon="7.39512920"><ele></ele><time>2014-6-4T23:34:24Z</time></trkpt>
<trkpt lat="46.27590561" lon="7.39584398"><ele></ele><time>2014-6-4T23:34:27Z</time></trkpt>
<trkpt lat="46.27619171" lon="7.39645147"><ele></ele><time>2014-6-4T23:34:30Z</time></trkpt>
<trkpt lat="46.27667236" lon="7.39740276"><ele></ele><time>2014-6-4T23:34:33Z</time></trkpt>
<trkpt lat="46.27678299" lon="7.39763880"><ele></ele><time>2014-6-4T23:34:36Z</time></trkpt>
<trkpt lat="46.27684021" lon="7.39775372"><ele></ele><time>2014-6-4T23:34:39Z</time></trkpt>
<trkpt lat="46.27694702" lon="7.39797878"><ele></ele><time>2014-6-4T23:34:42Z</time></trkpt>
<trkpt lat="46.27700424" lon="7.39809084"><ele></ele><time>2014-6-4T23:34:45Z</time></trkpt>
<trkpt lat="46.27710724" lon="7.39832878"><ele></ele><time>2014-6-4T23:34:48Z</time></trkpt>
<trkpt lat="46.27715302" lon="7.39845943"><ele></ele><time>2014-6-4T23:34:51Z</time></trkpt>
<trkpt lat="46.27719879" lon="7.39904213"><ele></ele><time>2014-6-4T23:34:54Z</time></trkpt>
<trkpt lat="46.27721024" lon="7.39955521"><ele></ele><time>2014-6-4T23:34:57Z</time></trkpt>
<trkpt lat="46.27722931" lon="7.39972019"><ele></ele><time>2014-6-4T23:35:0Z</time></trkpt>
<trkpt lat="46.27724838" lon="7.39985847"><ele></ele><time>2014-6-4T23:35:3Z</time></trkpt>
<trkpt lat="46.27726746" lon="7.39996958"><ele></ele><time>2014-6-4T23:35:6Z</time></trkpt>
<trkpt lat="46.27729034" lon="7.40011168"><ele></ele><time>2014-6-4T23:35:9Z</time></trkpt>
<trkpt lat="46.27719116" lon="7.40018940"><ele></ele><time>2014-6-4T23:35:12Z</time></trkpt>
<trkpt lat="46.27703094" lon="7.40024281"><ele></ele><time>2014-6-4T23:35:15Z</time></trkpt>
<trkpt lat="46.27695084" lon="7.40031815"><ele></ele><time>2014-6-4T23:35:18Z</time></trkpt>
<trkpt lat="46.27693176" lon="7.40032530"><ele></ele><time>2014-6-4T23:35:21Z</time></trkpt>
<trkpt lat="46.27685547" lon="7.40028811"><ele></ele><time>2014-6-4T23:35:24Z</time></trkpt>
<trkpt lat="46.27680206" lon="7.40025377"><ele></ele><time>2014-6-4T23:35:27Z</time></trkpt>
<trkpt lat="46.27676773" lon="7.40022945"><ele></ele><time>2014-6-4T23:35:30Z</time></trkpt>
<trkpt lat="46.27668762" lon="7.40013075"><ele></ele><time>2014-6-4T23:35:33Z</time></trkpt>
<trkpt lat="46.27658081" lon="7.39979553"><ele></ele><time>2014-6-4T23:35:36Z</time></trkpt>
<trkpt lat="46.27634048" lon="7.39954138"><ele></ele><time>2014-6-4T23:35:39Z</time></trkpt>
<trkpt lat="46.27608109" lon="7.39934444"><ele></ele><time>2014-6-4T23:35:42Z</time></trkpt>
<trkpt lat="46.27599335" lon="7.39924479"><ele></ele><time>2014-6-4T23:35:45Z</time></trkpt>
<trkpt lat="46.27574158" lon="7.39888382"><ele></ele><time>2014-6-4T23:35:48Z</time></trkpt>
<trkpt lat="46.27556992" lon="7.39865303"><ele></ele><time>2014-6-4T23:35:51Z</time></trkpt>
<trkpt lat="46.27543640" lon="7.39846849"><ele></ele><time>2014-6-4T23:35:54Z</time></trkpt>
<trkpt lat="46.27533722" lon="7.39833307"><ele></ele><time>2014-6-4T23:35:57Z</time></trkpt>
<trkpt lat="46.27524185" lon="7.39832687"><ele></ele><time>2014-6-4T23:36:0Z</time></trkpt>
<trkpt lat="46.27526855" lon="7.39845800"><ele></ele><time>2014-6-4T23:36:3Z</time></trkpt>
<trkpt lat="46.27544022" lon="7.39879227"><ele></ele><time>2014-6-4T23:36:6Z</time></trkpt>
<trkpt lat="46.27553940" lon="7.39915228"><ele></ele><time>2014-6-4T23:36:9Z</time></trkpt>
<trkpt lat="46.27561951" lon="7.39992571"><ele></ele><time>2014-6-4T23:36:12Z</time></trkpt>
<trkpt lat="46.27580261" lon="7.40033913"><ele></ele><time>2014-6-4T23:36:15Z</time></trkpt>
<trkpt lat="46.27617645" lon="7.40071869"><ele></ele><time>2014-6-4T23:36:18Z</time></trkpt>
<trkpt lat="46.27624512" lon="7.40077209"><ele></ele><time>2014-6-4T23:36:21Z</time></trkpt>
<trkpt lat="46.27629089" lon="7.40094995"><ele></ele><time>2014-6-4T23:36:24Z</time></trkpt>
<trkpt lat="46.27618408" lon="7.40096760"><ele></ele><time>2014-6-4T23:36:27Z</time></trkpt>
<trkpt lat="46.27598190" lon="7.40099239"><ele></ele><time>2014-6-4T23:36:30Z</time></trkpt>
<trkpt lat="46.27591705" lon="7.40115213"><ele></ele><time>2014-6-4T23:36:33Z</time></trkpt>
<trkpt lat="46.27589798" lon="7.40128899"><ele></ele><time>2014-6-4T23:36:36Z</time></trkpt>
<trkpt lat="46.27586746" lon="7.40133667"><ele></ele><time>2014-6-4T23:36:39Z</time></trkpt>
<trkpt lat="46.27583313" lon="7.40137720"><ele></ele><time>2014-6-4T23:36:42Z</time></trkpt>
<trkpt lat="46.27576447" lon="7.40136385"><ele></ele><time>2014-6-4T23:36:45Z</time></trkpt>
<trkpt lat="46.27573395" lon="7.40134478"><ele></ele><time>2014-6-4T23:36:48Z</time></trkpt>
<trkpt lat="46.27545166" lon="7.40119791"><ele></ele><time>2014-6-4T23:36:51Z</time></trkpt>
<trkpt lat="46.27513504" lon="7.40095091"><ele></ele><time>2014-6-4T23:36:54Z</time></trkpt>
<trkpt lat="46.27505112" lon="7.40086079"><ele></ele><time>2014-6-4T23:36:57Z</time></trkpt>
<trkpt lat="46.27471542" lon="7.40044212"><ele></ele><time>2014-6-4T23:37:0Z</time></trkpt>
<trkpt lat="46.27446747" lon="7.40005589"><ele></ele><time>2014-6-4T23:37:3Z</time></trkpt>
<trkpt lat="46.27437592" lon="7.39992666"><ele></ele><time>2014-6-4T23:37:6Z</time></trkpt>
<trkpt lat="46.27398682" lon="7.39944458"><ele></ele><time>2014-6-4T23:37:9Z</time></trkpt>
<trkpt lat="46.27379227" lon="7.39921236"><ele></ele><time>2014-6-4T23:37:12Z</time></trkpt>
<trkpt lat="46.27369308" lon="7.39909601"><ele></ele><time>2014-6-4T23:37:15Z</time></trkpt>
<trkpt lat="46.27333832" lon="7.39857483"><ele></ele><time>2014-6-4T23:37:18Z</time></trkpt>
<trkpt lat="46.27291489" lon="7.39792538"><ele></ele><time>2014-6-4T23:37:21Z</time></trkpt>
<trkpt lat="46.27268982" lon="7.39754295"><ele></ele><time>2014-6-4T23:37:24Z</time></trkpt>
<trkpt lat="46.27228928" lon="7.39667177"><ele></ele><time>2014-6-4T23:37:27Z</time></trkpt>
<trkpt lat="46.27212906" lon="7.39648438"><ele></ele><time>2014-6-4T23:37:30Z</time></trkpt>
<trkpt lat="46.27202988" lon="7.39653635"><ele></ele><time>2014-6-4T23:37:33Z</time></trkpt>
<trkpt lat="46.27194595" lon="7.39678574"><ele></ele><time>2014-6-4T23:37:36Z</time></trkpt>
<trkpt lat="46.27188110" lon="7.39710426"><ele></ele><time>2014-6-4T23:37:39Z</time></trkpt>
<trkpt lat="46.27178955" lon="7.39747000"><ele></ele><time>2014-6-4T23:37:42Z</time></trkpt>
<trkpt lat="46.27187347" lon="7.39774418"><ele></ele><time>2014-6-4T23:37:45Z</time></trkpt>
<trkpt lat="46.27212143" lon="7.39829063"><ele></ele><time>2014-6-4T23:37:48Z</time></trkpt>
<trkpt lat="46.27219009" lon="7.39872074"><ele></ele><time>2014-6-4T23:37:51Z</time></trkpt>
<trkpt lat="46.27228546" lon="7.39913082"><ele></ele><time>2014-6-4T23:37:54Z</time></trkpt>
<trkpt lat="46.27236938" lon="7.39930344"><ele></ele><time>2014-6-4T23:37:57Z</time></trkpt>
<trkpt lat="46.27251053" lon="7.39934254"><ele></ele><time>2014-6-4T23:38:0Z</time></trkpt>
<trkpt lat="46.27266312" lon="7.39934397"><ele></ele><time>2014-6-4T23:38:3Z</time></trkpt>
<trkpt lat="46.27287674" lon="7.39946985"><ele></ele><time>2014-6-4T23:38:6Z</time></trkpt>
<trkpt lat="46.27299500" lon="7.39959145"><ele></ele><time>2014-6-4T23:38:9Z</time></trkpt>
<trkpt lat="46.27312851" lon="7.39977789"><ele></ele><time>2014-6-4T23:38:12Z</time></trkpt>
<trkpt lat="46.27307129" lon="7.39985514"><ele></ele><time>2014-6-4T23:38:15Z</time></trkpt>
<trkpt lat="46.27293777" lon="7.39993429"><ele></ele><time>2014-6-4T23:38:18Z</time></trkpt>
<trkpt lat="46.27286530" lon="7.39998436"><ele></ele><time>2014-6-4T23:38:21Z</time></trkpt>
<trkpt lat="46.27278900" lon="7.40009069"><ele></ele><time>2014-6-4T23:38:24Z</time></trkpt>
<trkpt lat="46.27262878" lon="7.40041447"><ele></ele><time>2014-6-4T23:38:27Z</time></trkpt>
<trkpt lat="46.27257538" lon="7.40046978"><ele></ele><time>2014-6-4T23:38:30Z</time></trkpt>
<trkpt lat="46.27251053" lon="7.40052176"><ele></ele><time>2014-6-4T23:38:33Z</time></trkpt>
<trkpt lat="46.27230453" lon="7.40067863"><ele></ele><time>2014-6-4T23:38:36Z</time></trkpt>
<trkpt lat="46.27225113" lon="7.40071440"><ele></ele><time>2014-6-4T23:38:39Z</time></trkpt>
<trkpt lat="46.27217484" lon="7.40094709"><ele></ele><time>2014-6-4T23:38:42Z</time></trkpt>
<trkpt lat="46.27216339" lon="7.40108871"><ele></ele><time>2014-6-4T23:38:45Z</time></trkpt>
<trkpt lat="46.27205658" lon="7.40119505"><ele></ele><time>2014-6-4T23:38:48Z</time></trkpt>
<trkpt lat="46.27198029" lon="7.40122366"><ele></ele><time>2014-6-4T23:38:51Z</time></trkpt>
<trkpt lat="46.27183533" lon="7.40126514"><ele></ele><time>2014-6-4T23:38:54Z</time></trkpt>
<trkpt lat="46.27164078" lon="7.40138340"><ele></ele><time>2014-6-4T23:38:57Z</time></trkpt>
<trkpt lat="46.27157593" lon="7.40142870"><ele></ele><time>2014-6-4T23:39:0Z</time></trkpt>
<trkpt lat="46.27131271" lon="7.40155315"><ele></ele><time>2014-6-4T23:39:3Z</time></trkpt>
<trkpt lat="46.27118683" lon="7.40162992"><ele></ele><time>2014-6-4T23:39:6Z</time></trkpt>
<trkpt lat="46.27114105" lon="7.40167189"><ele></ele><time>2014-6-4T23:39:9Z</time></trkpt>
<trkpt lat="46.27106476" lon="7.40173864"><ele></ele><time>2014-6-4T23:39:12Z</time></trkpt>
<trkpt lat="46.27101898" lon="7.40168190"><ele></ele><time>2014-6-4T23:39:15Z</time></trkpt>
<trkpt lat="46.27095032" lon="7.40160561"><ele></ele><time>2014-6-4T23:39:18Z</time></trkpt>
<trkpt lat="46.27093887" lon="7.40162325"><ele></ele><time>2014-6-4T23:39:21Z</time></trkpt>
<trkpt lat="46.27083206" lon="7.40171146"><ele></ele><time>2014-6-4T23:39:24Z</time></trkpt>
<trkpt lat="46.27071381" lon="7.40182638"><ele></ele><time>2014-6-4T23:39:27Z</time></trkpt>
<trkpt lat="46.27067947" lon="7.40191221"><ele></ele><time>2014-6-4T23:39:30Z</time></trkpt>
<trkpt lat="46.27067947" lon="7.40193319"><ele></ele><time>2014-6-4T23:39:33Z</time></trkpt>
<trkpt lat="46.27061462" lon="7.40204191"><ele></ele><time>2014-6-4T23:39:36Z</time></trkpt>
<trkpt lat="46.27054596" lon="7.40206671"><ele></ele><time>2014-6-4T23:39:39Z</time></trkpt>
<trkpt lat="46.27042007" lon="7.40208626"><ele></ele><time>2014-6-4T23:39:42Z</time></trkpt>
<trkpt lat="46.27033615" lon="7.40208673"><ele></ele><time>2014-6-4T23:39:45Z</time></trkpt>
<trkpt lat="46.27014923" lon="7.40213251"><ele></ele><time>2014-6-4T23:39:48Z</time></trkpt>
<trkpt lat="46.26987839" lon="7.40230179"><ele></ele><time>2014-6-4T23:39:51Z</time></trkpt>
<trkpt lat="46.26953125" lon="7.40256500"><ele></ele><time>2014-6-4T23:39:54Z</time></trkpt>
<trkpt lat="46.26942444" lon="7.40264654"><ele></ele><time>2014-6-4T23:39:57Z</time></trkpt>
<trkpt lat="46.26939011" lon="7.40267181"><ele></ele><time>2014-6-4T23:40:0Z</time></trkpt>
<trkpt lat="46.26935959" lon="7.40284729"><ele></ele><time>2014-6-4T23:40:3Z</time></trkpt>
<trkpt lat="46.26939011" lon="7.40290070"><ele></ele><time>2014-6-4T23:40:6Z</time></trkpt>
<trkpt lat="46.26963806" lon="7.40331030"><ele></ele><time>2014-6-4T23:40:9Z</time></trkpt>
<trkpt lat="46.26977158" lon="7.40343475"><ele></ele><time>2014-6-4T23:40:12Z</time></trkpt>
<trkpt lat="46.27005386" lon="7.40351152"><ele></ele><time>2014-6-4T23:40:15Z</time></trkpt>
<trkpt lat="46.27027512" lon="7.40355301"><ele></ele><time>2014-6-4T23:40:18Z</time></trkpt>
<trkpt lat="46.27049255" lon="7.40351820"><ele></ele><time>2014-6-4T23:40:21Z</time></trkpt>
<trkpt lat="46.27064896" lon="7.40342093"><ele></ele><time>2014-6-4T23:40:24Z</time></trkpt>
<trkpt lat="46.27088547" lon="7.40328407"><ele></ele><time>2014-6-4T23:40:27Z</time></trkpt>
<trkpt lat="46.27117157" lon="7.40326262"><ele></ele><time>2014-6-4T23:40:30Z</time></trkpt>
<trkpt lat="46.27132034" lon="7.40332603"><ele></ele><time>2014-6-4T23:40:33Z</time></trkpt>
<trkpt lat="46.27167892" lon="7.40351486"><ele></ele><time>2014-6-4T23:40:36Z</time></trkpt>
<trkpt lat="46.27198029" lon="7.40374136"><ele></ele><time>2014-6-4T23:40:39Z</time></trkpt>
<trkpt lat="46.27215195" lon="7.40386581"><ele></ele><time>2014-6-4T23:40:42Z</time></trkpt>
<trkpt lat="46.27259827" lon="7.40420103"><ele></ele><time>2014-6-4T23:40:45Z</time></trkpt>
<trkpt lat="46.27267456" lon="7.40425301"><ele></ele><time>2014-6-4T23:40:48Z</time></trkpt>
<trkpt lat="46.27277374" lon="7.40449619"><ele></ele><time>2014-6-4T23:40:51Z</time></trkpt>
<trkpt lat="46.27270889" lon="7.40469503"><ele></ele><time>2014-6-4T23:40:54Z</time></trkpt>
<trkpt lat="46.27256012" lon="7.40512562"><ele></ele><time>2014-6-4T23:40:57Z</time></trkpt>
<trkpt lat="46.27242279" lon="7.40523577"><ele></ele><time>2014-6-4T23:41:0Z</time></trkpt>
<trkpt lat="46.27224731" lon="7.40539885"><ele></ele><time>2014-6-4T23:41:3Z</time></trkpt>
<trkpt lat="46.27220535" lon="7.40545177"><ele></ele><time>2014-6-4T23:41:6Z</time></trkpt>
<trkpt lat="46.27214813" lon="7.40554619"><ele></ele><time>2014-6-4T23:41:9Z</time></trkpt>
<trkpt lat="46.27201843" lon="7.40559673"><ele></ele><time>2014-6-4T23:41:12Z</time></trkpt>
<trkpt lat="46.27201080" lon="7.40538502"><ele></ele><time>2014-6-4T23:41:15Z</time></trkpt>
<trkpt lat="46.27202225" lon="7.40529490"><ele></ele><time>2014-6-4T23:41:18Z</time></trkpt>
<trkpt lat="46.27204514" lon="7.40514088"><ele></ele><time>2014-6-4T23:41:21Z</time></trkpt>
<trkpt lat="46.27205658" lon="7.40502739"><ele></ele><time>2014-6-4T23:41:24Z</time></trkpt>
<trkpt lat="46.27193832" lon="7.40493536"><ele></ele><time>2014-6-4T23:41:27Z</time></trkpt>
<trkpt lat="46.27182770" lon="7.40497065"><ele></ele><time>2014-6-4T23:41:30Z</time></trkpt>
<trkpt lat="46.27178574" lon="7.40498018"><ele></ele><time>2014-6-4T23:41:33Z</time></trkpt>
<trkpt lat="46.27169037" lon="7.40504313"><ele></ele><time>2014-6-4T23:41:36Z</time></trkpt>
<trkpt lat="46.27165985" lon="7.40507221"><ele></ele><time>2014-6-4T23:41:39Z</time></trkpt>
<trkpt lat="46.27157211" lon="7.40515375"><ele></ele><time>2014-6-4T23:41:42Z</time></trkpt>
<trkpt lat="46.27154541" lon="7.40517950"><ele></ele><time>2014-6-4T23:41:45Z</time></trkpt>
<trkpt lat="46.27146149" lon="7.40524292"><ele></ele><time>2014-6-4T23:41:48Z</time></trkpt>
<trkpt lat="46.27140045" lon="7.40530539"><ele></ele><time>2014-6-4T23:41:51Z</time></trkpt>
<trkpt lat="46.27120590" lon="7.40541553"><ele></ele><time>2014-6-4T23:41:54Z</time></trkpt>
<trkpt lat="46.27111053" lon="7.40545988"><ele></ele><time>2014-6-4T23:41:57Z</time></trkpt>
<trkpt lat="46.27098083" lon="7.40554714"><ele></ele><time>2014-6-4T23:42:0Z</time></trkpt>
<trkpt lat="46.27089310" lon="7.40566301"><ele></ele><time>2014-6-4T23:42:3Z</time></trkpt>
<trkpt lat="46.27081680" lon="7.40581274"><ele></ele><time>2014-6-4T23:42:6Z</time></trkpt>
<trkpt lat="46.27075195" lon="7.40594435"><ele></ele><time>2014-6-4T23:42:9Z</time></trkpt>
<trkpt lat="46.27063370" lon="7.40598726"><ele></ele><time>2014-6-4T23:42:12Z</time></trkpt>
<trkpt lat="46.27060699" lon="7.40594721"><ele></ele><time>2014-6-4T23:42:15Z</time></trkpt>
<trkpt lat="46.27042389" lon="7.40584040"><ele></ele><time>2014-6-4T23:42:18Z</time></trkpt>
<trkpt lat="46.27039719" lon="7.40592241"><ele></ele><time>2014-6-4T23:42:21Z</time></trkpt>
<trkpt lat="46.27037430" lon="7.40603304"><ele></ele><time>2014-6-4T23:42:24Z</time></trkpt>
<trkpt lat="46.27026367" lon="7.40616989"><ele></ele><time>2014-6-4T23:42:27Z</time></trkpt>
<trkpt lat="46.27012634" lon="7.40621042"><ele></ele><time>2014-6-4T23:42:30Z</time></trkpt>
<trkpt lat="46.26992798" lon="7.40625763"><ele></ele><time>2014-6-4T23:42:33Z</time></trkpt>
<trkpt lat="46.26968002" lon="7.40643883"><ele></ele><time>2014-6-4T23:42:36Z</time></trkpt>
<trkpt lat="46.26944733" lon="7.40664387"><ele></ele><time>2014-6-4T23:42:39Z</time></trkpt>
<trkpt lat="46.26924896" lon="7.40676641"><ele></ele><time>2014-6-4T23:42:42Z</time></trkpt>
<trkpt lat="46.26914978" lon="7.40681696"><ele></ele><time>2014-6-4T23:42:45Z</time></trkpt>
<trkpt lat="46.26911163" lon="7.40683413"><ele></ele><time>2014-6-4T23:42:48Z</time></trkpt>
<trkpt lat="46.26902008" lon="7.40699959"><ele></ele><time>2014-6-4T23:42:51Z</time></trkpt>
<trkpt lat="46.26895905" lon="7.40714741"><ele></ele><time>2014-6-4T23:42:54Z</time></trkpt>
<trkpt lat="46.26889038" lon="7.40727234"><ele></ele><time>2014-6-4T23:42:57Z</time></trkpt>
<trkpt lat="46.26875687" lon="7.40742254"><ele></ele><time>2014-6-4T23:43:0Z</time></trkpt>
<trkpt lat="46.26860809" lon="7.40756226"><ele></ele><time>2014-6-4T23:43:3Z</time></trkpt>
<trkpt lat="46.26849365" lon="7.40765953"><ele></ele><time>2014-6-4T23:43:6Z</time></trkpt>
<trkpt lat="46.26844406" lon="7.40769768"><ele></ele><time>2014-6-4T23:43:9Z</time></trkpt>
<trkpt lat="46.26840591" lon="7.40772057"><ele></ele><time>2014-6-4T23:43:12Z</time></trkpt>
<trkpt lat="46.26828766" lon="7.40786171"><ele></ele><time>2014-6-4T23:43:15Z</time></trkpt>
<trkpt lat="46.26820374" lon="7.40798759"><ele></ele><time>2014-6-4T23:43:18Z</time></trkpt>
<trkpt lat="46.26810074" lon="7.40810823"><ele></ele><time>2014-6-4T23:43:21Z</time></trkpt>
<trkpt lat="46.26803207" lon="7.40816021"><ele></ele><time>2014-6-4T23:43:24Z</time></trkpt>
<trkpt lat="46.26792526" lon="7.40824080"><ele></ele><time>2014-6-4T23:43:27Z</time></trkpt>
<trkpt lat="46.26779175" lon="7.40832186"><ele></ele><time>2014-6-4T23:43:30Z</time></trkpt>
<trkpt lat="46.26746368" lon="7.40853596"><ele></ele><time>2014-6-4T23:43:33Z</time></trkpt>
<trkpt lat="46.26736832" lon="7.40859461"><ele></ele><time>2014-6-4T23:43:36Z</time></trkpt>
<trkpt lat="46.26731873" lon="7.40883446"><ele></ele><time>2014-6-4T23:43:39Z</time></trkpt>
<trkpt lat="46.26734161" lon="7.40890789"><ele></ele><time>2014-6-4T23:43:42Z</time></trkpt>
<trkpt lat="46.26738358" lon="7.40901899"><ele></ele><time>2014-6-4T23:43:45Z</time></trkpt>
<trkpt lat="46.26739883" lon="7.40916348"><ele></ele><time>2014-6-4T23:43:48Z</time></trkpt>
<trkpt lat="46.26739120" lon="7.40947485"><ele></ele><time>2014-6-4T23:43:51Z</time></trkpt>
<trkpt lat="46.26745605" lon="7.40976143"><ele></ele><time>2014-6-4T23:43:54Z</time></trkpt>
<trkpt lat="46.26747513" lon="7.40979862"><ele></ele><time>2014-6-4T23:43:57Z</time></trkpt>
<trkpt lat="46.26739502" lon="7.40993690"><ele></ele><time>2014-6-4T23:44:0Z</time></trkpt>
<trkpt lat="46.26720810" lon="7.40988827"><ele></ele><time>2014-6-4T23:44:3Z</time></trkpt>
<trkpt lat="46.26714706" lon="7.40982056"><ele></ele><time>2014-6-4T23:44:6Z</time></trkpt>
<trkpt lat="46.26703644" lon="7.40966749"><ele></ele><time>2014-6-4T23:44:9Z</time></trkpt>
<trkpt lat="46.26689529" lon="7.40932131"><ele></ele><time>2014-6-4T23:44:12Z</time></trkpt>
<trkpt lat="46.26689529" lon="7.40898752"><ele></ele><time>2014-6-4T23:44:15Z</time></trkpt>
<trkpt lat="46.26688766" lon="7.40886879"><ele></ele><time>2014-6-4T23:44:18Z</time></trkpt>
<trkpt lat="46.26683044" lon="7.40794516"><ele></ele><time>2014-6-4T23:44:21Z</time></trkpt>
<trkpt lat="46.26681137" lon="7.40739393"><ele></ele><time>2014-6-4T23:44:24Z</time></trkpt>
<trkpt lat="46.26667023" lon="7.40705919"><ele></ele><time>2014-6-4T23:44:27Z</time></trkpt>
<trkpt lat="46.26648331" lon="7.40696526"><ele></ele><time>2014-6-4T23:44:30Z</time></trkpt>
<trkpt lat="46.26607513" lon="7.40689182"><ele></ele><time>2014-6-4T23:44:33Z</time></trkpt>
<trkpt lat="46.26568604" lon="7.40670156"><ele></ele><time>2014-6-4T23:44:36Z</time></trkpt>
<trkpt lat="46.26539230" lon="7.40645599"><ele></ele><time>2014-6-4T23:44:39Z</time></trkpt>
<trkpt lat="46.26496887" lon="7.40609312"><ele></ele><time>2014-6-4T23:44:42Z</time></trkpt>
<trkpt lat="46.26472092" lon="7.40596485"><ele></ele><time>2014-6-4T23:44:45Z</time></trkpt>
<trkpt lat="46.26446915" lon="7.40593529"><ele></ele><time>2014-6-4T23:44:48Z</time></trkpt>
<trkpt lat="46.26409149" lon="7.40576506"><ele></ele><time>2014-6-4T23:44:51Z</time></trkpt>
<trkpt lat="46.26401901" lon="7.40565681"><ele></ele><time>2014-6-4T23:44:54Z</time></trkpt>
<trkpt lat="46.26386642" lon="7.40542412"><ele></ele><time>2014-6-4T23:44:57Z</time></trkpt>
<trkpt lat="46.26368332" lon="7.40525770"><ele></ele><time>2014-6-4T23:45:0Z</time></trkpt>
<trkpt lat="46.26350021" lon="7.40517569"><ele></ele><time>2014-6-4T23:45:3Z</time></trkpt>
<trkpt lat="46.26333237" lon="7.40518475"><ele></ele><time>2014-6-4T23:45:6Z</time></trkpt>
<trkpt lat="46.26335526" lon="7.40531397"><ele></ele><time>2014-6-4T23:45:9Z</time></trkpt>
<trkpt lat="46.26340485" lon="7.40534258"><ele></ele><time>2014-6-4T23:45:12Z</time></trkpt>
<trkpt lat="46.26352310" lon="7.40536690"><ele></ele><time>2014-6-4T23:45:15Z</time></trkpt>
<trkpt lat="46.26373672" lon="7.40554619"><ele></ele><time>2014-6-4T23:45:18Z</time></trkpt>
<trkpt lat="46.26384354" lon="7.40582514"><ele></ele><time>2014-6-4T23:45:21Z</time></trkpt>
<trkpt lat="46.26383591" lon="7.40619850"><ele></ele><time>2014-6-4T23:45:24Z</time></trkpt>
<trkpt lat="46.26380157" lon="7.40632153"><ele></ele><time>2014-6-4T23:45:27Z</time></trkpt>
<trkpt lat="46.26365662" lon="7.40668917"><ele></ele><time>2014-6-4T23:45:30Z</time></trkpt>
<trkpt lat="46.26360703" lon="7.40680456"><ele></ele><time>2014-6-4T23:45:33Z</time></trkpt>
<trkpt lat="46.26358032" lon="7.40711880"><ele></ele><time>2014-6-4T23:45:36Z</time></trkpt>
<trkpt lat="46.26369476" lon="7.40726900"><ele></ele><time>2014-6-4T23:45:39Z</time></trkpt>
<trkpt lat="46.26386261" lon="7.40726471"><ele></ele><time>2014-6-4T23:45:42Z</time></trkpt>
<trkpt lat="46.26395035" lon="7.40723133"><ele></ele><time>2014-6-4T23:45:45Z</time></trkpt>
<trkpt lat="46.26452255" lon="7.40699816"><ele></ele><time>2014-6-4T23:45:48Z</time></trkpt>
<trkpt lat="46.26484680" lon="7.40707159"><ele></ele><time>2014-6-4T23:45:51Z</time></trkpt>
<trkpt lat="46.26494217" lon="7.40716505"><ele></ele><time>2014-6-4T23:45:54Z</time></trkpt>
<trkpt lat="46.26532364" lon="7.40761423"><ele></ele><time>2014-6-4T23:45:57Z</time></trkpt>
<trkpt lat="46.26552200" lon="7.40808105"><ele></ele><time>2014-6-4T23:46:0Z</time></trkpt>
<trkpt lat="46.26556778" lon="7.40824175"><ele></ele><time>2014-6-4T23:46:3Z</time></trkpt>
<trkpt lat="46.26561737" lon="7.40853834"><ele></ele><time>2014-6-4T23:46:6Z</time></trkpt>
<trkpt lat="46.26553726" lon="7.40880108"><ele></ele><time>2014-6-4T23:46:9Z</time></trkpt>
<trkpt lat="46.26536179" lon="7.40894699"><ele></ele><time>2014-6-4T23:46:12Z</time></trkpt>
<trkpt lat="46.26512527" lon="7.40918922"><ele></ele><time>2014-6-4T23:46:15Z</time></trkpt>
<trkpt lat="46.26502991" lon="7.40944481"><ele></ele><time>2014-6-4T23:46:18Z</time></trkpt>
<trkpt lat="46.26496887" lon="7.40955830"><ele></ele><time>2014-6-4T23:46:21Z</time></trkpt>
<trkpt lat="46.26459885" lon="7.41005564"><ele></ele><time>2014-6-4T23:46:24Z</time></trkpt>
<trkpt lat="46.26446915" lon="7.41028690"><ele></ele><time>2014-6-4T23:46:27Z</time></trkpt>
<trkpt lat="46.26432800" lon="7.41066551"><ele></ele><time>2014-6-4T23:46:30Z</time></trkpt>
<trkpt lat="46.26431656" lon="7.41105223"><ele></ele><time>2014-6-4T23:46:33Z</time></trkpt>
<trkpt lat="46.26435852" lon="7.41118193"><ele></ele><time>2014-6-4T23:46:36Z</time></trkpt>
<trkpt lat="46.26439667" lon="7.41160774"><ele></ele><time>2014-6-4T23:46:39Z</time></trkpt>
<trkpt lat="46.26429367" lon="7.41186523"><ele></ele><time>2014-6-4T23:46:42Z</time></trkpt>
<trkpt lat="46.26407242" lon="7.41215706"><ele></ele><time>2014-6-4T23:46:45Z</time></trkpt>
<trkpt lat="46.26401901" lon="7.41227341"><ele></ele><time>2014-6-4T23:46:48Z</time></trkpt>
<trkpt lat="46.26397324" lon="7.41255283"><ele></ele><time>2014-6-4T23:46:51Z</time></trkpt>
<trkpt lat="46.26395035" lon="7.41299963"><ele></ele><time>2014-6-4T23:46:54Z</time></trkpt>
<trkpt lat="46.26396942" lon="7.41325378"><ele></ele><time>2014-6-4T23:46:57Z</time></trkpt>
<trkpt lat="46.26391983" lon="7.41345406"><ele></ele><time>2014-6-4T23:47:0Z</time></trkpt>
<trkpt lat="46.26385880" lon="7.41337824"><ele></ele><time>2014-6-4T23:47:3Z</time></trkpt>
<trkpt lat="46.26385498" lon="7.41330481"><ele></ele><time>2014-6-4T23:47:6Z</time></trkpt>
<trkpt lat="46.26385880" lon="7.41313887"><ele></ele><time>2014-6-4T23:47:9Z</time></trkpt>
<trkpt lat="46.26385880" lon="7.41304684"><ele></ele><time>2014-6-4T23:47:12Z</time></trkpt>
<trkpt lat="46.26374817" lon="7.41250610"><ele></ele><time>2014-6-4T23:47:15Z</time></trkpt>
<trkpt lat="46.26374054" lon="7.41212797"><ele></ele><time>2014-6-4T23:47:18Z</time></trkpt>
<trkpt lat="46.26385498" lon="7.41156149"><ele></ele><time>2014-6-4T23:47:21Z</time></trkpt>
<trkpt lat="46.26384735" lon="7.41109180"><ele></ele><time>2014-6-4T23:47:24Z</time></trkpt>
<trkpt lat="46.26391602" lon="7.41078281"><ele></ele><time>2014-6-4T23:47:27Z</time></trkpt>
<trkpt lat="46.26394272" lon="7.41019726"><ele></ele><time>2014-6-4T23:47:30Z</time></trkpt>
<trkpt lat="46.26387024" lon="7.41007185"><ele></ele><time>2014-6-4T23:47:33Z</time></trkpt>
<trkpt lat="46.26377869" lon="7.40996599"><ele></ele><time>2014-6-4T23:47:36Z</time></trkpt>
<trkpt lat="46.26336288" lon="7.40956831"><ele></ele><time>2014-6-4T23:47:39Z</time></trkpt>
<trkpt lat="46.26325226" lon="7.40946960"><ele></ele><time>2014-6-4T23:47:42Z</time></trkpt>
<trkpt lat="46.26301575" lon="7.40934038"><ele></ele><time>2014-6-4T23:47:45Z</time></trkpt>
<trkpt lat="46.26274872" lon="7.40932560"><ele></ele><time>2014-6-4T23:47:48Z</time></trkpt>
<trkpt lat="46.26234436" lon="7.40940952"><ele></ele><time>2014-6-4T23:47:51Z</time></trkpt>
<trkpt lat="46.26211166" lon="7.40955591"><ele></ele><time>2014-6-4T23:47:54Z</time></trkpt>
<trkpt lat="46.26191330" lon="7.40964937"><ele></ele><time>2014-6-4T23:47:57Z</time></trkpt>
<trkpt lat="46.26174927" lon="7.40960646"><ele></ele><time>2014-6-4T23:48:0Z</time></trkpt>
<trkpt lat="46.26163864" lon="7.40960503"><ele></ele><time>2014-6-4T23:48:3Z</time></trkpt>
<trkpt lat="46.26161957" lon="7.40966415"><ele></ele><time>2014-6-4T23:48:6Z</time></trkpt>
<trkpt lat="46.26168060" lon="7.40976620"><ele></ele><time>2014-6-4T23:48:9Z</time></trkpt>
<trkpt lat="46.26187134" lon="7.40977526"><ele></ele><time>2014-6-4T23:48:12Z</time></trkpt>
<trkpt lat="46.26211929" lon="7.40979862"><ele></ele><time>2014-6-4T23:48:15Z</time></trkpt>
<trkpt lat="46.26229477" lon="7.40989065"><ele></ele><time>2014-6-4T23:48:18Z</time></trkpt>
<trkpt lat="46.26250076" lon="7.41020584"><ele></ele><time>2014-6-4T23:48:21Z</time></trkpt>
<trkpt lat="46.26255035" lon="7.41062880"><ele></ele><time>2014-6-4T23:48:24Z</time></trkpt>
<trkpt lat="46.26248932" lon="7.41091537"><ele></ele><time>2014-6-4T23:48:27Z</time></trkpt>
<trkpt lat="46.26239395" lon="7.41119480"><ele></ele><time>2014-6-4T23:48:30Z</time></trkpt>
<trkpt lat="46.26228714" lon="7.41147470"><ele></ele><time>2014-6-4T23:48:33Z</time></trkpt>
<trkpt lat="46.26213837" lon="7.41185522"><ele></ele><time>2014-6-4T23:48:36Z</time></trkpt>
<trkpt lat="46.26193619" lon="7.41208458"><ele></ele><time>2014-6-4T23:48:39Z</time></trkpt>
<trkpt lat="46.26174545" lon="7.41207838"><ele></ele><time>2014-6-4T23:48:42Z</time></trkpt>
<trkpt lat="46.26155853" lon="7.41194534"><ele></ele><time>2014-6-4T23:48:45Z</time></trkpt>
<trkpt lat="46.26136780" lon="7.41176128"><ele></ele><time>2014-6-4T23:48:48Z</time></trkpt>
<trkpt lat="46.26108932" lon="7.41140413"><ele></ele><time>2014-6-4T23:48:51Z</time></trkpt>
<trkpt lat="46.26076889" lon="7.41114235"><ele></ele><time>2014-6-4T23:48:54Z</time></trkpt>
<trkpt lat="46.26051712" lon="7.41112709"><ele></ele><time>2014-6-4T23:48:57Z</time></trkpt>
<trkpt lat="46.26028824" lon="7.41125011"><ele></ele><time>2014-6-4T23:49:0Z</time></trkpt>
<trkpt lat="46.26018906" lon="7.41134501"><ele></ele><time>2014-6-4T23:49:3Z</time></trkpt>
<trkpt lat="46.25978088" lon="7.41164494"><ele></ele><time>2014-6-4T23:49:6Z</time></trkpt>
<trkpt lat="46.25966644" lon="7.41164160"><ele></ele><time>2014-6-4T23:49:9Z</time></trkpt>
<trkpt lat="46.25932693" lon="7.41161251"><ele></ele><time>2014-6-4T23:49:12Z</time></trkpt>
<trkpt lat="46.25913239" lon="7.41170263"><ele></ele><time>2014-6-4T23:49:15Z</time></trkpt>
<trkpt lat="46.25872421" lon="7.41197538"><ele></ele><time>2014-6-4T23:49:18Z</time></trkpt>
<trkpt lat="46.25830460" lon="7.41222477"><ele></ele><time>2014-6-4T23:49:21Z</time></trkpt>
<trkpt lat="46.25800705" lon="7.41246223"><ele></ele><time>2014-6-4T23:49:24Z</time></trkpt>
<trkpt lat="46.25794220" lon="7.41250610"><ele></ele><time>2014-6-4T23:49:27Z</time></trkpt>
<trkpt lat="46.25773239" lon="7.41264296"><ele></ele><time>2014-6-4T23:49:30Z</time></trkpt>
<trkpt lat="46.25745010" lon="7.41287422"><ele></ele><time>2014-6-4T23:49:33Z</time></trkpt>
<trkpt lat="46.25724030" lon="7.41300583"><ele></ele><time>2014-6-4T23:49:36Z</time></trkpt>
<trkpt lat="46.25681686" lon="7.41311073"><ele></ele><time>2014-6-4T23:49:39Z</time></trkpt>
<trkpt lat="46.25656128" lon="7.41326284"><ele></ele><time>2014-6-4T23:49:42Z</time></trkpt>
<trkpt lat="46.25650787" lon="7.41332674"><ele></ele><time>2014-6-4T23:49:45Z</time></trkpt>
<trkpt lat="46.25612640" lon="7.41379309"><ele></ele><time>2014-6-4T23:49:48Z</time></trkpt>
<trkpt lat="46.25590897" lon="7.41406631"><ele></ele><time>2014-6-4T23:49:51Z</time></trkpt>
<trkpt lat="46.25562668" lon="7.41442156"><ele></ele><time>2014-6-4T23:49:54Z</time></trkpt>
<trkpt lat="46.25546265" lon="7.41462898"><ele></ele><time>2014-6-4T23:49:57Z</time></trkpt>
<trkpt lat="46.25529861" lon="7.41485643"><ele></ele><time>2014-6-4T23:50:0Z</time></trkpt>
<trkpt lat="46.25512695" lon="7.41536283"><ele></ele><time>2014-6-4T23:50:3Z</time></trkpt>
<trkpt lat="46.25510406" lon="7.41559601"><ele></ele><time>2014-6-4T23:50:6Z</time></trkpt>
<trkpt lat="46.25510025" lon="7.41595030"><ele></ele><time>2014-6-4T23:50:9Z</time></trkpt>
<trkpt lat="46.25495911" lon="7.41634274"><ele></ele><time>2014-6-4T23:50:12Z</time></trkpt>
<trkpt lat="46.25462723" lon="7.41681767"><ele></ele><time>2014-6-4T23:50:15Z</time></trkpt>
<trkpt lat="46.25435257" lon="7.41718102"><ele></ele><time>2014-6-4T23:50:18Z</time></trkpt>
<trkpt lat="46.25425339" lon="7.41731834"><ele></ele><time>2014-6-4T23:50:21Z</time></trkpt>
<trkpt lat="46.25425339" lon="7.41721058"><ele></ele><time>2014-6-4T23:50:24Z</time></trkpt>
<trkpt lat="46.25416946" lon="7.41722965"><ele></ele><time>2014-6-4T23:50:27Z</time></trkpt>
<trkpt lat="46.25402832" lon="7.41705608"><ele></ele><time>2014-6-4T23:50:30Z</time></trkpt>
<trkpt lat="46.25394821" lon="7.41682434"><ele></ele><time>2014-6-4T23:50:33Z</time></trkpt>
<trkpt lat="46.25384903" lon="7.41657877"><ele></ele><time>2014-6-4T23:50:36Z</time></trkpt>
<trkpt lat="46.25374222" lon="7.41624594"><ele></ele><time>2014-6-4T23:50:39Z</time></trkpt>
<trkpt lat="46.25360870" lon="7.41580105"><ele></ele><time>2014-6-4T23:50:42Z</time></trkpt>
<trkpt lat="46.25351334" lon="7.41552019"><ele></ele><time>2014-6-4T23:50:45Z</time></trkpt>
<trkpt lat="46.25338364" lon="7.41535807"><ele></ele><time>2014-6-4T23:50:48Z</time></trkpt>
<trkpt lat="46.25324631" lon="7.41540098"><ele></ele><time>2014-6-4T23:50:51Z</time></trkpt>
<trkpt lat="46.25309753" lon="7.41546583"><ele></ele><time>2014-6-4T23:50:54Z</time></trkpt>
<trkpt lat="46.25279617" lon="7.41561317"><ele></ele><time>2014-6-4T23:50:57Z</time></trkpt>
<trkpt lat="46.25216293" lon="7.41587067"><ele></ele><time>2014-6-4T23:51:0Z</time></trkpt>
<trkpt lat="46.25136566" lon="7.41620922"><ele></ele><time>2014-6-4T23:51:3Z</time></trkpt>
<trkpt lat="46.25075150" lon="7.41646481"><ele></ele><time>2014-6-4T23:51:6Z</time></trkpt>
<trkpt lat="46.25050735" lon="7.41656637"><ele></ele><time>2014-6-4T23:51:9Z</time></trkpt>
<trkpt lat="46.25037003" lon="7.41675282"><ele></ele><time>2014-6-4T23:51:12Z</time></trkpt>
<trkpt lat="46.25038528" lon="7.41706371"><ele></ele><time>2014-6-4T23:51:15Z</time></trkpt>
<trkpt lat="46.25055313" lon="7.41768885"><ele></ele><time>2014-6-4T23:51:18Z</time></trkpt>
<trkpt lat="46.25054550" lon="7.41798782"><ele></ele><time>2014-6-4T23:51:21Z</time></trkpt>
<trkpt lat="46.25041580" lon="7.41808653"><ele></ele><time>2014-6-4T23:51:24Z</time></trkpt>
<trkpt lat="46.25004196" lon="7.41828537"><ele></ele><time>2014-6-4T23:51:27Z</time></trkpt>
<trkpt lat="46.24963379" lon="7.41850042"><ele></ele><time>2014-6-4T23:51:30Z</time></trkpt>
<trkpt lat="46.24928665" lon="7.41868782"><ele></ele><time>2014-6-4T23:51:33Z</time></trkpt>
<trkpt lat="46.24878311" lon="7.41895866"><ele></ele><time>2014-6-4T23:51:36Z</time></trkpt>
<trkpt lat="46.24796295" lon="7.41938353"><ele></ele><time>2014-6-4T23:51:39Z</time></trkpt>
<trkpt lat="46.24717331" lon="7.41977358"><ele></ele><time>2014-6-4T23:51:42Z</time></trkpt>
<trkpt lat="46.24629593" lon="7.42020702"><ele></ele><time>2014-6-4T23:51:45Z</time></trkpt>
<trkpt lat="46.24558258" lon="7.42056799"><ele></ele><time>2014-6-4T23:51:48Z</time></trkpt>
<trkpt lat="46.24498367" lon="7.42083216"><ele></ele><time>2014-6-4T23:51:51Z</time></trkpt>
<trkpt lat="46.24411774" lon="7.42124748"><ele></ele><time>2014-6-4T23:51:54Z</time></trkpt>
<trkpt lat="46.24344635" lon="7.42159700"><ele></ele><time>2014-6-4T23:51:57Z</time></trkpt>
<trkpt lat="46.24294662" lon="7.42197037"><ele></ele><time>2014-6-4T23:52:0Z</time></trkpt>
<trkpt lat="46.24266815" lon="7.42214060"><ele></ele><time>2014-6-4T23:52:3Z</time></trkpt>
<trkpt lat="46.24261475" lon="7.42215776"><ele></ele><time>2014-6-4T23:52:6Z</time></trkpt>
<trkpt lat="46.24232483" lon="7.42212200"><ele></ele><time>2014-6-4T23:52:9Z</time></trkpt>
<trkpt lat="46.24220657" lon="7.42204332"><ele></ele><time>2014-6-4T23:52:12Z</time></trkpt>
<trkpt lat="46.24203491" lon="7.42181730"><ele></ele><time>2014-6-4T23:52:15Z</time></trkpt>
<trkpt lat="46.24200439" lon="7.42174673"><ele></ele><time>2014-6-4T23:52:18Z</time></trkpt>
<trkpt lat="46.24185944" lon="7.42131567"><ele></ele><time>2014-6-4T23:52:21Z</time></trkpt>
<trkpt lat="46.24168777" lon="7.42116785"><ele></ele><time>2014-6-4T23:52:24Z</time></trkpt>
<trkpt lat="46.24155426" lon="7.42123365"><ele></ele><time>2014-6-4T23:52:27Z</time></trkpt>
<trkpt lat="46.24121094" lon="7.42164660"><ele></ele><time>2014-6-4T23:52:30Z</time></trkpt>
<trkpt lat="46.24095917" lon="7.42194414"><ele></ele><time>2014-6-4T23:52:33Z</time></trkpt>
<trkpt lat="46.24085999" lon="7.42204952"><ele></ele><time>2014-6-4T23:52:36Z</time></trkpt>
<trkpt lat="46.24074936" lon="7.42199945"><ele></ele><time>2014-6-4T23:52:39Z</time></trkpt>
<trkpt lat="46.24072266" lon="7.42185259"><ele></ele><time>2014-6-4T23:52:42Z</time></trkpt>
<trkpt lat="46.24063110" lon="7.42143774"><ele></ele><time>2014-6-4T23:52:45Z</time></trkpt>
<trkpt lat="46.24034119" lon="7.42085314"><ele></ele><time>2014-6-4T23:52:48Z</time></trkpt>
<trkpt lat="46.24009323" lon="7.42018557"><ele></ele><time>2014-6-4T23:52:51Z</time></trkpt>
<trkpt lat="46.23990250" lon="7.41947556"><ele></ele><time>2014-6-4T23:52:54Z</time></trkpt>
<trkpt lat="46.23976517" lon="7.41881990"><ele></ele><time>2014-6-4T23:52:57Z</time></trkpt>
<trkpt lat="46.23961639" lon="7.41782570"><ele></ele><time>2014-6-4T23:53:0Z</time></trkpt>
<trkpt lat="46.23952103" lon="7.41694927"><ele></ele><time>2014-6-4T23:53:3Z</time></trkpt>
<trkpt lat="46.23951721" lon="7.41639423"><ele></ele><time>2014-6-4T23:53:6Z</time></trkpt>
<trkpt lat="46.23952866" lon="7.41617060"><ele></ele><time>2014-6-4T23:53:9Z</time></trkpt>
<trkpt lat="46.23955917" lon="7.41562080"><ele></ele><time>2014-6-4T23:53:12Z</time></trkpt>
<trkpt lat="46.23962784" lon="7.41497469"><ele></ele><time>2014-6-4T23:53:15Z</time></trkpt>
<trkpt lat="46.23978043" lon="7.41413021"><ele></ele><time>2014-6-4T23:53:18Z</time></trkpt>
<trkpt lat="46.23998260" lon="7.41332245"><ele></ele><time>2014-6-4T23:53:21Z</time></trkpt>
<trkpt lat="46.24020767" lon="7.41259909"><ele></ele><time>2014-6-4T23:53:24Z</time></trkpt>
<trkpt lat="46.24044800" lon="7.41192579"><ele></ele><time>2014-6-4T23:53:27Z</time></trkpt>
<trkpt lat="46.24074554" lon="7.41130829"><ele></ele><time>2014-6-4T23:53:30Z</time></trkpt>
<trkpt lat="46.24109650" lon="7.41077232"><ele></ele><time>2014-6-4T23:53:33Z</time></trkpt>
<trkpt lat="46.24145508" lon="7.41022539"><ele></ele><time>2014-6-4T23:53:36Z</time></trkpt>
<trkpt lat="46.24170685" lon="7.40969372"><ele></ele><time>2014-6-4T23:53:39Z</time></trkpt>
<trkpt lat="46.24193573" lon="7.40915346"><ele></ele><time>2014-6-4T23:53:42Z</time></trkpt>
<trkpt lat="46.24242783" lon="7.40823507"><ele></ele><time>2014-6-4T23:53:45Z</time></trkpt>
<trkpt lat="46.24273300" lon="7.40765095"><ele></ele><time>2014-6-4T23:53:48Z</time></trkpt>
<trkpt lat="46.24302673" lon="7.40706253"><ele></ele><time>2014-6-4T23:53:51Z</time></trkpt>
<trkpt lat="46.24308014" lon="7.40695381"><ele></ele><time>2014-6-4T23:53:54Z</time></trkpt>
<trkpt lat="46.24340057" lon="7.40635252"><ele></ele><time>2014-6-4T23:53:57Z</time></trkpt>
<trkpt lat="46.24351883" lon="7.40606022"><ele></ele><time>2014-6-4T23:54:0Z</time></trkpt>
<trkpt lat="46.24374008" lon="7.40552282"><ele></ele><time>2014-6-4T23:54:3Z</time></trkpt>
<trkpt lat="46.24383163" lon="7.40497112"><ele></ele><time>2014-6-4T23:54:6Z</time></trkpt>
<trkpt lat="46.24391937" lon="7.40417862"><ele></ele><time>2014-6-4T23:54:9Z</time></trkpt>
<trkpt lat="46.24398804" lon="7.40352488"><ele></ele><time>2014-6-4T23:54:12Z</time></trkpt>
<trkpt lat="46.24404526" lon="7.40298843"><ele></ele><time>2014-6-4T23:54:15Z</time></trkpt>
<trkpt lat="46.24411011" lon="7.40200806"><ele></ele><time>2014-6-4T23:54:18Z</time></trkpt>
<trkpt lat="46.24416351" lon="7.40098524"><ele></ele><time>2014-6-4T23:54:21Z</time></trkpt>
<trkpt lat="46.24422073" lon="7.40003681"><ele></ele><time>2014-6-4T23:54:24Z</time></trkpt>
<trkpt lat="46.24429703" lon="7.39889526"><ele></ele><time>2014-6-4T23:54:27Z</time></trkpt>
<trkpt lat="46.24434280" lon="7.39797544"><ele></ele><time>2014-6-4T23:54:30Z</time></trkpt>
<trkpt lat="46.24434280" lon="7.39714384"><ele></ele><time>2014-6-4T23:54:33Z</time></trkpt>
<trkpt lat="46.24433899" lon="7.39631605"><ele></ele><time>2014-6-4T23:54:36Z</time></trkpt>
<trkpt lat="46.24433136" lon="7.39526224"><ele></ele><time>2014-6-4T23:54:39Z</time></trkpt>
<trkpt lat="46.24432755" lon="7.39445591"><ele></ele><time>2014-6-4T23:54:42Z</time></trkpt>
<trkpt lat="46.24435043" lon="7.39338160"><ele></ele><time>2014-6-4T23:54:45Z</time></trkpt>
<trkpt lat="46.24443436" lon="7.39249659"><ele></ele><time>2014-6-4T23:54:48Z</time></trkpt>
<trkpt lat="46.24447632" lon="7.39162731"><ele></ele><time>2014-6-4T23:54:51Z</time></trkpt>
<trkpt lat="46.24450302" lon="7.39080000"><ele></ele><time>2014-6-4T23:54:54Z</time></trkpt>
<trkpt lat="46.24452591" lon="7.38989019"><ele></ele><time>2014-6-4T23:54:57Z</time></trkpt>
<trkpt lat="46.24454880" lon="7.38908291"><ele></ele><time>2014-6-4T23:55:0Z</time></trkpt>
<trkpt lat="46.24455261" lon="7.38842869"><ele></ele><time>2014-6-4T23:55:3Z</time></trkpt>
<trkpt lat="46.24451447" lon="7.38750601"><ele></ele><time>2014-6-4T23:55:6Z</time></trkpt>
<trkpt lat="46.24441910" lon="7.38645172"><ele></ele><time>2014-6-4T23:55:9Z</time></trkpt>
<trkpt lat="46.24430466" lon="7.38537550"><ele></ele><time>2014-6-4T23:55:12Z</time></trkpt>
<trkpt lat="46.24417877" lon="7.38428497"><ele></ele><time>2014-6-4T23:55:15Z</time></trkpt>
<trkpt lat="46.24404907" lon="7.38366365"><ele></ele><time>2014-6-4T23:55:18Z</time></trkpt>
<trkpt lat="46.24398804" lon="7.38347197"><ele></ele><time>2014-6-4T23:55:21Z</time></trkpt>
<trkpt lat="46.24393463" lon="7.38327646"><ele></ele><time>2014-6-4T23:55:24Z</time></trkpt>
<trkpt lat="46.24372101" lon="7.38300800"><ele></ele><time>2014-6-4T23:55:27Z</time></trkpt>
<trkpt lat="46.24363708" lon="7.38262701"><ele></ele><time>2014-6-4T23:55:30Z</time></trkpt>
<trkpt lat="46.24354172" lon="7.38207769"><ele></ele><time>2014-6-4T23:55:33Z</time></trkpt>
<trkpt lat="46.24320602" lon="7.38132238"><ele></ele><time>2014-6-4T23:55:36Z</time></trkpt>
<trkpt lat="46.24276352" lon="7.38048029"><ele></ele><time>2014-6-4T23:55:39Z</time></trkpt>
<trkpt lat="46.24237061" lon="7.37998533"><ele></ele><time>2014-6-4T23:55:42Z</time></trkpt>
<trkpt lat="46.24193573" lon="7.37947559"><ele></ele><time>2014-6-4T23:55:45Z</time></trkpt>
<trkpt lat="46.24155045" lon="7.37900829"><ele></ele><time>2014-6-4T23:55:48Z</time></trkpt>
<trkpt lat="46.24110794" lon="7.37853670"><ele></ele><time>2014-6-4T23:55:51Z</time></trkpt>
<trkpt lat="46.24058151" lon="7.37801218"><ele></ele><time>2014-6-4T23:55:54Z</time></trkpt>
<trkpt lat="46.24021530" lon="7.37762976"><ele></ele><time>2014-6-4T23:55:57Z</time></trkpt>
<trkpt lat="46.23968124" lon="7.37708092"><ele></ele><time>2014-6-4T23:56:0Z</time></trkpt>
<trkpt lat="46.23907089" lon="7.37644291"><ele></ele><time>2014-6-4T23:56:3Z</time></trkpt>
<trkpt lat="46.23878479" lon="7.37620592"><ele></ele><time>2014-6-4T23:56:6Z</time></trkpt>
<trkpt lat="46.23850250" lon="7.37595129"><ele></ele><time>2014-6-4T23:56:9Z</time></trkpt>
<trkpt lat="46.23818207" lon="7.37559938"><ele></ele><time>2014-6-4T23:56:12Z</time></trkpt>
<trkpt lat="46.23762131" lon="7.37497854"><ele></ele><time>2014-6-4T23:56:15Z</time></trkpt>
<trkpt lat="46.23754501" lon="7.37488890"><ele></ele><time>2014-6-4T23:56:18Z</time></trkpt>
<trkpt lat="46.23735809" lon="7.37473440"><ele></ele><time>2014-6-4T23:56:21Z</time></trkpt>
<trkpt lat="46.23699188" lon="7.37427139"><ele></ele><time>2014-6-4T23:56:24Z</time></trkpt>
<trkpt lat="46.23680496" lon="7.37407207"><ele></ele><time>2014-6-4T23:56:27Z</time></trkpt>
<trkpt lat="46.23666000" lon="7.37384796"><ele></ele><time>2014-6-4T23:56:30Z</time></trkpt>
<trkpt lat="46.23633194" lon="7.37336779"><ele></ele><time>2014-6-4T23:56:33Z</time></trkpt>
<trkpt lat="46.23582077" lon="7.37273073"><ele></ele><time>2014-6-4T23:56:36Z</time></trkpt>
<trkpt lat="46.23536682" lon="7.37231493"><ele></ele><time>2014-6-4T23:56:39Z</time></trkpt>
<trkpt lat="46.23524857" lon="7.37222195"><ele></ele><time>2014-6-4T23:56:42Z</time></trkpt>
<trkpt lat="46.23493576" lon="7.37202454"><ele></ele><time>2014-6-4T23:56:45Z</time></trkpt>
<trkpt lat="46.23468781" lon="7.37185621"><ele></ele><time>2014-6-4T23:56:48Z</time></trkpt>
<trkpt lat="46.23444366" lon="7.37169743"><ele></ele><time>2014-6-4T23:56:51Z</time></trkpt>
<trkpt lat="46.23419571" lon="7.37161589"><ele></ele><time>2014-6-4T23:56:54Z</time></trkpt>
<trkpt lat="46.23397064" lon="7.37146902"><ele></ele><time>2014-6-4T23:56:57Z</time></trkpt>
<trkpt lat="46.23353958" lon="7.37126398"><ele></ele><time>2014-6-4T23:57:0Z</time></trkpt>
<trkpt lat="46.23315048" lon="7.37116003"><ele></ele><time>2014-6-4T23:57:3Z</time></trkpt>
<trkpt lat="46.23272324" lon="7.37098885"><ele></ele><time>2014-6-4T23:57:6Z</time></trkpt>
<trkpt lat="46.23247528" lon="7.37091923"><ele></ele><time>2014-6-4T23:57:9Z</time></trkpt>
<trkpt lat="46.23226547" lon="7.37092924"><ele></ele><time>2014-6-4T23:57:12Z</time></trkpt>
<trkpt lat="46.23205566" lon="7.37091351"><ele></ele><time>2014-6-4T23:57:15Z</time></trkpt>
<trkpt lat="46.23154831" lon="7.37096500"><ele></ele><time>2014-6-4T23:57:18Z</time></trkpt>
<trkpt lat="46.23117447" lon="7.37099648"><ele></ele><time>2014-6-4T23:57:21Z</time></trkpt>
<trkpt lat="46.23110199" lon="7.37099600"><ele></ele><time>2014-6-4T23:57:24Z</time></trkpt>
<trkpt lat="46.23065567" lon="7.37095070"><ele></ele><time>2014-6-4T23:57:27Z</time></trkpt>
<trkpt lat="46.23032379" lon="7.37087631"><ele></ele><time>2014-6-4T23:57:30Z</time></trkpt>
<trkpt lat="46.22981262" lon="7.37090540"><ele></ele><time>2014-6-4T23:57:33Z</time></trkpt>
<trkpt lat="46.22970963" lon="7.37093210"><ele></ele><time>2014-6-4T23:57:36Z</time></trkpt>
<trkpt lat="46.22968292" lon="7.37108946"><ele></ele><time>2014-6-4T23:57:39Z</time></trkpt>
<trkpt lat="46.22980118" lon="7.37122345"><ele></ele><time>2014-6-4T23:57:42Z</time></trkpt>
<trkpt lat="46.22976685" lon="7.37132215"><ele></ele><time>2014-6-4T23:57:45Z</time></trkpt>
<trkpt lat="46.22971344" lon="7.37137127"><ele></ele><time>2014-6-4T23:57:48Z</time></trkpt>
<trkpt lat="46.22965622" lon="7.37149811"><ele></ele><time>2014-6-4T23:57:51Z</time></trkpt>
<trkpt lat="46.22967911" lon="7.37152004"><ele></ele><time>2014-6-4T23:57:54Z</time></trkpt>
<trkpt lat="46.22971344" lon="7.37146950"><ele></ele><time>2014-6-4T23:57:57Z</time></trkpt>
<trkpt lat="46.22978210" lon="7.37134695"><ele></ele><time>2014-6-4T23:58:0Z</time></trkpt>
<trkpt lat="46.22984695" lon="7.37122774"><ele></ele><time>2014-6-4T23:58:3Z</time></trkpt>
<trkpt lat="46.22980499" lon="7.37112665"><ele></ele><time>2014-6-4T23:58:6Z</time></trkpt>
<trkpt lat="46.22966766" lon="7.37093496"><ele></ele><time>2014-6-4T23:58:9Z</time></trkpt>
<trkpt lat="46.22953415" lon="7.37085629"><ele></ele><time>2014-6-4T23:58:12Z</time></trkpt>
<trkpt lat="46.22935867" lon="7.37077045"><ele></ele><time>2014-6-4T23:58:15Z</time></trkpt>
<trkpt lat="46.22932434" lon="7.37075090"><ele></ele><time>2014-6-4T23:58:18Z</time></trkpt>
<trkpt lat="46.22911835" lon="7.37065792"><ele></ele><time>2014-6-4T23:58:21Z</time></trkpt>
<trkpt lat="46.22885132" lon="7.37049580"><ele></ele><time>2014-6-4T23:58:24Z</time></trkpt>
<trkpt lat="46.22875214" lon="7.37045240"><ele></ele><time>2014-6-4T23:58:27Z</time></trkpt>
<trkpt lat="46.22848511" lon="7.37042332"><ele></ele><time>2014-6-4T23:58:30Z</time></trkpt>
<trkpt lat="46.22833252" lon="7.37034655"><ele></ele><time>2014-6-4T23:58:33Z</time></trkpt>
<trkpt lat="46.22835159" lon="7.37019539"><ele></ele><time>2014-6-4T23:58:36Z</time></trkpt>
<trkpt lat="46.22855377" lon="7.36958742"><ele></ele><time>2014-6-4T23:58:39Z</time></trkpt>
<trkpt lat="46.22867584" lon="7.36921358"><ele></ele><time>2014-6-4T23:58:42Z</time></trkpt>
<trkpt lat="46.22882080" lon="7.36892033"><ele></ele><time>2014-6-4T23:58:45Z</time></trkpt>
<trkpt lat="46.22881317" lon="7.36870241"><ele></ele><time>2014-6-4T23:58:48Z</time></trkpt>
<trkpt lat="46.22872543" lon="7.36866426"><ele></ele><time>2014-6-4T23:58:51Z</time></trkpt>
<trkpt lat="46.22832489" lon="7.36844540"><ele></ele><time>2014-6-4T23:58:54Z</time></trkpt>
<trkpt lat="46.22805023" lon="7.36819363"><ele></ele><time>2014-6-4T23:58:57Z</time></trkpt>
<trkpt lat="46.22790527" lon="7.36796331"><ele></ele><time>2014-6-4T23:59:0Z</time></trkpt>
<trkpt lat="46.22774887" lon="7.36747599"><ele></ele><time>2014-6-4T23:59:3Z</time></trkpt>
<trkpt lat="46.22753525" lon="7.36620951"><ele></ele><time>2014-6-4T23:59:6Z</time></trkpt>
<trkpt lat="46.22738647" lon="7.36527681"><ele></ele><time>2014-6-4T23:59:9Z</time></trkpt>
<trkpt lat="46.22725296" lon="7.36449671"><ele></ele><time>2014-6-4T23:59:12Z</time></trkpt>
<trkpt lat="46.22708511" lon="7.36348629"><ele></ele><time>2014-6-4T23:59:15Z</time></trkpt>
<trkpt lat="46.22694016" lon="7.36262560"><ele></ele><time>2014-6-4T23:59:18Z</time></trkpt>
<trkpt lat="46.22681808" lon="7.36186838"><ele></ele><time>2014-6-4T23:59:21Z</time></trkpt>
<trkpt lat="46.22682571" lon="7.36154366"><ele></ele><time>2014-6-4T23:59:24Z</time></trkpt>
</trkseg></trk></gpx>